<?xml version="1.0" encoding="UTF-8" standalone="no" ?>
<gpx xmlns="http://www.topografix.com/GPX/1/1" xmlns:xsi="http://www.w3.org/2001/XMLSchema-instance" xsi:schemaLocation="http://www.topografix.com/GPX/1/1 http://www.topografix.com/GPX/1/1/gpx.xsd" version="1.1" creator="VisuGPX - https://www.visugpx.com">
  <metadata>
    <name>Saint Antonin </name>
    <desc><![CDATA[Belle boucle VTT entre St Antonin et Cazals]]></desc>
  </metadata>
  <trk>
    <name><![CDATA[xc230912]]></name>
    <trkseg>
      <trkpt lat="44.15263" lon="1.75163">
        <ele>122.609375</ele>
      </trkpt>
      <trkpt lat="44.15247" lon="1.75315">
        <ele>121</ele>
      </trkpt>
      <trkpt lat="44.1533" lon="1.75389">
        <ele>121</ele>
      </trkpt>
      <trkpt lat="44.15298" lon="1.7563">
        <ele>128.54296875</ele>
      </trkpt>
      <trkpt lat="44.15279" lon="1.75735">
        <ele>131.7734375</ele>
      </trkpt>
      <trkpt lat="44.15247" lon="1.75759">
        <ele>134.34765625</ele>
      </trkpt>
      <trkpt lat="44.15226" lon="1.75771">
        <ele>138</ele>
        <time>2007-11-10T13:29:52Z</time>
      </trkpt>
      <trkpt lat="44.15238" lon="1.758">
        <ele>141</ele>
        <time>2007-11-10T13:30:07Z</time>
      </trkpt>
      <trkpt lat="44.1525" lon="1.75832">
        <ele>143</ele>
        <time>2007-11-10T13:30:24Z</time>
      </trkpt>
      <trkpt lat="44.1526" lon="1.75858">
        <ele>147</ele>
        <time>2007-11-10T13:30:39Z</time>
      </trkpt>
      <trkpt lat="44.15269" lon="1.75876">
        <ele>148</ele>
        <time>2007-11-10T13:30:50Z</time>
      </trkpt>
      <trkpt lat="44.15277" lon="1.7589">
        <ele>150</ele>
        <time>2007-11-10T13:30:58Z</time>
      </trkpt>
      <trkpt lat="44.15288" lon="1.75915">
        <ele>154</ele>
        <time>2007-11-10T13:31:16Z</time>
      </trkpt>
      <trkpt lat="44.15293" lon="1.75928">
        <ele>156</ele>
        <time>2007-11-10T13:31:25Z</time>
      </trkpt>
      <trkpt lat="44.1531" lon="1.75957">
        <ele>160</ele>
        <time>2007-11-10T13:31:47Z</time>
      </trkpt>
      <trkpt lat="44.15317" lon="1.75969">
        <ele>162</ele>
        <time>2007-11-10T13:31:57Z</time>
      </trkpt>
      <trkpt lat="44.15329" lon="1.75988">
        <ele>165</ele>
        <time>2007-11-10T13:32:11Z</time>
      </trkpt>
      <trkpt lat="44.15348" lon="1.76013">
        <ele>168</ele>
        <time>2007-11-10T13:32:30Z</time>
      </trkpt>
      <trkpt lat="44.15364" lon="1.76034">
        <ele>172</ele>
        <time>2007-11-10T13:32:49Z</time>
      </trkpt>
      <trkpt lat="44.15382" lon="1.76055">
        <ele>177</ele>
        <time>2007-11-10T13:33:09Z</time>
      </trkpt>
      <trkpt lat="44.15391" lon="1.76067">
        <ele>179</ele>
        <time>2007-11-10T13:33:20Z</time>
      </trkpt>
      <trkpt lat="44.15407" lon="1.76091">
        <ele>181</ele>
        <time>2007-11-10T13:33:40Z</time>
      </trkpt>
      <trkpt lat="44.15422" lon="1.76117">
        <ele>185</ele>
        <time>2007-11-10T13:34:00Z</time>
      </trkpt>
      <trkpt lat="44.15441" lon="1.76139">
        <ele>187</ele>
        <time>2007-11-10T13:34:19Z</time>
      </trkpt>
      <trkpt lat="44.15468" lon="1.76163">
        <ele>189</ele>
        <time>2007-11-10T13:34:36Z</time>
      </trkpt>
      <trkpt lat="44.15482" lon="1.76188">
        <ele>192</ele>
        <time>2007-11-10T13:34:51Z</time>
      </trkpt>
      <trkpt lat="44.15488" lon="1.76202">
        <ele>193</ele>
        <time>2007-11-10T13:35:00Z</time>
      </trkpt>
      <trkpt lat="44.15492" lon="1.76218">
        <ele>196</ele>
        <time>2007-11-10T13:35:11Z</time>
      </trkpt>
      <trkpt lat="44.15503" lon="1.76246">
        <ele>200</ele>
        <time>2007-11-10T13:35:32Z</time>
      </trkpt>
      <trkpt lat="44.1552" lon="1.76276">
        <ele>202</ele>
        <time>2007-11-10T13:35:51Z</time>
      </trkpt>
      <trkpt lat="44.15546" lon="1.76308">
        <ele>205</ele>
        <time>2007-11-10T13:36:08Z</time>
      </trkpt>
      <trkpt lat="44.1557" lon="1.76354">
        <ele>208</ele>
        <time>2007-11-10T13:36:32Z</time>
      </trkpt>
      <trkpt lat="44.15585" lon="1.76392">
        <ele>211</ele>
        <time>2007-11-10T13:36:52Z</time>
      </trkpt>
      <trkpt lat="44.15599" lon="1.76427">
        <ele>217</ele>
        <time>2007-11-10T13:37:15Z</time>
      </trkpt>
      <trkpt lat="44.15612" lon="1.76455">
        <ele>221</ele>
        <time>2007-11-10T13:37:38Z</time>
      </trkpt>
      <trkpt lat="44.15629" lon="1.76477">
        <ele>224</ele>
        <time>2007-11-10T13:37:58Z</time>
      </trkpt>
      <trkpt lat="44.15647" lon="1.76498">
        <ele>227</ele>
        <time>2007-11-10T13:38:15Z</time>
      </trkpt>
      <trkpt lat="44.15658" lon="1.76524">
        <ele>230</ele>
        <time>2007-11-10T13:38:32Z</time>
      </trkpt>
      <trkpt lat="44.15681" lon="1.76545">
        <ele>230</ele>
        <time>2007-11-10T13:38:49Z</time>
      </trkpt>
      <trkpt lat="44.15702" lon="1.76562">
        <ele>233</ele>
        <time>2007-11-10T13:39:04Z</time>
      </trkpt>
      <trkpt lat="44.15712" lon="1.76576">
        <ele>235</ele>
        <time>2007-11-10T13:39:11Z</time>
      </trkpt>
      <trkpt lat="44.15724" lon="1.76606">
        <ele>238</ele>
        <time>2007-11-10T13:39:28Z</time>
      </trkpt>
      <trkpt lat="44.15726" lon="1.76618">
        <ele>239</ele>
        <time>2007-11-10T13:39:37Z</time>
      </trkpt>
      <trkpt lat="44.15727" lon="1.76642">
        <ele>243</ele>
        <time>2007-11-10T13:39:54Z</time>
      </trkpt>
      <trkpt lat="44.15733" lon="1.76668">
        <ele>247</ele>
        <time>2007-11-10T13:40:13Z</time>
      </trkpt>
      <trkpt lat="44.15732" lon="1.76689">
        <ele>249</ele>
        <time>2007-11-10T13:40:29Z</time>
      </trkpt>
      <trkpt lat="44.15734" lon="1.76711">
        <ele>252</ele>
        <time>2007-11-10T13:40:47Z</time>
      </trkpt>
      <trkpt lat="44.15734" lon="1.76734">
        <ele>257</ele>
        <time>2007-11-10T13:41:03Z</time>
      </trkpt>
      <trkpt lat="44.15736" lon="1.76757">
        <ele>260</ele>
        <time>2007-11-10T13:41:22Z</time>
      </trkpt>
      <trkpt lat="44.15736" lon="1.76783">
        <ele>264</ele>
        <time>2007-11-10T13:41:40Z</time>
      </trkpt>
      <trkpt lat="44.1574" lon="1.76808">
        <ele>267</ele>
        <time>2007-11-10T13:41:59Z</time>
      </trkpt>
      <trkpt lat="44.15742" lon="1.76832">
        <ele>270</ele>
        <time>2007-11-10T13:42:18Z</time>
      </trkpt>
      <trkpt lat="44.15751" lon="1.76847">
        <ele>274</ele>
        <time>2007-11-10T13:42:33Z</time>
      </trkpt>
      <trkpt lat="44.15771" lon="1.76834">
        <ele>277</ele>
        <time>2007-11-10T13:42:51Z</time>
      </trkpt>
      <trkpt lat="44.15793" lon="1.76818">
        <ele>281</ele>
        <time>2007-11-10T13:43:11Z</time>
      </trkpt>
      <trkpt lat="44.15819" lon="1.76803">
        <ele>284</ele>
        <time>2007-11-10T13:43:32Z</time>
      </trkpt>
      <trkpt lat="44.15844" lon="1.76788">
        <ele>288</ele>
        <time>2007-11-10T13:43:53Z</time>
      </trkpt>
      <trkpt lat="44.15867" lon="1.76772">
        <ele>292</ele>
        <time>2007-11-10T13:44:13Z</time>
      </trkpt>
      <trkpt lat="44.15892" lon="1.7675">
        <ele>295</ele>
        <time>2007-11-10T13:44:35Z</time>
      </trkpt>
      <trkpt lat="44.15908" lon="1.76737">
        <ele>297</ele>
        <time>2007-11-10T13:44:49Z</time>
      </trkpt>
      <trkpt lat="44.15936" lon="1.76718">
        <ele>300</ele>
        <time>2007-11-10T13:45:11Z</time>
      </trkpt>
      <trkpt lat="44.15967" lon="1.76719">
        <ele>303</ele>
        <time>2007-11-10T13:45:31Z</time>
      </trkpt>
      <trkpt lat="44.15989" lon="1.76736">
        <ele>306</ele>
        <time>2007-11-10T13:45:48Z</time>
      </trkpt>
      <trkpt lat="44.16006" lon="1.76767">
        <ele>310</ele>
        <time>2007-11-10T13:46:07Z</time>
      </trkpt>
      <trkpt lat="44.16014" lon="1.76806">
        <ele>312</ele>
        <time>2007-11-10T13:46:27Z</time>
      </trkpt>
      <trkpt lat="44.16019" lon="1.76849">
        <ele>314</ele>
        <time>2007-11-10T13:46:46Z</time>
      </trkpt>
      <trkpt lat="44.16024" lon="1.76896">
        <ele>318</ele>
        <time>2007-11-10T13:47:05Z</time>
      </trkpt>
      <trkpt lat="44.16028" lon="1.76937">
        <ele>319</ele>
        <time>2007-11-10T13:47:22Z</time>
      </trkpt>
      <trkpt lat="44.16033" lon="1.76983">
        <ele>323</ele>
        <time>2007-11-10T13:47:42Z</time>
      </trkpt>
      <trkpt lat="44.16037" lon="1.76997">
        <ele>324</ele>
        <time>2007-11-10T13:48:00Z</time>
      </trkpt>
      <trkpt lat="44.16043" lon="1.76998">
        <ele>324</ele>
        <time>2007-11-10T13:48:24Z</time>
      </trkpt>
      <trkpt lat="44.16042" lon="1.76997">
        <ele>322</ele>
        <time>2007-11-10T13:48:55Z</time>
      </trkpt>
      <trkpt lat="44.16042" lon="1.76996">
        <ele>323</ele>
        <time>2007-11-10T13:49:22Z</time>
      </trkpt>
      <trkpt lat="44.1604" lon="1.76998">
        <ele>324</ele>
        <time>2007-11-10T13:49:50Z</time>
      </trkpt>
      <trkpt lat="44.16041" lon="1.77009">
        <ele>324</ele>
        <time>2007-11-10T13:50:05Z</time>
      </trkpt>
      <trkpt lat="44.1606" lon="1.77024">
        <ele>324</ele>
        <time>2007-11-10T13:50:17Z</time>
      </trkpt>
      <trkpt lat="44.16077" lon="1.7704">
        <ele>325</ele>
        <time>2007-11-10T13:50:26Z</time>
      </trkpt>
      <trkpt lat="44.161" lon="1.77058">
        <ele>326</ele>
        <time>2007-11-10T13:50:37Z</time>
      </trkpt>
      <trkpt lat="44.16131" lon="1.77091">
        <ele>328</ele>
        <time>2007-11-10T13:50:54Z</time>
      </trkpt>
      <trkpt lat="44.16153" lon="1.7712">
        <ele>328</ele>
        <time>2007-11-10T13:51:08Z</time>
      </trkpt>
      <trkpt lat="44.16187" lon="1.77139">
        <ele>330</ele>
        <time>2007-11-10T13:51:23Z</time>
      </trkpt>
      <trkpt lat="44.16216" lon="1.77145">
        <ele>332</ele>
        <time>2007-11-10T13:51:36Z</time>
      </trkpt>
      <trkpt lat="44.16255" lon="1.77143">
        <ele>333</ele>
        <time>2007-11-10T13:51:50Z</time>
      </trkpt>
      <trkpt lat="44.1629" lon="1.77147">
        <ele>333</ele>
        <time>2007-11-10T13:52:02Z</time>
      </trkpt>
      <trkpt lat="44.16298" lon="1.77145">
        <ele>333</ele>
        <time>2007-11-10T13:52:19Z</time>
      </trkpt>
      <trkpt lat="44.16296" lon="1.77145">
        <ele>334</ele>
        <time>2007-11-10T13:53:06Z</time>
      </trkpt>
      <trkpt lat="44.16296" lon="1.77144">
        <ele>333</ele>
        <time>2007-11-10T13:53:28Z</time>
      </trkpt>
      <trkpt lat="44.16307" lon="1.77133">
        <ele>333</ele>
        <time>2007-11-10T13:53:38Z</time>
      </trkpt>
      <trkpt lat="44.16347" lon="1.77098">
        <ele>331</ele>
        <time>2007-11-10T13:53:52Z</time>
      </trkpt>
      <trkpt lat="44.16362" lon="1.77078">
        <ele>330</ele>
        <time>2007-11-10T13:53:58Z</time>
      </trkpt>
      <trkpt lat="44.16386" lon="1.77068">
        <ele>329</ele>
        <time>2007-11-10T13:54:07Z</time>
      </trkpt>
      <trkpt lat="44.16422" lon="1.77057">
        <ele>329</ele>
        <time>2007-11-10T13:54:17Z</time>
      </trkpt>
      <trkpt lat="44.1646" lon="1.77048">
        <ele>328</ele>
        <time>2007-11-10T13:54:28Z</time>
      </trkpt>
      <trkpt lat="44.16466" lon="1.77046">
        <ele>328</ele>
        <time>2007-11-10T13:54:39Z</time>
      </trkpt>
      <trkpt lat="44.16477" lon="1.77045">
        <ele>327</ele>
        <time>2007-11-10T13:54:51Z</time>
      </trkpt>
      <trkpt lat="44.16498" lon="1.77037">
        <ele>328</ele>
        <time>2007-11-10T13:54:59Z</time>
      </trkpt>
      <trkpt lat="44.1651" lon="1.77028">
        <ele>328</ele>
        <time>2007-11-10T13:55:08Z</time>
      </trkpt>
      <trkpt lat="44.1652" lon="1.77014">
        <ele>329</ele>
        <time>2007-11-10T13:55:15Z</time>
      </trkpt>
      <trkpt lat="44.16548" lon="1.76998">
        <ele>328</ele>
        <time>2007-11-10T13:55:28Z</time>
      </trkpt>
      <trkpt lat="44.16569" lon="1.76975">
        <ele>328</ele>
        <time>2007-11-10T13:55:40Z</time>
      </trkpt>
      <trkpt lat="44.16574" lon="1.76972">
        <ele>329</ele>
        <time>2007-11-10T13:55:48Z</time>
      </trkpt>
      <trkpt lat="44.1659" lon="1.76946">
        <ele>329</ele>
        <time>2007-11-10T13:56:03Z</time>
      </trkpt>
      <trkpt lat="44.16601" lon="1.76926">
        <ele>328</ele>
        <time>2007-11-10T13:56:14Z</time>
      </trkpt>
      <trkpt lat="44.1661" lon="1.76908">
        <ele>328</ele>
        <time>2007-11-10T13:56:26Z</time>
      </trkpt>
      <trkpt lat="44.16618" lon="1.76882">
        <ele>328</ele>
        <time>2007-11-10T13:56:40Z</time>
      </trkpt>
      <trkpt lat="44.16626" lon="1.76857">
        <ele>327</ele>
        <time>2007-11-10T13:56:51Z</time>
      </trkpt>
      <trkpt lat="44.16631" lon="1.7683">
        <ele>329</ele>
        <time>2007-11-10T13:57:06Z</time>
      </trkpt>
      <trkpt lat="44.16631" lon="1.76821">
        <ele>328</ele>
        <time>2007-11-10T13:57:17Z</time>
      </trkpt>
      <trkpt lat="44.16627" lon="1.76804">
        <ele>328</ele>
        <time>2007-11-10T13:57:28Z</time>
      </trkpt>
      <trkpt lat="44.16629" lon="1.76777">
        <ele>328</ele>
        <time>2007-11-10T13:57:39Z</time>
      </trkpt>
      <trkpt lat="44.1663" lon="1.76769">
        <ele>327</ele>
        <time>2007-11-10T13:57:52Z</time>
      </trkpt>
      <trkpt lat="44.16631" lon="1.76756">
        <ele>327</ele>
        <time>2007-11-10T13:58:04Z</time>
      </trkpt>
      <trkpt lat="44.16626" lon="1.76734">
        <ele>326</ele>
        <time>2007-11-10T13:58:20Z</time>
      </trkpt>
      <trkpt lat="44.16623" lon="1.76715">
        <ele>327</ele>
        <time>2007-11-10T13:58:36Z</time>
      </trkpt>
      <trkpt lat="44.16619" lon="1.76695">
        <ele>327</ele>
        <time>2007-11-10T13:58:47Z</time>
      </trkpt>
      <trkpt lat="44.16615" lon="1.76675">
        <ele>326</ele>
        <time>2007-11-10T13:58:57Z</time>
      </trkpt>
      <trkpt lat="44.16614" lon="1.76663">
        <ele>326</ele>
        <time>2007-11-10T13:59:06Z</time>
      </trkpt>
      <trkpt lat="44.16617" lon="1.76645">
        <ele>325</ele>
        <time>2007-11-10T13:59:16Z</time>
      </trkpt>
      <trkpt lat="44.16612" lon="1.76618">
        <ele>323</ele>
        <time>2007-11-10T13:59:25Z</time>
      </trkpt>
      <trkpt lat="44.16599" lon="1.76592">
        <ele>322</ele>
        <time>2007-11-10T13:59:36Z</time>
      </trkpt>
      <trkpt lat="44.16595" lon="1.76567">
        <ele>320</ele>
        <time>2007-11-10T13:59:44Z</time>
      </trkpt>
      <trkpt lat="44.16592" lon="1.7654">
        <ele>318</ele>
        <time>2007-11-10T13:59:53Z</time>
      </trkpt>
      <trkpt lat="44.16588" lon="1.76516">
        <ele>317</ele>
        <time>2007-11-10T14:00:04Z</time>
      </trkpt>
      <trkpt lat="44.16584" lon="1.76487">
        <ele>314</ele>
        <time>2007-11-10T14:00:15Z</time>
      </trkpt>
      <trkpt lat="44.16576" lon="1.76469">
        <ele>313</ele>
        <time>2007-11-10T14:00:25Z</time>
      </trkpt>
      <trkpt lat="44.16567" lon="1.76451">
        <ele>312</ele>
        <time>2007-11-10T14:00:36Z</time>
      </trkpt>
      <trkpt lat="44.16569" lon="1.76445">
        <ele>312</ele>
        <time>2007-11-10T14:00:50Z</time>
      </trkpt>
      <trkpt lat="44.16566" lon="1.76423">
        <ele>310</ele>
        <time>2007-11-10T14:01:01Z</time>
      </trkpt>
      <trkpt lat="44.16561" lon="1.76398">
        <ele>308</ele>
        <time>2007-11-10T14:01:10Z</time>
      </trkpt>
      <trkpt lat="44.16554" lon="1.76378">
        <ele>307</ele>
        <time>2007-11-10T14:01:19Z</time>
      </trkpt>
      <trkpt lat="44.16546" lon="1.76355">
        <ele>307</ele>
        <time>2007-11-10T14:01:28Z</time>
      </trkpt>
      <trkpt lat="44.16534" lon="1.76318">
        <ele>304</ele>
        <time>2007-11-10T14:01:41Z</time>
      </trkpt>
      <trkpt lat="44.16528" lon="1.76307">
        <ele>305</ele>
        <time>2007-11-10T14:01:46Z</time>
      </trkpt>
      <trkpt lat="44.16521" lon="1.76284">
        <ele>305</ele>
        <time>2007-11-10T14:01:58Z</time>
      </trkpt>
      <trkpt lat="44.16517" lon="1.76256">
        <ele>305</ele>
        <time>2007-11-10T14:02:12Z</time>
      </trkpt>
      <trkpt lat="44.1651" lon="1.76215">
        <ele>305</ele>
        <time>2007-11-10T14:02:26Z</time>
      </trkpt>
      <trkpt lat="44.16501" lon="1.76188">
        <ele>304</ele>
        <time>2007-11-10T14:02:40Z</time>
      </trkpt>
      <trkpt lat="44.16502" lon="1.76177">
        <ele>304</ele>
        <time>2007-11-10T14:02:51Z</time>
      </trkpt>
      <trkpt lat="44.16506" lon="1.76158">
        <ele>303</ele>
        <time>2007-11-10T14:03:00Z</time>
      </trkpt>
      <trkpt lat="44.16499" lon="1.76145">
        <ele>303</ele>
        <time>2007-11-10T14:03:07Z</time>
      </trkpt>
      <trkpt lat="44.16492" lon="1.76126">
        <ele>301</ele>
        <time>2007-11-10T14:03:18Z</time>
      </trkpt>
      <trkpt lat="44.16486" lon="1.76109">
        <ele>301</ele>
        <time>2007-11-10T14:03:30Z</time>
      </trkpt>
      <trkpt lat="44.16483" lon="1.76092">
        <ele>301</ele>
        <time>2007-11-10T14:03:42Z</time>
      </trkpt>
      <trkpt lat="44.16473" lon="1.76066">
        <ele>299</ele>
        <time>2007-11-10T14:03:55Z</time>
      </trkpt>
      <trkpt lat="44.16479" lon="1.76055">
        <ele>300</ele>
        <time>2007-11-10T14:04:07Z</time>
      </trkpt>
      <trkpt lat="44.16479" lon="1.76041">
        <ele>299</ele>
        <time>2007-11-10T14:04:15Z</time>
      </trkpt>
      <trkpt lat="44.1648" lon="1.75996">
        <ele>297</ele>
        <time>2007-11-10T14:04:26Z</time>
      </trkpt>
      <trkpt lat="44.16483" lon="1.75977">
        <ele>297</ele>
        <time>2007-11-10T14:04:36Z</time>
      </trkpt>
      <trkpt lat="44.16487" lon="1.75974">
        <ele>300</ele>
        <time>2007-11-10T14:04:46Z</time>
      </trkpt>
      <trkpt lat="44.16496" lon="1.75965">
        <ele>303</ele>
        <time>2007-11-10T14:05:02Z</time>
      </trkpt>
      <trkpt lat="44.16503" lon="1.75952">
        <ele>304</ele>
        <time>2007-11-10T14:05:16Z</time>
      </trkpt>
      <trkpt lat="44.16499" lon="1.75919">
        <ele>304</ele>
        <time>2007-11-10T14:05:26Z</time>
      </trkpt>
      <trkpt lat="44.16496" lon="1.759">
        <ele>303</ele>
        <time>2007-11-10T14:05:45Z</time>
      </trkpt>
      <trkpt lat="44.16497" lon="1.7589">
        <ele>303</ele>
        <time>2007-11-10T14:06:11Z</time>
      </trkpt>
      <trkpt lat="44.16489" lon="1.75844">
        <ele>302</ele>
        <time>2007-11-10T14:06:24Z</time>
      </trkpt>
      <trkpt lat="44.1649" lon="1.75834">
        <ele>302</ele>
        <time>2007-11-10T14:06:28Z</time>
      </trkpt>
      <trkpt lat="44.16503" lon="1.75799">
        <ele>304</ele>
        <time>2007-11-10T14:06:41Z</time>
      </trkpt>
      <trkpt lat="44.16522" lon="1.75785">
        <ele>306</ele>
        <time>2007-11-10T14:06:54Z</time>
      </trkpt>
      <trkpt lat="44.16542" lon="1.75736">
        <ele>303</ele>
        <time>2007-11-10T14:07:05Z</time>
      </trkpt>
      <trkpt lat="44.16574" lon="1.75695">
        <ele>301</ele>
        <time>2007-11-10T14:07:15Z</time>
      </trkpt>
      <trkpt lat="44.16597" lon="1.75673">
        <ele>301</ele>
        <time>2007-11-10T14:07:23Z</time>
      </trkpt>
      <trkpt lat="44.16615" lon="1.75659">
        <ele>300</ele>
        <time>2007-11-10T14:07:29Z</time>
      </trkpt>
      <trkpt lat="44.16661" lon="1.75627">
        <ele>299</ele>
        <time>2007-11-10T14:07:41Z</time>
      </trkpt>
      <trkpt lat="44.16695" lon="1.75613">
        <ele>300</ele>
        <time>2007-11-10T14:07:51Z</time>
      </trkpt>
      <trkpt lat="44.16717" lon="1.75601">
        <ele>298</ele>
        <time>2007-11-10T14:07:59Z</time>
      </trkpt>
      <trkpt lat="44.16741" lon="1.75575">
        <ele>295</ele>
        <time>2007-11-10T14:08:07Z</time>
      </trkpt>
      <trkpt lat="44.16764" lon="1.75557">
        <ele>294</ele>
        <time>2007-11-10T14:08:13Z</time>
      </trkpt>
      <trkpt lat="44.16783" lon="1.75536">
        <ele>292</ele>
        <time>2007-11-10T14:08:19Z</time>
      </trkpt>
      <trkpt lat="44.16805" lon="1.75511">
        <ele>290</ele>
        <time>2007-11-10T14:08:27Z</time>
      </trkpt>
      <trkpt lat="44.16814" lon="1.75493">
        <ele>289</ele>
        <time>2007-11-10T14:08:32Z</time>
      </trkpt>
      <trkpt lat="44.16811" lon="1.75468">
        <ele>287</ele>
        <time>2007-11-10T14:08:41Z</time>
      </trkpt>
      <trkpt lat="44.16812" lon="1.75468">
        <ele>287</ele>
        <time>2007-11-10T14:09:10Z</time>
      </trkpt>
      <trkpt lat="44.16815" lon="1.75465">
        <ele>287</ele>
        <time>2007-11-10T14:09:40Z</time>
      </trkpt>
      <trkpt lat="44.16773" lon="1.75471">
        <ele>282</ele>
        <time>2007-11-10T14:09:51Z</time>
      </trkpt>
      <trkpt lat="44.16749" lon="1.75478">
        <ele>276</ele>
        <time>2007-11-10T14:09:58Z</time>
      </trkpt>
      <trkpt lat="44.16726" lon="1.75488">
        <ele>275</ele>
        <time>2007-11-10T14:10:07Z</time>
      </trkpt>
      <trkpt lat="44.1671" lon="1.75501">
        <ele>273</ele>
        <time>2007-11-10T14:10:16Z</time>
      </trkpt>
      <trkpt lat="44.16715" lon="1.75481">
        <ele>268</ele>
        <time>2007-11-10T14:10:22Z</time>
      </trkpt>
      <trkpt lat="44.16725" lon="1.75455">
        <ele>264</ele>
        <time>2007-11-10T14:10:31Z</time>
      </trkpt>
      <trkpt lat="44.16712" lon="1.75461">
        <ele>262</ele>
        <time>2007-11-10T14:10:37Z</time>
      </trkpt>
      <trkpt lat="44.16685" lon="1.75481">
        <ele>256</ele>
        <time>2007-11-10T14:10:49Z</time>
      </trkpt>
      <trkpt lat="44.16666" lon="1.7549">
        <ele>252</ele>
        <time>2007-11-10T14:10:57Z</time>
      </trkpt>
      <trkpt lat="44.16647" lon="1.75496">
        <ele>246</ele>
        <time>2007-11-10T14:11:07Z</time>
      </trkpt>
      <trkpt lat="44.16634" lon="1.755">
        <ele>244</ele>
        <time>2007-11-10T14:11:15Z</time>
      </trkpt>
      <trkpt lat="44.16623" lon="1.755">
        <ele>242</ele>
        <time>2007-11-10T14:11:19Z</time>
      </trkpt>
      <trkpt lat="44.166" lon="1.75503">
        <ele>236</ele>
        <time>2007-11-10T14:11:28Z</time>
      </trkpt>
      <trkpt lat="44.16585" lon="1.75507">
        <ele>232</ele>
        <time>2007-11-10T14:11:35Z</time>
      </trkpt>
      <trkpt lat="44.16563" lon="1.75512">
        <ele>226</ele>
        <time>2007-11-10T14:11:46Z</time>
      </trkpt>
      <trkpt lat="44.16565" lon="1.75502">
        <ele>222</ele>
        <time>2007-11-10T14:11:53Z</time>
      </trkpt>
      <trkpt lat="44.16575" lon="1.75489">
        <ele>217</ele>
        <time>2007-11-10T14:11:59Z</time>
      </trkpt>
      <trkpt lat="44.16586" lon="1.75468">
        <ele>214</ele>
        <time>2007-11-10T14:12:08Z</time>
      </trkpt>
      <trkpt lat="44.16598" lon="1.75446">
        <ele>208</ele>
        <time>2007-11-10T14:12:19Z</time>
      </trkpt>
      <trkpt lat="44.16608" lon="1.75433">
        <ele>205</ele>
        <time>2007-11-10T14:12:26Z</time>
      </trkpt>
      <trkpt lat="44.16625" lon="1.75426">
        <ele>200</ele>
        <time>2007-11-10T14:12:34Z</time>
      </trkpt>
      <trkpt lat="44.16634" lon="1.75423">
        <ele>197</ele>
        <time>2007-11-10T14:12:39Z</time>
      </trkpt>
      <trkpt lat="44.16642" lon="1.75419">
        <ele>195</ele>
        <time>2007-11-10T14:12:47Z</time>
      </trkpt>
      <trkpt lat="44.16633" lon="1.75401">
        <ele>191</ele>
        <time>2007-11-10T14:12:54Z</time>
      </trkpt>
      <trkpt lat="44.16644" lon="1.75385">
        <ele>188</ele>
        <time>2007-11-10T14:13:01Z</time>
      </trkpt>
      <trkpt lat="44.16651" lon="1.75369">
        <ele>184</ele>
        <time>2007-11-10T14:13:08Z</time>
      </trkpt>
      <trkpt lat="44.16652" lon="1.7535">
        <ele>180</ele>
        <time>2007-11-10T14:13:14Z</time>
      </trkpt>
      <trkpt lat="44.16652" lon="1.75331">
        <ele>177</ele>
        <time>2007-11-10T14:13:20Z</time>
      </trkpt>
      <trkpt lat="44.16651" lon="1.75313">
        <ele>174</ele>
        <time>2007-11-10T14:13:27Z</time>
      </trkpt>
      <trkpt lat="44.16651" lon="1.75291">
        <ele>169</ele>
        <time>2007-11-10T14:13:35Z</time>
      </trkpt>
      <trkpt lat="44.16653" lon="1.75282">
        <ele>168</ele>
        <time>2007-11-10T14:14:12Z</time>
      </trkpt>
      <trkpt lat="44.16653" lon="1.75275">
        <ele>167</ele>
        <time>2007-11-10T14:14:51Z</time>
      </trkpt>
      <trkpt lat="44.16657" lon="1.75275">
        <ele>168</ele>
        <time>2007-11-10T14:15:34Z</time>
      </trkpt>
      <trkpt lat="44.16673" lon="1.75255">
        <ele>167</ele>
        <time>2007-11-10T14:15:51Z</time>
      </trkpt>
      <trkpt lat="44.16692" lon="1.75237">
        <ele>165</ele>
        <time>2007-11-10T14:15:56Z</time>
      </trkpt>
      <trkpt lat="44.16709" lon="1.75218">
        <ele>159</ele>
        <time>2007-11-10T14:16:01Z</time>
      </trkpt>
      <trkpt lat="44.1673" lon="1.75197">
        <ele>155</ele>
        <time>2007-11-10T14:16:05Z</time>
      </trkpt>
      <trkpt lat="44.16752" lon="1.75166">
        <ele>152</ele>
        <time>2007-11-10T14:16:10Z</time>
      </trkpt>
      <trkpt lat="44.16758" lon="1.75136">
        <ele>148</ele>
        <time>2007-11-10T14:16:16Z</time>
      </trkpt>
      <trkpt lat="44.16762" lon="1.75123">
        <ele>146</ele>
        <time>2007-11-10T14:16:21Z</time>
      </trkpt>
      <trkpt lat="44.16761" lon="1.75117">
        <ele>145</ele>
        <time>2007-11-10T14:16:32Z</time>
      </trkpt>
      <trkpt lat="44.16767" lon="1.7511">
        <ele>146</ele>
        <time>2007-11-10T14:16:43Z</time>
      </trkpt>
      <trkpt lat="44.16771" lon="1.75108">
        <ele>146</ele>
        <time>2007-11-10T14:17:17Z</time>
      </trkpt>
      <trkpt lat="44.16771" lon="1.75109">
        <ele>147</ele>
        <time>2007-11-10T14:18:23Z</time>
      </trkpt>
      <trkpt lat="44.1677" lon="1.75109">
        <ele>147</ele>
        <time>2007-11-10T14:19:11Z</time>
      </trkpt>
      <trkpt lat="44.16795" lon="1.75099">
        <ele>149</ele>
        <time>2007-11-10T14:19:26Z</time>
      </trkpt>
      <trkpt lat="44.16828" lon="1.75086">
        <ele>152</ele>
        <time>2007-11-10T14:19:44Z</time>
      </trkpt>
      <trkpt lat="44.16867" lon="1.75071">
        <ele>155</ele>
        <time>2007-11-10T14:20:03Z</time>
      </trkpt>
      <trkpt lat="44.16916" lon="1.75069">
        <ele>157</ele>
        <time>2007-11-10T14:20:22Z</time>
      </trkpt>
      <trkpt lat="44.16971" lon="1.75077">
        <ele>158</ele>
        <time>2007-11-10T14:20:40Z</time>
      </trkpt>
      <trkpt lat="44.17014" lon="1.75094">
        <ele>160</ele>
        <time>2007-11-10T14:20:56Z</time>
      </trkpt>
      <trkpt lat="44.17065" lon="1.7511">
        <ele>161</ele>
        <time>2007-11-10T14:21:14Z</time>
      </trkpt>
      <trkpt lat="44.17125" lon="1.75113">
        <ele>160</ele>
        <time>2007-11-10T14:21:30Z</time>
      </trkpt>
      <trkpt lat="44.17197" lon="1.75111">
        <ele>159</ele>
        <time>2007-11-10T14:21:45Z</time>
      </trkpt>
      <trkpt lat="44.17246" lon="1.75104">
        <ele>159</ele>
        <time>2007-11-10T14:21:56Z</time>
      </trkpt>
      <trkpt lat="44.17325" lon="1.75133">
        <ele>160</ele>
        <time>2007-11-10T14:22:14Z</time>
      </trkpt>
      <trkpt lat="44.17381" lon="1.75153">
        <ele>161</ele>
        <time>2007-11-10T14:22:28Z</time>
      </trkpt>
      <trkpt lat="44.17433" lon="1.75172">
        <ele>162</ele>
        <time>2007-11-10T14:22:42Z</time>
      </trkpt>
      <trkpt lat="44.1749" lon="1.75182">
        <ele>163</ele>
        <time>2007-11-10T14:22:57Z</time>
      </trkpt>
      <trkpt lat="44.17541" lon="1.75176">
        <ele>165</ele>
        <time>2007-11-10T14:23:11Z</time>
      </trkpt>
      <trkpt lat="44.17592" lon="1.75188">
        <ele>166</ele>
        <time>2007-11-10T14:23:25Z</time>
      </trkpt>
      <trkpt lat="44.17641" lon="1.75201">
        <ele>165</ele>
        <time>2007-11-10T14:23:37Z</time>
      </trkpt>
      <trkpt lat="44.17703" lon="1.75234">
        <ele>164</ele>
        <time>2007-11-10T14:23:50Z</time>
      </trkpt>
      <trkpt lat="44.17729" lon="1.75262">
        <ele>163</ele>
        <time>2007-11-10T14:23:56Z</time>
      </trkpt>
      <trkpt lat="44.1775" lon="1.75295">
        <ele>163</ele>
        <time>2007-11-10T14:24:01Z</time>
      </trkpt>
      <trkpt lat="44.17767" lon="1.75327">
        <ele>162</ele>
        <time>2007-11-10T14:24:07Z</time>
      </trkpt>
      <trkpt lat="44.17816" lon="1.75378">
        <ele>161</ele>
        <time>2007-11-10T14:24:19Z</time>
      </trkpt>
      <trkpt lat="44.1784" lon="1.75404">
        <ele>160</ele>
        <time>2007-11-10T14:24:25Z</time>
      </trkpt>
      <trkpt lat="44.17878" lon="1.75478">
        <ele>160</ele>
        <time>2007-11-10T14:24:38Z</time>
      </trkpt>
      <trkpt lat="44.17905" lon="1.75509">
        <ele>159</ele>
        <time>2007-11-10T14:24:45Z</time>
      </trkpt>
      <trkpt lat="44.17934" lon="1.75537">
        <ele>159</ele>
        <time>2007-11-10T14:24:55Z</time>
      </trkpt>
      <trkpt lat="44.1798" lon="1.75585">
        <ele>152</ele>
        <time>2007-11-10T14:25:03Z</time>
      </trkpt>
      <trkpt lat="44.18007" lon="1.75577">
        <ele>152</ele>
        <time>2007-11-10T14:25:08Z</time>
      </trkpt>
      <trkpt lat="44.18016" lon="1.755">
        <ele>150</ele>
        <time>2007-11-10T14:25:16Z</time>
      </trkpt>
      <trkpt lat="44.1802" lon="1.75469">
        <ele>149</ele>
        <time>2007-11-10T14:25:19Z</time>
      </trkpt>
      <trkpt lat="44.18" lon="1.75364">
        <ele>147</ele>
        <time>2007-11-10T14:25:30Z</time>
      </trkpt>
      <trkpt lat="44.17987" lon="1.75293">
        <ele>146</ele>
        <time>2007-11-10T14:25:38Z</time>
      </trkpt>
      <trkpt lat="44.17958" lon="1.75193">
        <ele>146</ele>
        <time>2007-11-10T14:25:50Z</time>
      </trkpt>
      <trkpt lat="44.17939" lon="1.75142">
        <ele>149</ele>
        <time>2007-11-10T14:26:01Z</time>
      </trkpt>
      <trkpt lat="44.17919" lon="1.75107">
        <ele>153</ele>
        <time>2007-11-10T14:26:18Z</time>
      </trkpt>
      <trkpt lat="44.17897" lon="1.75102">
        <ele>155</ele>
        <time>2007-11-10T14:26:33Z</time>
      </trkpt>
      <trkpt lat="44.17883" lon="1.75099">
        <ele>155</ele>
        <time>2007-11-10T14:26:45Z</time>
      </trkpt>
      <trkpt lat="44.17841" lon="1.7509">
        <ele>155</ele>
        <time>2007-11-10T14:26:57Z</time>
      </trkpt>
      <trkpt lat="44.1777" lon="1.75041">
        <ele>152</ele>
        <time>2007-11-10T14:27:13Z</time>
      </trkpt>
      <trkpt lat="44.17734" lon="1.75015">
        <ele>152</ele>
        <time>2007-11-10T14:27:23Z</time>
      </trkpt>
      <trkpt lat="44.17742" lon="1.74991">
        <ele>153</ele>
        <time>2007-11-10T14:27:29Z</time>
      </trkpt>
      <trkpt lat="44.17771" lon="1.74952">
        <ele>156</ele>
        <time>2007-11-10T14:27:42Z</time>
      </trkpt>
      <trkpt lat="44.17814" lon="1.74915">
        <ele>157</ele>
        <time>2007-11-10T14:27:58Z</time>
      </trkpt>
      <trkpt lat="44.17851" lon="1.74859">
        <ele>159</ele>
        <time>2007-11-10T14:28:14Z</time>
      </trkpt>
      <trkpt lat="44.17892" lon="1.7479">
        <ele>160</ele>
        <time>2007-11-10T14:28:31Z</time>
      </trkpt>
      <trkpt lat="44.17929" lon="1.74737">
        <ele>160</ele>
        <time>2007-11-10T14:28:45Z</time>
      </trkpt>
      <trkpt lat="44.17966" lon="1.7468">
        <ele>160</ele>
        <time>2007-11-10T14:28:59Z</time>
      </trkpt>
      <trkpt lat="44.17993" lon="1.74644">
        <ele>163</ele>
        <time>2007-11-10T14:29:11Z</time>
      </trkpt>
      <trkpt lat="44.18047" lon="1.7461">
        <ele>163</ele>
        <time>2007-11-10T14:29:28Z</time>
      </trkpt>
      <trkpt lat="44.18096" lon="1.74568">
        <ele>163</ele>
        <time>2007-11-10T14:29:41Z</time>
      </trkpt>
      <trkpt lat="44.18136" lon="1.745">
        <ele>163</ele>
        <time>2007-11-10T14:29:56Z</time>
      </trkpt>
      <trkpt lat="44.18171" lon="1.74425">
        <ele>163</ele>
        <time>2007-11-10T14:30:10Z</time>
      </trkpt>
      <trkpt lat="44.18212" lon="1.74332">
        <ele>164</ele>
        <time>2007-11-10T14:30:26Z</time>
      </trkpt>
      <trkpt lat="44.18233" lon="1.74249">
        <ele>162</ele>
        <time>2007-11-10T14:30:39Z</time>
      </trkpt>
      <trkpt lat="44.18246" lon="1.74211">
        <ele>163</ele>
        <time>2007-11-10T14:30:45Z</time>
      </trkpt>
      <trkpt lat="44.1828" lon="1.74155">
        <ele>162</ele>
        <time>2007-11-10T14:30:57Z</time>
      </trkpt>
      <trkpt lat="44.18291" lon="1.74112">
        <ele>164</ele>
        <time>2007-11-10T14:31:07Z</time>
      </trkpt>
      <trkpt lat="44.18294" lon="1.74082">
        <ele>165</ele>
        <time>2007-11-10T14:31:19Z</time>
      </trkpt>
      <trkpt lat="44.18303" lon="1.74082">
        <ele>164</ele>
        <time>2007-11-10T14:31:41Z</time>
      </trkpt>
      <trkpt lat="44.18291" lon="1.74083">
        <ele>164</ele>
        <time>2007-11-10T14:31:53Z</time>
      </trkpt>
      <trkpt lat="44.18298" lon="1.74077">
        <ele>165</ele>
        <time>2007-11-10T14:32:20Z</time>
      </trkpt>
      <trkpt lat="44.18345" lon="1.7406">
        <ele>164</ele>
        <time>2007-11-10T14:32:36Z</time>
      </trkpt>
      <trkpt lat="44.18391" lon="1.74036">
        <ele>164</ele>
        <time>2007-11-10T14:32:49Z</time>
      </trkpt>
      <trkpt lat="44.18438" lon="1.74025">
        <ele>165</ele>
        <time>2007-11-10T14:33:03Z</time>
      </trkpt>
      <trkpt lat="44.18488" lon="1.74029">
        <ele>166</ele>
        <time>2007-11-10T14:33:16Z</time>
      </trkpt>
      <trkpt lat="44.18518" lon="1.74031">
        <ele>168</ele>
        <time>2007-11-10T14:33:29Z</time>
      </trkpt>
      <trkpt lat="44.18567" lon="1.74033">
        <ele>169</ele>
        <time>2007-11-10T14:33:42Z</time>
      </trkpt>
      <trkpt lat="44.18605" lon="1.74035">
        <ele>168</ele>
        <time>2007-11-10T14:33:54Z</time>
      </trkpt>
      <trkpt lat="44.18634" lon="1.74035">
        <ele>167</ele>
        <time>2007-11-10T14:34:01Z</time>
      </trkpt>
      <trkpt lat="44.18669" lon="1.74007">
        <ele>166</ele>
        <time>2007-11-10T14:34:12Z</time>
      </trkpt>
      <trkpt lat="44.18694" lon="1.73999">
        <ele>167</ele>
        <time>2007-11-10T14:34:21Z</time>
      </trkpt>
      <trkpt lat="44.18737" lon="1.73993">
        <ele>167</ele>
        <time>2007-11-10T14:34:31Z</time>
      </trkpt>
      <trkpt lat="44.18761" lon="1.73987">
        <ele>167</ele>
        <time>2007-11-10T14:34:40Z</time>
      </trkpt>
      <trkpt lat="44.18791" lon="1.73964">
        <ele>168</ele>
        <time>2007-11-10T14:34:51Z</time>
      </trkpt>
      <trkpt lat="44.1882" lon="1.73929">
        <ele>168</ele>
        <time>2007-11-10T14:35:03Z</time>
      </trkpt>
      <trkpt lat="44.18839" lon="1.73908">
        <ele>169</ele>
        <time>2007-11-10T14:35:13Z</time>
      </trkpt>
      <trkpt lat="44.18859" lon="1.73906">
        <ele>170</ele>
        <time>2007-11-10T14:35:24Z</time>
      </trkpt>
      <trkpt lat="44.18872" lon="1.73912">
        <ele>172</ele>
        <time>2007-11-10T14:35:36Z</time>
      </trkpt>
      <trkpt lat="44.18882" lon="1.73915">
        <ele>172</ele>
        <time>2007-11-10T14:35:45Z</time>
      </trkpt>
      <trkpt lat="44.1891" lon="1.73909">
        <ele>172</ele>
        <time>2007-11-10T14:35:56Z</time>
      </trkpt>
      <trkpt lat="44.18953" lon="1.73915">
        <ele>173</ele>
        <time>2007-11-10T14:36:07Z</time>
      </trkpt>
      <trkpt lat="44.18987" lon="1.73932">
        <ele>173</ele>
        <time>2007-11-10T14:36:18Z</time>
      </trkpt>
      <trkpt lat="44.19024" lon="1.73935">
        <ele>173</ele>
        <time>2007-11-10T14:36:28Z</time>
      </trkpt>
      <trkpt lat="44.19054" lon="1.73935">
        <ele>173</ele>
        <time>2007-11-10T14:36:37Z</time>
      </trkpt>
      <trkpt lat="44.19083" lon="1.73929">
        <ele>175</ele>
        <time>2007-11-10T14:36:49Z</time>
      </trkpt>
      <trkpt lat="44.19097" lon="1.73925">
        <ele>175</ele>
        <time>2007-11-10T14:37:00Z</time>
      </trkpt>
      <trkpt lat="44.19106" lon="1.73922">
        <ele>176</ele>
        <time>2007-11-10T14:37:13Z</time>
      </trkpt>
      <trkpt lat="44.19124" lon="1.73914">
        <ele>177</ele>
        <time>2007-11-10T14:37:23Z</time>
      </trkpt>
      <trkpt lat="44.19139" lon="1.73908">
        <ele>177</ele>
        <time>2007-11-10T14:37:30Z</time>
      </trkpt>
      <trkpt lat="44.19166" lon="1.73905">
        <ele>177</ele>
        <time>2007-11-10T14:37:40Z</time>
      </trkpt>
      <trkpt lat="44.1919" lon="1.73922">
        <ele>178</ele>
        <time>2007-11-10T14:37:50Z</time>
      </trkpt>
      <trkpt lat="44.19208" lon="1.73939">
        <ele>178</ele>
        <time>2007-11-10T14:37:59Z</time>
      </trkpt>
      <trkpt lat="44.19227" lon="1.73959">
        <ele>179</ele>
        <time>2007-11-10T14:38:08Z</time>
      </trkpt>
      <trkpt lat="44.19241" lon="1.73977">
        <ele>179</ele>
        <time>2007-11-10T14:38:16Z</time>
      </trkpt>
      <trkpt lat="44.19264" lon="1.74004">
        <ele>180</ele>
        <time>2007-11-10T14:38:26Z</time>
      </trkpt>
      <trkpt lat="44.19276" lon="1.74044">
        <ele>180</ele>
        <time>2007-11-10T14:38:37Z</time>
      </trkpt>
      <trkpt lat="44.19286" lon="1.74082">
        <ele>181</ele>
        <time>2007-11-10T14:38:49Z</time>
      </trkpt>
      <trkpt lat="44.19291" lon="1.741">
        <ele>181</ele>
        <time>2007-11-10T14:38:55Z</time>
      </trkpt>
      <trkpt lat="44.19289" lon="1.74134">
        <ele>182</ele>
        <time>2007-11-10T14:39:05Z</time>
      </trkpt>
      <trkpt lat="44.19291" lon="1.74164">
        <ele>182</ele>
        <time>2007-11-10T14:39:15Z</time>
      </trkpt>
      <trkpt lat="44.19294" lon="1.74171">
        <ele>182</ele>
        <time>2007-11-10T14:39:23Z</time>
      </trkpt>
      <trkpt lat="44.19293" lon="1.74172">
        <ele>183</ele>
        <time>2007-11-10T14:39:33Z</time>
      </trkpt>
      <trkpt lat="44.19277" lon="1.74183">
        <ele>182</ele>
        <time>2007-11-10T14:40:16Z</time>
      </trkpt>
      <trkpt lat="44.19284" lon="1.74179">
        <ele>183</ele>
        <time>2007-11-10T14:40:30Z</time>
      </trkpt>
      <trkpt lat="44.19278" lon="1.74185">
        <ele>183</ele>
        <time>2007-11-10T14:40:42Z</time>
      </trkpt>
      <trkpt lat="44.19303" lon="1.74169">
        <ele>184</ele>
        <time>2007-11-10T14:42:36Z</time>
      </trkpt>
      <trkpt lat="44.19302" lon="1.74172">
        <ele>184</ele>
        <time>2007-11-10T14:43:02Z</time>
      </trkpt>
      <trkpt lat="44.19306" lon="1.74175">
        <ele>184</ele>
        <time>2007-11-10T14:43:45Z</time>
      </trkpt>
      <trkpt lat="44.19308" lon="1.74169">
        <ele>184</ele>
        <time>2007-11-10T14:43:56Z</time>
      </trkpt>
      <trkpt lat="44.19294" lon="1.74173">
        <ele>184</ele>
        <time>2007-11-10T14:44:50Z</time>
      </trkpt>
      <trkpt lat="44.1931" lon="1.74182">
        <ele>185</ele>
        <time>2007-11-10T14:45:12Z</time>
      </trkpt>
      <trkpt lat="44.19299" lon="1.74171">
        <ele>184</ele>
        <time>2007-11-10T14:47:42Z</time>
      </trkpt>
      <trkpt lat="44.19293" lon="1.7418">
        <ele>186</ele>
        <time>2007-11-10T14:51:21Z</time>
      </trkpt>
      <trkpt lat="44.19296" lon="1.74193">
        <ele>186</ele>
        <time>2007-11-10T14:51:30Z</time>
      </trkpt>
      <trkpt lat="44.19296" lon="1.74203">
        <ele>187</ele>
        <time>2007-11-10T14:51:41Z</time>
      </trkpt>
      <trkpt lat="44.19306" lon="1.7422">
        <ele>187</ele>
        <time>2007-11-10T14:51:48Z</time>
      </trkpt>
      <trkpt lat="44.19316" lon="1.74231">
        <ele>188</ele>
        <time>2007-11-10T14:51:57Z</time>
      </trkpt>
      <trkpt lat="44.19336" lon="1.7423">
        <ele>188</ele>
        <time>2007-11-10T14:52:08Z</time>
      </trkpt>
      <trkpt lat="44.19359" lon="1.7421">
        <ele>189</ele>
        <time>2007-11-10T14:52:33Z</time>
      </trkpt>
      <trkpt lat="44.19369" lon="1.74202">
        <ele>189</ele>
        <time>2007-11-10T14:52:39Z</time>
      </trkpt>
      <trkpt lat="44.19391" lon="1.74185">
        <ele>189</ele>
        <time>2007-11-10T14:52:50Z</time>
      </trkpt>
      <trkpt lat="44.19417" lon="1.74172">
        <ele>190</ele>
        <time>2007-11-10T14:53:03Z</time>
      </trkpt>
      <trkpt lat="44.19446" lon="1.74158">
        <ele>192</ele>
        <time>2007-11-10T14:53:17Z</time>
      </trkpt>
      <trkpt lat="44.19461" lon="1.7415">
        <ele>192</ele>
        <time>2007-11-10T14:53:30Z</time>
      </trkpt>
      <trkpt lat="44.19472" lon="1.74141">
        <ele>192</ele>
        <time>2007-11-10T14:53:42Z</time>
      </trkpt>
      <trkpt lat="44.19488" lon="1.7413">
        <ele>192</ele>
        <time>2007-11-10T14:53:55Z</time>
      </trkpt>
      <trkpt lat="44.19506" lon="1.74122">
        <ele>194</ele>
        <time>2007-11-10T14:54:07Z</time>
      </trkpt>
      <trkpt lat="44.19537" lon="1.74123">
        <ele>196</ele>
        <time>2007-11-10T14:54:19Z</time>
      </trkpt>
      <trkpt lat="44.19547" lon="1.74123">
        <ele>196</ele>
        <time>2007-11-10T14:54:57Z</time>
      </trkpt>
      <trkpt lat="44.19546" lon="1.74123">
        <ele>196</ele>
        <time>2007-11-10T14:55:43Z</time>
      </trkpt>
      <trkpt lat="44.19549" lon="1.74123">
        <ele>196</ele>
        <time>2007-11-10T14:56:27Z</time>
      </trkpt>
      <trkpt lat="44.19573" lon="1.74103">
        <ele>196</ele>
        <time>2007-11-10T14:56:40Z</time>
      </trkpt>
      <trkpt lat="44.19587" lon="1.74094">
        <ele>197</ele>
        <time>2007-11-10T14:56:47Z</time>
      </trkpt>
      <trkpt lat="44.19602" lon="1.74073">
        <ele>200</ele>
        <time>2007-11-10T14:57:01Z</time>
      </trkpt>
      <trkpt lat="44.19617" lon="1.74042">
        <ele>201</ele>
        <time>2007-11-10T14:57:13Z</time>
      </trkpt>
      <trkpt lat="44.19637" lon="1.73992">
        <ele>201</ele>
        <time>2007-11-10T14:57:27Z</time>
      </trkpt>
      <trkpt lat="44.19659" lon="1.73937">
        <ele>200</ele>
        <time>2007-11-10T14:57:36Z</time>
      </trkpt>
      <trkpt lat="44.19683" lon="1.73895">
        <ele>200</ele>
        <time>2007-11-10T14:57:47Z</time>
      </trkpt>
      <trkpt lat="44.19679" lon="1.73849">
        <ele>201</ele>
        <time>2007-11-10T14:57:59Z</time>
      </trkpt>
      <trkpt lat="44.19676" lon="1.73808">
        <ele>201</ele>
        <time>2007-11-10T14:58:10Z</time>
      </trkpt>
      <trkpt lat="44.19677" lon="1.73767">
        <ele>202</ele>
        <time>2007-11-10T14:58:20Z</time>
      </trkpt>
      <trkpt lat="44.19678" lon="1.73733">
        <ele>203</ele>
        <time>2007-11-10T14:58:30Z</time>
      </trkpt>
      <trkpt lat="44.19684" lon="1.73688">
        <ele>204</ele>
        <time>2007-11-10T14:58:40Z</time>
      </trkpt>
      <trkpt lat="44.19684" lon="1.73651">
        <ele>205</ele>
        <time>2007-11-10T14:58:51Z</time>
      </trkpt>
      <trkpt lat="44.19686" lon="1.73601">
        <ele>205</ele>
        <time>2007-11-10T14:59:03Z</time>
      </trkpt>
      <trkpt lat="44.19687" lon="1.73553">
        <ele>206</ele>
        <time>2007-11-10T14:59:14Z</time>
      </trkpt>
      <trkpt lat="44.19688" lon="1.73516">
        <ele>207</ele>
        <time>2007-11-10T14:59:27Z</time>
      </trkpt>
      <trkpt lat="44.19695" lon="1.73487">
        <ele>212</ele>
        <time>2007-11-10T14:59:43Z</time>
      </trkpt>
      <trkpt lat="44.19704" lon="1.73474">
        <ele>215</ele>
        <time>2007-11-10T14:59:56Z</time>
      </trkpt>
      <trkpt lat="44.19724" lon="1.73454">
        <ele>218</ele>
        <time>2007-11-10T15:00:17Z</time>
      </trkpt>
      <trkpt lat="44.19736" lon="1.73431">
        <ele>221</ele>
        <time>2007-11-10T15:00:33Z</time>
      </trkpt>
      <trkpt lat="44.19735" lon="1.73418">
        <ele>221</ele>
        <time>2007-11-10T15:00:40Z</time>
      </trkpt>
      <trkpt lat="44.19718" lon="1.73416">
        <ele>223</ele>
        <time>2007-11-10T15:00:52Z</time>
      </trkpt>
      <trkpt lat="44.19701" lon="1.73404">
        <ele>224</ele>
        <time>2007-11-10T15:01:05Z</time>
      </trkpt>
      <trkpt lat="44.19681" lon="1.73351">
        <ele>222</ele>
        <time>2007-11-10T15:01:17Z</time>
      </trkpt>
      <trkpt lat="44.19659" lon="1.73324">
        <ele>218</ele>
        <time>2007-11-10T15:01:29Z</time>
      </trkpt>
      <trkpt lat="44.19641" lon="1.7331">
        <ele>215</ele>
        <time>2007-11-10T15:01:39Z</time>
      </trkpt>
      <trkpt lat="44.1961" lon="1.73265">
        <ele>213</ele>
        <time>2007-11-10T15:01:51Z</time>
      </trkpt>
      <trkpt lat="44.19598" lon="1.73209">
        <ele>213</ele>
        <time>2007-11-10T15:02:02Z</time>
      </trkpt>
      <trkpt lat="44.19595" lon="1.73174">
        <ele>214</ele>
        <time>2007-11-10T15:02:11Z</time>
      </trkpt>
      <trkpt lat="44.1959" lon="1.73124">
        <ele>214</ele>
        <time>2007-11-10T15:02:23Z</time>
      </trkpt>
      <trkpt lat="44.19597" lon="1.73075">
        <ele>215</ele>
        <time>2007-11-10T15:02:33Z</time>
      </trkpt>
      <trkpt lat="44.19606" lon="1.73054">
        <ele>217</ele>
        <time>2007-11-10T15:02:40Z</time>
      </trkpt>
      <trkpt lat="44.1962" lon="1.73017">
        <ele>219</ele>
        <time>2007-11-10T15:02:52Z</time>
      </trkpt>
      <trkpt lat="44.19626" lon="1.72976">
        <ele>219</ele>
        <time>2007-11-10T15:03:03Z</time>
      </trkpt>
      <trkpt lat="44.19618" lon="1.72913">
        <ele>219</ele>
        <time>2007-11-10T15:03:15Z</time>
      </trkpt>
      <trkpt lat="44.19616" lon="1.72895">
        <ele>220</ele>
        <time>2007-11-10T15:03:21Z</time>
      </trkpt>
      <trkpt lat="44.19606" lon="1.72853">
        <ele>220</ele>
        <time>2007-11-10T15:03:31Z</time>
      </trkpt>
      <trkpt lat="44.19603" lon="1.72821">
        <ele>221</ele>
        <time>2007-11-10T15:03:39Z</time>
      </trkpt>
      <trkpt lat="44.196" lon="1.72788">
        <ele>220</ele>
        <time>2007-11-10T15:03:45Z</time>
      </trkpt>
      <trkpt lat="44.19593" lon="1.72738">
        <ele>220</ele>
        <time>2007-11-10T15:03:55Z</time>
      </trkpt>
      <trkpt lat="44.19579" lon="1.72697">
        <ele>221</ele>
        <time>2007-11-10T15:04:05Z</time>
      </trkpt>
      <trkpt lat="44.19581" lon="1.72669">
        <ele>222</ele>
        <time>2007-11-10T15:04:15Z</time>
      </trkpt>
      <trkpt lat="44.19563" lon="1.72652">
        <ele>223</ele>
        <time>2007-11-10T15:04:25Z</time>
      </trkpt>
      <trkpt lat="44.19546" lon="1.72635">
        <ele>223</ele>
        <time>2007-11-10T15:04:35Z</time>
      </trkpt>
      <trkpt lat="44.19516" lon="1.72605">
        <ele>223</ele>
        <time>2007-11-10T15:04:48Z</time>
      </trkpt>
      <trkpt lat="44.19489" lon="1.72583">
        <ele>224</ele>
        <time>2007-11-10T15:04:57Z</time>
      </trkpt>
      <trkpt lat="44.19455" lon="1.72558">
        <ele>227</ele>
        <time>2007-11-10T15:05:10Z</time>
      </trkpt>
      <trkpt lat="44.19435" lon="1.7253">
        <ele>228</ele>
        <time>2007-11-10T15:05:23Z</time>
      </trkpt>
      <trkpt lat="44.19418" lon="1.72493">
        <ele>229</ele>
        <time>2007-11-10T15:05:36Z</time>
      </trkpt>
      <trkpt lat="44.19409" lon="1.72452">
        <ele>228</ele>
        <time>2007-11-10T15:05:45Z</time>
      </trkpt>
      <trkpt lat="44.19406" lon="1.72407">
        <ele>229</ele>
        <time>2007-11-10T15:05:53Z</time>
      </trkpt>
      <trkpt lat="44.19405" lon="1.72357">
        <ele>230</ele>
        <time>2007-11-10T15:06:03Z</time>
      </trkpt>
      <trkpt lat="44.194" lon="1.72317">
        <ele>230</ele>
        <time>2007-11-10T15:06:12Z</time>
      </trkpt>
      <trkpt lat="44.19398" lon="1.72284">
        <ele>231</ele>
        <time>2007-11-10T15:06:20Z</time>
      </trkpt>
      <trkpt lat="44.19398" lon="1.72261">
        <ele>233</ele>
        <time>2007-11-10T15:06:28Z</time>
      </trkpt>
      <trkpt lat="44.19395" lon="1.72225">
        <ele>234</ele>
        <time>2007-11-10T15:06:41Z</time>
      </trkpt>
      <trkpt lat="44.19397" lon="1.72196">
        <ele>238</ele>
        <time>2007-11-10T15:06:53Z</time>
      </trkpt>
      <trkpt lat="44.19398" lon="1.72165">
        <ele>238</ele>
        <time>2007-11-10T15:07:04Z</time>
      </trkpt>
      <trkpt lat="44.19399" lon="1.72128">
        <ele>239</ele>
        <time>2007-11-10T15:07:16Z</time>
      </trkpt>
      <trkpt lat="44.19401" lon="1.72087">
        <ele>240</ele>
        <time>2007-11-10T15:07:28Z</time>
      </trkpt>
      <trkpt lat="44.19399" lon="1.7205">
        <ele>241</ele>
        <time>2007-11-10T15:07:40Z</time>
      </trkpt>
      <trkpt lat="44.19401" lon="1.72016">
        <ele>242</ele>
        <time>2007-11-10T15:07:51Z</time>
      </trkpt>
      <trkpt lat="44.19404" lon="1.71981">
        <ele>243</ele>
        <time>2007-11-10T15:08:03Z</time>
      </trkpt>
      <trkpt lat="44.19408" lon="1.71945">
        <ele>245</ele>
        <time>2007-11-10T15:08:17Z</time>
      </trkpt>
      <trkpt lat="44.19411" lon="1.71913">
        <ele>246</ele>
        <time>2007-11-10T15:08:30Z</time>
      </trkpt>
      <trkpt lat="44.1941" lon="1.71887">
        <ele>249</ele>
        <time>2007-11-10T15:08:42Z</time>
      </trkpt>
      <trkpt lat="44.19405" lon="1.71854">
        <ele>249</ele>
        <time>2007-11-10T15:08:54Z</time>
      </trkpt>
      <trkpt lat="44.19401" lon="1.71818">
        <ele>250</ele>
        <time>2007-11-10T15:09:07Z</time>
      </trkpt>
      <trkpt lat="44.1939" lon="1.71785">
        <ele>251</ele>
        <time>2007-11-10T15:09:21Z</time>
      </trkpt>
      <trkpt lat="44.19385" lon="1.71754">
        <ele>254</ele>
        <time>2007-11-10T15:09:37Z</time>
      </trkpt>
      <trkpt lat="44.19384" lon="1.71736">
        <ele>256</ele>
        <time>2007-11-10T15:09:48Z</time>
      </trkpt>
      <trkpt lat="44.19382" lon="1.71713">
        <ele>257</ele>
        <time>2007-11-10T15:10:02Z</time>
      </trkpt>
      <trkpt lat="44.19389" lon="1.71677">
        <ele>260</ele>
        <time>2007-11-10T15:10:18Z</time>
      </trkpt>
      <trkpt lat="44.19393" lon="1.71641">
        <ele>260</ele>
        <time>2007-11-10T15:10:33Z</time>
      </trkpt>
      <trkpt lat="44.19395" lon="1.71612">
        <ele>263</ele>
        <time>2007-11-10T15:10:46Z</time>
      </trkpt>
      <trkpt lat="44.19397" lon="1.71573">
        <ele>265</ele>
        <time>2007-11-10T15:11:04Z</time>
      </trkpt>
      <trkpt lat="44.19392" lon="1.71538">
        <ele>268</ele>
        <time>2007-11-10T15:11:20Z</time>
      </trkpt>
      <trkpt lat="44.19387" lon="1.71507">
        <ele>270</ele>
        <time>2007-11-10T15:11:34Z</time>
      </trkpt>
      <trkpt lat="44.19383" lon="1.7147">
        <ele>271</ele>
        <time>2007-11-10T15:11:49Z</time>
      </trkpt>
      <trkpt lat="44.19379" lon="1.71433">
        <ele>272</ele>
        <time>2007-11-10T15:12:01Z</time>
      </trkpt>
      <trkpt lat="44.19359" lon="1.71381">
        <ele>272</ele>
        <time>2007-11-10T15:12:16Z</time>
      </trkpt>
      <trkpt lat="44.19338" lon="1.71375">
        <ele>271</ele>
        <time>2007-11-10T15:12:25Z</time>
      </trkpt>
      <trkpt lat="44.19326" lon="1.71385">
        <ele>270</ele>
        <time>2007-11-10T15:12:34Z</time>
      </trkpt>
      <trkpt lat="44.1933" lon="1.71397">
        <ele>271</ele>
        <time>2007-11-10T15:12:42Z</time>
      </trkpt>
      <trkpt lat="44.19336" lon="1.71419">
        <ele>273</ele>
        <time>2007-11-10T15:12:54Z</time>
      </trkpt>
      <trkpt lat="44.19331" lon="1.71453">
        <ele>275</ele>
        <time>2007-11-10T15:13:08Z</time>
      </trkpt>
      <trkpt lat="44.19323" lon="1.71485">
        <ele>277</ele>
        <time>2007-11-10T15:13:24Z</time>
      </trkpt>
      <trkpt lat="44.19323" lon="1.71513">
        <ele>279</ele>
        <time>2007-11-10T15:13:39Z</time>
      </trkpt>
      <trkpt lat="44.19321" lon="1.71542">
        <ele>281</ele>
        <time>2007-11-10T15:13:54Z</time>
      </trkpt>
      <trkpt lat="44.1931" lon="1.7157">
        <ele>283</ele>
        <time>2007-11-10T15:14:10Z</time>
      </trkpt>
      <trkpt lat="44.19292" lon="1.71599">
        <ele>284</ele>
        <time>2007-11-10T15:14:24Z</time>
      </trkpt>
      <trkpt lat="44.19282" lon="1.71625">
        <ele>284</ele>
        <time>2007-11-10T15:14:35Z</time>
      </trkpt>
      <trkpt lat="44.19272" lon="1.71659">
        <ele>287</ele>
        <time>2007-11-10T15:14:53Z</time>
      </trkpt>
      <trkpt lat="44.19252" lon="1.71678">
        <ele>289</ele>
        <time>2007-11-10T15:15:09Z</time>
      </trkpt>
      <trkpt lat="44.19231" lon="1.71693">
        <ele>291</ele>
        <time>2007-11-10T15:15:25Z</time>
      </trkpt>
      <trkpt lat="44.19209" lon="1.7171">
        <ele>294</ele>
        <time>2007-11-10T15:15:42Z</time>
      </trkpt>
      <trkpt lat="44.19192" lon="1.7173">
        <ele>297</ele>
        <time>2007-11-10T15:15:59Z</time>
      </trkpt>
      <trkpt lat="44.19182" lon="1.71752">
        <ele>298</ele>
        <time>2007-11-10T15:16:14Z</time>
      </trkpt>
      <trkpt lat="44.1917" lon="1.71781">
        <ele>300</ele>
        <time>2007-11-10T15:16:31Z</time>
      </trkpt>
      <trkpt lat="44.19153" lon="1.71819">
        <ele>301</ele>
        <time>2007-11-10T15:16:51Z</time>
      </trkpt>
      <trkpt lat="44.1914" lon="1.71834">
        <ele>302</ele>
        <time>2007-11-10T15:17:03Z</time>
      </trkpt>
      <trkpt lat="44.19133" lon="1.71833">
        <ele>303</ele>
        <time>2007-11-10T15:17:16Z</time>
      </trkpt>
      <trkpt lat="44.1913" lon="1.71834">
        <ele>302</ele>
        <time>2007-11-10T15:20:19Z</time>
      </trkpt>
      <trkpt lat="44.1913" lon="1.71833">
        <ele>301</ele>
        <time>2007-11-10T15:20:55Z</time>
      </trkpt>
      <trkpt lat="44.19145" lon="1.71869">
        <ele>302</ele>
        <time>2007-11-10T15:21:08Z</time>
      </trkpt>
      <trkpt lat="44.19154" lon="1.71938">
        <ele>301</ele>
        <time>2007-11-10T15:21:20Z</time>
      </trkpt>
      <trkpt lat="44.19146" lon="1.72063">
        <ele>297</ele>
        <time>2007-11-10T15:21:33Z</time>
      </trkpt>
      <trkpt lat="44.19143" lon="1.72157">
        <ele>299</ele>
        <time>2007-11-10T15:21:44Z</time>
      </trkpt>
      <trkpt lat="44.19137" lon="1.722">
        <ele>300</ele>
        <time>2007-11-10T15:21:50Z</time>
      </trkpt>
      <trkpt lat="44.19107" lon="1.72266">
        <ele>301</ele>
        <time>2007-11-10T15:22:02Z</time>
      </trkpt>
      <trkpt lat="44.19068" lon="1.72329">
        <ele>302</ele>
        <time>2007-11-10T15:22:18Z</time>
      </trkpt>
      <trkpt lat="44.19025" lon="1.72397">
        <ele>304</ele>
        <time>2007-11-10T15:22:33Z</time>
      </trkpt>
      <trkpt lat="44.18971" lon="1.72443">
        <ele>305</ele>
        <time>2007-11-10T15:22:48Z</time>
      </trkpt>
      <trkpt lat="44.18938" lon="1.72477">
        <ele>308</ele>
        <time>2007-11-10T15:23:02Z</time>
      </trkpt>
      <trkpt lat="44.18928" lon="1.72541">
        <ele>309</ele>
        <time>2007-11-10T15:23:17Z</time>
      </trkpt>
      <trkpt lat="44.18915" lon="1.72613">
        <ele>310</ele>
        <time>2007-11-10T15:23:32Z</time>
      </trkpt>
      <trkpt lat="44.18892" lon="1.72682">
        <ele>311</ele>
        <time>2007-11-10T15:23:47Z</time>
      </trkpt>
      <trkpt lat="44.18868" lon="1.72704">
        <ele>313</ele>
        <time>2007-11-10T15:28:07Z</time>
      </trkpt>
      <trkpt lat="44.1886" lon="1.72704">
        <ele>313</ele>
        <time>2007-11-10T15:28:18Z</time>
      </trkpt>
      <trkpt lat="44.1885" lon="1.72711">
        <ele>314</ele>
        <time>2007-11-10T15:28:29Z</time>
      </trkpt>
      <trkpt lat="44.18829" lon="1.7273">
        <ele>315</ele>
        <time>2007-11-10T15:28:44Z</time>
      </trkpt>
      <trkpt lat="44.18795" lon="1.72731">
        <ele>317</ele>
        <time>2007-11-10T15:29:01Z</time>
      </trkpt>
      <trkpt lat="44.18762" lon="1.72706">
        <ele>319</ele>
        <time>2007-11-10T15:29:16Z</time>
      </trkpt>
      <trkpt lat="44.1873" lon="1.72686">
        <ele>318</ele>
        <time>2007-11-10T15:29:26Z</time>
      </trkpt>
      <trkpt lat="44.18697" lon="1.72699">
        <ele>316</ele>
        <time>2007-11-10T15:29:35Z</time>
      </trkpt>
      <trkpt lat="44.18671" lon="1.72703">
        <ele>315</ele>
        <time>2007-11-10T15:29:45Z</time>
      </trkpt>
      <trkpt lat="44.18632" lon="1.7271">
        <ele>314</ele>
        <time>2007-11-10T15:29:53Z</time>
      </trkpt>
      <trkpt lat="44.18585" lon="1.72704">
        <ele>312</ele>
        <time>2007-11-10T15:30:01Z</time>
      </trkpt>
      <trkpt lat="44.18539" lon="1.72688">
        <ele>310</ele>
        <time>2007-11-10T15:30:09Z</time>
      </trkpt>
      <trkpt lat="44.18478" lon="1.72636">
        <ele>307</ele>
        <time>2007-11-10T15:30:21Z</time>
      </trkpt>
      <trkpt lat="44.18433" lon="1.72619">
        <ele>307</ele>
        <time>2007-11-10T15:30:31Z</time>
      </trkpt>
      <trkpt lat="44.18362" lon="1.72573">
        <ele>308</ele>
        <time>2007-11-10T15:30:46Z</time>
      </trkpt>
      <trkpt lat="44.18292" lon="1.72509">
        <ele>304</ele>
        <time>2007-11-10T15:30:59Z</time>
      </trkpt>
      <trkpt lat="44.18254" lon="1.72499">
        <ele>303</ele>
        <time>2007-11-10T15:31:06Z</time>
      </trkpt>
      <trkpt lat="44.18222" lon="1.72519">
        <ele>303</ele>
        <time>2007-11-10T15:31:14Z</time>
      </trkpt>
      <trkpt lat="44.18205" lon="1.72523">
        <ele>303</ele>
        <time>2007-11-10T15:31:22Z</time>
      </trkpt>
      <trkpt lat="44.18157" lon="1.72561">
        <ele>305</ele>
        <time>2007-11-10T15:31:38Z</time>
      </trkpt>
      <trkpt lat="44.18103" lon="1.7261">
        <ele>305</ele>
        <time>2007-11-10T15:31:55Z</time>
      </trkpt>
      <trkpt lat="44.18039" lon="1.72684">
        <ele>305</ele>
        <time>2007-11-10T15:32:13Z</time>
      </trkpt>
      <trkpt lat="44.17974" lon="1.72759">
        <ele>304</ele>
        <time>2007-11-10T15:32:30Z</time>
      </trkpt>
      <trkpt lat="44.17917" lon="1.72813">
        <ele>302</ele>
        <time>2007-11-10T15:32:43Z</time>
      </trkpt>
      <trkpt lat="44.17883" lon="1.72863">
        <ele>301</ele>
        <time>2007-11-10T15:32:52Z</time>
      </trkpt>
      <trkpt lat="44.17838" lon="1.72934">
        <ele>301</ele>
        <time>2007-11-10T15:33:04Z</time>
      </trkpt>
      <trkpt lat="44.17761" lon="1.73019">
        <ele>301</ele>
        <time>2007-11-10T15:33:21Z</time>
      </trkpt>
      <trkpt lat="44.1772" lon="1.73076">
        <ele>301</ele>
        <time>2007-11-10T15:33:33Z</time>
      </trkpt>
      <trkpt lat="44.17718" lon="1.73079">
        <ele>301</ele>
        <time>2007-11-10T15:33:38Z</time>
      </trkpt>
      <trkpt lat="44.17696" lon="1.73103">
        <ele>301</ele>
        <time>2007-11-10T15:33:50Z</time>
      </trkpt>
      <trkpt lat="44.17655" lon="1.7316">
        <ele>301</ele>
        <time>2007-11-10T15:34:06Z</time>
      </trkpt>
      <trkpt lat="44.1763" lon="1.73199">
        <ele>302</ele>
        <time>2007-11-10T15:34:15Z</time>
      </trkpt>
      <trkpt lat="44.1759" lon="1.73213">
        <ele>301</ele>
        <time>2007-11-10T15:34:24Z</time>
      </trkpt>
      <trkpt lat="44.17552" lon="1.73277">
        <ele>302</ele>
        <time>2007-11-10T15:34:38Z</time>
      </trkpt>
      <trkpt lat="44.17515" lon="1.73341">
        <ele>303</ele>
        <time>2007-11-10T15:34:52Z</time>
      </trkpt>
      <trkpt lat="44.17459" lon="1.73445">
        <ele>302</ele>
        <time>2007-11-10T15:35:09Z</time>
      </trkpt>
      <trkpt lat="44.17394" lon="1.7356">
        <ele>301</ele>
        <time>2007-11-10T15:35:27Z</time>
      </trkpt>
      <trkpt lat="44.17335" lon="1.7361">
        <ele>301</ele>
        <time>2007-11-10T15:35:39Z</time>
      </trkpt>
      <trkpt lat="44.17251" lon="1.73651">
        <ele>302</ele>
        <time>2007-11-10T15:35:55Z</time>
      </trkpt>
      <trkpt lat="44.17197" lon="1.73723">
        <ele>303</ele>
        <time>2007-11-10T15:36:09Z</time>
      </trkpt>
      <trkpt lat="44.17173" lon="1.73762">
        <ele>302</ele>
        <time>2007-11-10T15:36:21Z</time>
      </trkpt>
      <trkpt lat="44.17149" lon="1.73791">
        <ele>301</ele>
        <time>2007-11-10T15:36:28Z</time>
      </trkpt>
      <trkpt lat="44.17118" lon="1.73807">
        <ele>300</ele>
        <time>2007-11-10T15:36:35Z</time>
      </trkpt>
      <trkpt lat="44.17059" lon="1.73812">
        <ele>299</ele>
        <time>2007-11-10T15:36:47Z</time>
      </trkpt>
      <trkpt lat="44.17011" lon="1.73792">
        <ele>299</ele>
        <time>2007-11-10T15:36:56Z</time>
      </trkpt>
      <trkpt lat="44.16941" lon="1.73759">
        <ele>295</ele>
        <time>2007-11-10T15:37:09Z</time>
      </trkpt>
      <trkpt lat="44.16894" lon="1.73734">
        <ele>295</ele>
        <time>2007-11-10T15:37:18Z</time>
      </trkpt>
      <trkpt lat="44.16848" lon="1.73706">
        <ele>296</ele>
        <time>2007-11-10T15:37:29Z</time>
      </trkpt>
      <trkpt lat="44.16805" lon="1.73729">
        <ele>296</ele>
        <time>2007-11-10T15:37:41Z</time>
      </trkpt>
      <trkpt lat="44.16734" lon="1.73759">
        <ele>295</ele>
        <time>2007-11-10T15:37:56Z</time>
      </trkpt>
      <trkpt lat="44.16639" lon="1.73788">
        <ele>293</ele>
        <time>2007-11-10T15:38:13Z</time>
      </trkpt>
      <trkpt lat="44.16551" lon="1.73806">
        <ele>293</ele>
        <time>2007-11-10T15:38:29Z</time>
      </trkpt>
      <trkpt lat="44.1649" lon="1.73815">
        <ele>295</ele>
        <time>2007-11-10T15:38:44Z</time>
      </trkpt>
      <trkpt lat="44.16456" lon="1.7382">
        <ele>299</ele>
        <time>2007-11-10T15:38:59Z</time>
      </trkpt>
      <trkpt lat="44.16431" lon="1.73811">
        <ele>301</ele>
        <time>2007-11-10T15:39:13Z</time>
      </trkpt>
      <trkpt lat="44.16402" lon="1.73816">
        <ele>304</ele>
        <time>2007-11-10T15:39:31Z</time>
      </trkpt>
      <trkpt lat="44.16369" lon="1.7382">
        <ele>307</ele>
        <time>2007-11-10T15:39:48Z</time>
      </trkpt>
      <trkpt lat="44.16319" lon="1.73827">
        <ele>309</ele>
        <time>2007-11-10T15:40:08Z</time>
      </trkpt>
      <trkpt lat="44.1628" lon="1.73835">
        <ele>311</ele>
        <time>2007-11-10T15:40:23Z</time>
      </trkpt>
      <trkpt lat="44.16252" lon="1.73875">
        <ele>311</ele>
        <time>2007-11-10T15:40:34Z</time>
      </trkpt>
      <trkpt lat="44.16199" lon="1.73941">
        <ele>309</ele>
        <time>2007-11-10T15:40:47Z</time>
      </trkpt>
      <trkpt lat="44.16177" lon="1.73974">
        <ele>307</ele>
        <time>2007-11-10T15:40:56Z</time>
      </trkpt>
      <trkpt lat="44.16179" lon="1.73972">
        <ele>307</ele>
        <time>2007-11-10T15:41:21Z</time>
      </trkpt>
      <trkpt lat="44.16172" lon="1.73988">
        <ele>306</ele>
        <time>2007-11-10T15:41:28Z</time>
      </trkpt>
      <trkpt lat="44.1616" lon="1.74018">
        <ele>305</ele>
        <time>2007-11-10T15:41:33Z</time>
      </trkpt>
      <trkpt lat="44.16117" lon="1.74089">
        <ele>304</ele>
        <time>2007-11-10T15:41:46Z</time>
      </trkpt>
      <trkpt lat="44.16095" lon="1.74145">
        <ele>306</ele>
        <time>2007-11-10T15:41:56Z</time>
      </trkpt>
      <trkpt lat="44.16074" lon="1.74202">
        <ele>308</ele>
        <time>2007-11-10T15:42:08Z</time>
      </trkpt>
      <trkpt lat="44.16051" lon="1.7425">
        <ele>309</ele>
        <time>2007-11-10T15:42:21Z</time>
      </trkpt>
      <trkpt lat="44.16011" lon="1.74305">
        <ele>311</ele>
        <time>2007-11-10T15:42:37Z</time>
      </trkpt>
      <trkpt lat="44.15997" lon="1.74334">
        <ele>310</ele>
        <time>2007-11-10T15:42:44Z</time>
      </trkpt>
      <trkpt lat="44.15961" lon="1.74393">
        <ele>311</ele>
        <time>2007-11-10T15:42:56Z</time>
      </trkpt>
      <trkpt lat="44.15903" lon="1.74431">
        <ele>312</ele>
        <time>2007-11-10T15:43:11Z</time>
      </trkpt>
      <trkpt lat="44.15883" lon="1.74443">
        <ele>312</ele>
        <time>2007-11-10T15:43:21Z</time>
      </trkpt>
      <trkpt lat="44.15853" lon="1.74484">
        <ele>312</ele>
        <time>2007-11-10T15:43:33Z</time>
      </trkpt>
      <trkpt lat="44.1586" lon="1.74573">
        <ele>312</ele>
        <time>2007-11-10T15:43:47Z</time>
      </trkpt>
      <trkpt lat="44.1587" lon="1.7466">
        <ele>312</ele>
        <time>2007-11-10T15:44:00Z</time>
      </trkpt>
      <trkpt lat="44.15878" lon="1.74749">
        <ele>313</ele>
        <time>2007-11-10T15:44:15Z</time>
      </trkpt>
      <trkpt lat="44.15889" lon="1.74831">
        <ele>314</ele>
        <time>2007-11-10T15:44:27Z</time>
      </trkpt>
      <trkpt lat="44.1589" lon="1.74882">
        <ele>313</ele>
        <time>2007-11-10T15:44:39Z</time>
      </trkpt>
      <trkpt lat="44.15896" lon="1.74913">
        <ele>313</ele>
        <time>2007-11-10T15:44:47Z</time>
      </trkpt>
      <trkpt lat="44.15893" lon="1.74938">
        <ele>312</ele>
        <time>2007-11-10T15:44:58Z</time>
      </trkpt>
      <trkpt lat="44.15891" lon="1.74968">
        <ele>311</ele>
        <time>2007-11-10T15:45:22Z</time>
      </trkpt>
      <trkpt lat="44.15884" lon="1.75026">
        <ele>307</ele>
        <time>2007-11-10T15:45:30Z</time>
      </trkpt>
      <trkpt lat="44.15867" lon="1.75081">
        <ele>303</ele>
        <time>2007-11-10T15:45:37Z</time>
      </trkpt>
      <trkpt lat="44.15853" lon="1.75107">
        <ele>302</ele>
        <time>2007-11-10T15:45:42Z</time>
      </trkpt>
      <trkpt lat="44.15829" lon="1.75132">
        <ele>296</ele>
        <time>2007-11-10T15:45:49Z</time>
      </trkpt>
      <trkpt lat="44.15821" lon="1.75146">
        <ele>294</ele>
        <time>2007-11-10T15:45:53Z</time>
      </trkpt>
      <trkpt lat="44.15814" lon="1.7515">
        <ele>292</ele>
        <time>2007-11-10T15:46:06Z</time>
      </trkpt>
      <trkpt lat="44.1581" lon="1.75146">
        <ele>291</ele>
        <time>2007-11-10T15:46:39Z</time>
      </trkpt>
      <trkpt lat="44.1581" lon="1.75145">
        <ele>292</ele>
        <time>2007-11-10T15:47:58Z</time>
      </trkpt>
      <trkpt lat="44.1579" lon="1.7515">
        <ele>286</ele>
        <time>2007-11-10T15:48:10Z</time>
      </trkpt>
      <trkpt lat="44.15778" lon="1.75152">
        <ele>282</ele>
        <time>2007-11-10T15:48:21Z</time>
      </trkpt>
      <trkpt lat="44.15772" lon="1.75153">
        <ele>279</ele>
        <time>2007-11-10T15:48:26Z</time>
      </trkpt>
      <trkpt lat="44.15769" lon="1.75155">
        <ele>278</ele>
        <time>2007-11-10T15:48:29Z</time>
      </trkpt>
      <trkpt lat="44.1576" lon="1.7516">
        <ele>276</ele>
        <time>2007-11-10T15:48:38Z</time>
      </trkpt>
      <trkpt lat="44.15743" lon="1.75148">
        <ele>270</ele>
        <time>2007-11-10T15:48:46Z</time>
      </trkpt>
      <trkpt lat="44.1573" lon="1.75131">
        <ele>267</ele>
        <time>2007-11-10T15:48:53Z</time>
      </trkpt>
      <trkpt lat="44.15724" lon="1.75129">
        <ele>264</ele>
        <time>2007-11-10T15:48:56Z</time>
      </trkpt>
      <trkpt lat="44.15702" lon="1.75111">
        <ele>258</ele>
        <time>2007-11-10T15:49:06Z</time>
      </trkpt>
      <trkpt lat="44.15695" lon="1.75099">
        <ele>254</ele>
        <time>2007-11-10T15:49:10Z</time>
      </trkpt>
      <trkpt lat="44.1568" lon="1.75092">
        <ele>251</ele>
        <time>2007-11-10T15:49:18Z</time>
      </trkpt>
      <trkpt lat="44.15672" lon="1.75082">
        <ele>248</ele>
        <time>2007-11-10T15:49:23Z</time>
      </trkpt>
      <trkpt lat="44.15658" lon="1.75069">
        <ele>243</ele>
        <time>2007-11-10T15:49:35Z</time>
      </trkpt>
      <trkpt lat="44.15649" lon="1.7507">
        <ele>239</ele>
        <time>2007-11-10T15:49:46Z</time>
      </trkpt>
      <trkpt lat="44.15648" lon="1.75069">
        <ele>240</ele>
        <time>2007-11-10T15:50:13Z</time>
      </trkpt>
      <trkpt lat="44.15642" lon="1.75067">
        <ele>238</ele>
        <time>2007-11-10T15:50:22Z</time>
      </trkpt>
      <trkpt lat="44.15627" lon="1.75068">
        <ele>232</ele>
        <time>2007-11-10T15:50:30Z</time>
      </trkpt>
      <trkpt lat="44.15615" lon="1.75062">
        <ele>228</ele>
        <time>2007-11-10T15:50:40Z</time>
      </trkpt>
      <trkpt lat="44.15605" lon="1.75063">
        <ele>225</ele>
        <time>2007-11-10T15:50:48Z</time>
      </trkpt>
      <trkpt lat="44.15595" lon="1.75065">
        <ele>222</ele>
        <time>2007-11-10T15:50:58Z</time>
      </trkpt>
      <trkpt lat="44.15583" lon="1.75062">
        <ele>217</ele>
        <time>2007-11-10T15:51:07Z</time>
      </trkpt>
      <trkpt lat="44.15576" lon="1.75059">
        <ele>215</ele>
        <time>2007-11-10T15:51:12Z</time>
      </trkpt>
      <trkpt lat="44.15559" lon="1.75059">
        <ele>210</ele>
        <time>2007-11-10T15:51:21Z</time>
      </trkpt>
      <trkpt lat="44.15546" lon="1.75054">
        <ele>207</ele>
        <time>2007-11-10T15:51:28Z</time>
      </trkpt>
      <trkpt lat="44.15531" lon="1.75046">
        <ele>202</ele>
        <time>2007-11-10T15:51:35Z</time>
      </trkpt>
      <trkpt lat="44.15506" lon="1.75046">
        <ele>196</ele>
        <time>2007-11-10T15:51:45Z</time>
      </trkpt>
      <trkpt lat="44.15498" lon="1.75039">
        <ele>193</ele>
        <time>2007-11-10T15:51:49Z</time>
      </trkpt>
      <trkpt lat="44.15477" lon="1.7502">
        <ele>189</ele>
        <time>2007-11-10T15:51:56Z</time>
      </trkpt>
      <trkpt lat="44.15461" lon="1.7501">
        <ele>182</ele>
        <time>2007-11-10T15:52:02Z</time>
      </trkpt>
      <trkpt lat="44.15446" lon="1.75003">
        <ele>178</ele>
        <time>2007-11-10T15:52:07Z</time>
      </trkpt>
      <trkpt lat="44.15418" lon="1.74987">
        <ele>171</ele>
        <time>2007-11-10T15:52:16Z</time>
      </trkpt>
      <trkpt lat="44.15399" lon="1.74972">
        <ele>165</ele>
        <time>2007-11-10T15:52:24Z</time>
      </trkpt>
      <trkpt lat="44.15383" lon="1.74967">
        <ele>159</ele>
        <time>2007-11-10T15:52:31Z</time>
      </trkpt>
      <trkpt lat="44.15373" lon="1.74962">
        <ele>156</ele>
        <time>2007-11-10T15:52:36Z</time>
      </trkpt>
      <trkpt lat="44.15361" lon="1.74957">
        <ele>152</ele>
        <time>2007-11-10T15:52:42Z</time>
      </trkpt>
      <trkpt lat="44.15352" lon="1.74953">
        <ele>148</ele>
        <time>2007-11-10T15:52:46Z</time>
      </trkpt>
      <trkpt lat="44.1534" lon="1.74961">
        <ele>143</ele>
        <time>2007-11-10T15:52:56Z</time>
      </trkpt>
      <trkpt lat="44.1534" lon="1.74997">
        <ele>138</ele>
        <time>2007-11-10T15:53:03Z</time>
      </trkpt>
      <trkpt lat="44.15345" lon="1.75029">
        <ele>133</ele>
        <time>2007-11-10T15:53:09Z</time>
      </trkpt>
      <trkpt lat="44.15346" lon="1.75045">
        <ele>132</ele>
        <time>2007-11-10T15:53:14Z</time>
      </trkpt>
      <trkpt lat="44.15347" lon="1.75045">
        <ele>131</ele>
        <time>2007-11-10T15:54:27Z</time>
      </trkpt>
      <trkpt lat="44.15342" lon="1.75059">
        <ele>131</ele>
        <time>2007-11-10T15:55:14Z</time>
      </trkpt>
      <trkpt lat="44.15351" lon="1.75111">
        <ele>128</ele>
        <time>2007-11-10T15:55:22Z</time>
      </trkpt>
      <trkpt lat="44.15357" lon="1.75168">
        <ele>127</ele>
        <time>2007-11-10T15:55:28Z</time>
      </trkpt>
      <trkpt lat="44.15346" lon="1.75218">
        <ele>125</ele>
        <time>2007-11-10T15:55:33Z</time>
      </trkpt>
      <trkpt lat="44.15285" lon="1.75259">
        <ele>123</ele>
        <time>2007-11-10T15:55:42Z</time>
      </trkpt>
      <trkpt lat="44.15251" lon="1.75282">
        <ele>122</ele>
        <time>2007-11-10T15:55:48Z</time>
      </trkpt>
      <trkpt lat="44.15279" lon="1.75094">
        <ele>126</ele>
        <time>2007-11-10T09:49:32Z</time>
      </trkpt>
      <trkpt lat="44.15289" lon="1.74999">
        <ele>127</ele>
        <time>2007-11-10T09:49:53Z</time>
      </trkpt>
      <trkpt lat="44.15266" lon="1.74905">
        <ele>130</ele>
        <time>2007-11-10T09:50:14Z</time>
      </trkpt>
      <trkpt lat="44.15234" lon="1.74801">
        <ele>132</ele>
        <time>2007-11-10T09:50:36Z</time>
      </trkpt>
      <trkpt lat="44.15209" lon="1.74719">
        <ele>134</ele>
        <time>2007-11-10T09:50:53Z</time>
      </trkpt>
      <trkpt lat="44.15182" lon="1.74632">
        <ele>135</ele>
        <time>2007-11-10T09:51:11Z</time>
      </trkpt>
      <trkpt lat="44.15156" lon="1.74541">
        <ele>134</ele>
        <time>2007-11-10T09:51:28Z</time>
      </trkpt>
      <trkpt lat="44.15128" lon="1.74439">
        <ele>134</ele>
        <time>2007-11-10T09:51:44Z</time>
      </trkpt>
      <trkpt lat="44.15103" lon="1.74332">
        <ele>134</ele>
        <time>2007-11-10T09:52:01Z</time>
      </trkpt>
      <trkpt lat="44.15076" lon="1.74207">
        <ele>132</ele>
        <time>2007-11-10T09:52:20Z</time>
      </trkpt>
      <trkpt lat="44.15053" lon="1.74101">
        <ele>132</ele>
        <time>2007-11-10T09:52:36Z</time>
      </trkpt>
      <trkpt lat="44.15024" lon="1.73971">
        <ele>132</ele>
        <time>2007-11-10T09:52:56Z</time>
      </trkpt>
      <trkpt lat="44.15" lon="1.73867">
        <ele>132</ele>
        <time>2007-11-10T09:53:12Z</time>
      </trkpt>
      <trkpt lat="44.14977" lon="1.73763">
        <ele>133</ele>
        <time>2007-11-10T09:53:28Z</time>
      </trkpt>
      <trkpt lat="44.14955" lon="1.73678">
        <ele>137</ele>
        <time>2007-11-10T09:53:45Z</time>
      </trkpt>
      <trkpt lat="44.14943" lon="1.73632">
        <ele>140</ele>
        <time>2007-11-10T09:53:59Z</time>
      </trkpt>
      <trkpt lat="44.14932" lon="1.73587">
        <ele>145</ele>
        <time>2007-11-10T09:54:18Z</time>
      </trkpt>
      <trkpt lat="44.1492" lon="1.73544">
        <ele>148</ele>
        <time>2007-11-10T09:54:37Z</time>
      </trkpt>
      <trkpt lat="44.14922" lon="1.73491">
        <ele>152</ele>
        <time>2007-11-10T09:54:58Z</time>
      </trkpt>
      <trkpt lat="44.1493" lon="1.73443">
        <ele>157</ele>
        <time>2007-11-10T09:55:19Z</time>
      </trkpt>
      <trkpt lat="44.1494" lon="1.73394">
        <ele>161</ele>
        <time>2007-11-10T09:55:40Z</time>
      </trkpt>
      <trkpt lat="44.14959" lon="1.73343">
        <ele>165</ele>
        <time>2007-11-10T09:56:03Z</time>
      </trkpt>
      <trkpt lat="44.14984" lon="1.73296">
        <ele>170</ele>
        <time>2007-11-10T09:56:26Z</time>
      </trkpt>
      <trkpt lat="44.15017" lon="1.73252">
        <ele>173</ele>
        <time>2007-11-10T09:56:50Z</time>
      </trkpt>
      <trkpt lat="44.15051" lon="1.73216">
        <ele>177</ele>
        <time>2007-11-10T09:57:13Z</time>
      </trkpt>
      <trkpt lat="44.15086" lon="1.73185">
        <ele>180</ele>
        <time>2007-11-10T09:57:35Z</time>
      </trkpt>
      <trkpt lat="44.15108" lon="1.73169">
        <ele>182</ele>
        <time>2007-11-10T09:57:54Z</time>
      </trkpt>
      <trkpt lat="44.15108" lon="1.73163">
        <ele>183</ele>
        <time>2007-11-10T09:59:11Z</time>
      </trkpt>
      <trkpt lat="44.1513" lon="1.73135">
        <ele>181</ele>
        <time>2007-11-10T09:59:21Z</time>
      </trkpt>
      <trkpt lat="44.15142" lon="1.73122">
        <ele>180</ele>
        <time>2007-11-10T09:59:24Z</time>
      </trkpt>
      <trkpt lat="44.15187" lon="1.73063">
        <ele>176</ele>
        <time>2007-11-10T09:59:35Z</time>
      </trkpt>
      <trkpt lat="44.15251" lon="1.72993">
        <ele>174</ele>
        <time>2007-11-10T09:59:50Z</time>
      </trkpt>
      <trkpt lat="44.15307" lon="1.72921">
        <ele>173</ele>
        <time>2007-11-10T10:00:03Z</time>
      </trkpt>
      <trkpt lat="44.15355" lon="1.72854">
        <ele>171</ele>
        <time>2007-11-10T10:00:16Z</time>
      </trkpt>
      <trkpt lat="44.15387" lon="1.72786">
        <ele>169</ele>
        <time>2007-11-10T10:00:26Z</time>
      </trkpt>
      <trkpt lat="44.15436" lon="1.72708">
        <ele>171</ele>
        <time>2007-11-10T10:00:40Z</time>
      </trkpt>
      <trkpt lat="44.15456" lon="1.72673">
        <ele>174</ele>
        <time>2007-11-10T10:00:51Z</time>
      </trkpt>
      <trkpt lat="44.15478" lon="1.72617">
        <ele>177</ele>
        <time>2007-11-10T10:01:08Z</time>
      </trkpt>
      <trkpt lat="44.15486" lon="1.72534">
        <ele>176</ele>
        <time>2007-11-10T10:01:21Z</time>
      </trkpt>
      <trkpt lat="44.15491" lon="1.72433">
        <ele>172</ele>
        <time>2007-11-10T10:01:34Z</time>
      </trkpt>
      <trkpt lat="44.15497" lon="1.72376">
        <ele>173</ele>
        <time>2007-11-10T10:01:42Z</time>
      </trkpt>
      <trkpt lat="44.15511" lon="1.72354">
        <ele>173</ele>
        <time>2007-11-10T10:01:47Z</time>
      </trkpt>
      <trkpt lat="44.15531" lon="1.72314">
        <ele>177</ele>
        <time>2007-11-10T10:02:00Z</time>
      </trkpt>
      <trkpt lat="44.15538" lon="1.7229">
        <ele>180</ele>
        <time>2007-11-10T10:02:15Z</time>
      </trkpt>
      <trkpt lat="44.15546" lon="1.72263">
        <ele>184</ele>
        <time>2007-11-10T10:02:31Z</time>
      </trkpt>
      <trkpt lat="44.15552" lon="1.72242">
        <ele>188</ele>
        <time>2007-11-10T10:02:46Z</time>
      </trkpt>
      <trkpt lat="44.15557" lon="1.72221">
        <ele>190</ele>
        <time>2007-11-10T10:03:02Z</time>
      </trkpt>
      <trkpt lat="44.15556" lon="1.72182">
        <ele>192</ele>
        <time>2007-11-10T10:03:16Z</time>
      </trkpt>
      <trkpt lat="44.15554" lon="1.72127">
        <ele>196</ele>
        <time>2007-11-10T10:03:35Z</time>
      </trkpt>
      <trkpt lat="44.15549" lon="1.72077">
        <ele>197</ele>
        <time>2007-11-10T10:03:50Z</time>
      </trkpt>
      <trkpt lat="44.15546" lon="1.72052">
        <ele>200</ele>
        <time>2007-11-10T10:04:02Z</time>
      </trkpt>
      <trkpt lat="44.15545" lon="1.72021">
        <ele>204</ele>
        <time>2007-11-10T10:04:20Z</time>
      </trkpt>
      <trkpt lat="44.15543" lon="1.72007">
        <ele>206</ele>
        <time>2007-11-10T10:04:28Z</time>
      </trkpt>
      <trkpt lat="44.15518" lon="1.71953">
        <ele>203</ele>
        <time>2007-11-10T10:04:42Z</time>
      </trkpt>
      <trkpt lat="44.15508" lon="1.7194">
        <ele>201</ele>
        <time>2007-11-10T10:04:48Z</time>
      </trkpt>
      <trkpt lat="44.15504" lon="1.7193">
        <ele>202</ele>
        <time>2007-11-10T10:05:00Z</time>
      </trkpt>
      <trkpt lat="44.15501" lon="1.7192">
        <ele>202</ele>
        <time>2007-11-10T10:05:15Z</time>
      </trkpt>
      <trkpt lat="44.15486" lon="1.71901">
        <ele>203</ele>
        <time>2007-11-10T10:05:25Z</time>
      </trkpt>
      <trkpt lat="44.15472" lon="1.71885">
        <ele>204</ele>
        <time>2007-11-10T10:05:34Z</time>
      </trkpt>
      <trkpt lat="44.15462" lon="1.71873">
        <ele>204</ele>
        <time>2007-11-10T10:05:44Z</time>
      </trkpt>
      <trkpt lat="44.15455" lon="1.71859">
        <ele>204</ele>
        <time>2007-11-10T10:05:55Z</time>
      </trkpt>
      <trkpt lat="44.15448" lon="1.71847">
        <ele>204</ele>
        <time>2007-11-10T10:06:00Z</time>
      </trkpt>
      <trkpt lat="44.15434" lon="1.7183">
        <ele>202</ele>
        <time>2007-11-10T10:06:08Z</time>
      </trkpt>
      <trkpt lat="44.15413" lon="1.71796">
        <ele>201</ele>
        <time>2007-11-10T10:06:19Z</time>
      </trkpt>
      <trkpt lat="44.15399" lon="1.7178">
        <ele>201</ele>
        <time>2007-11-10T10:06:26Z</time>
      </trkpt>
      <trkpt lat="44.15379" lon="1.71759">
        <ele>202</ele>
        <time>2007-11-10T10:06:37Z</time>
      </trkpt>
      <trkpt lat="44.15374" lon="1.71747">
        <ele>206</ele>
        <time>2007-11-10T10:06:48Z</time>
      </trkpt>
      <trkpt lat="44.15384" lon="1.71753">
        <ele>208</ele>
        <time>2007-11-10T10:07:06Z</time>
      </trkpt>
      <trkpt lat="44.15394" lon="1.71758">
        <ele>211</ele>
        <time>2007-11-10T10:07:20Z</time>
      </trkpt>
      <trkpt lat="44.15406" lon="1.71764">
        <ele>211</ele>
        <time>2007-11-10T10:07:34Z</time>
      </trkpt>
      <trkpt lat="44.1543" lon="1.71784">
        <ele>214</ele>
        <time>2007-11-10T10:07:52Z</time>
      </trkpt>
      <trkpt lat="44.15448" lon="1.71811">
        <ele>216</ele>
        <time>2007-11-10T10:08:06Z</time>
      </trkpt>
      <trkpt lat="44.15472" lon="1.71833">
        <ele>219</ele>
        <time>2007-11-10T10:08:22Z</time>
      </trkpt>
      <trkpt lat="44.15492" lon="1.71846">
        <ele>222</ele>
        <time>2007-11-10T10:08:37Z</time>
      </trkpt>
      <trkpt lat="44.15512" lon="1.71854">
        <ele>225</ele>
        <time>2007-11-10T10:08:52Z</time>
      </trkpt>
      <trkpt lat="44.15524" lon="1.71862">
        <ele>227</ele>
        <time>2007-11-10T10:09:08Z</time>
      </trkpt>
      <trkpt lat="44.15533" lon="1.71871">
        <ele>229</ele>
        <time>2007-11-10T10:09:24Z</time>
      </trkpt>
      <trkpt lat="44.15545" lon="1.71879">
        <ele>232</ele>
        <time>2007-11-10T10:09:40Z</time>
      </trkpt>
      <trkpt lat="44.15552" lon="1.71886">
        <ele>233</ele>
        <time>2007-11-10T10:09:54Z</time>
      </trkpt>
      <trkpt lat="44.15565" lon="1.719">
        <ele>236</ele>
        <time>2007-11-10T10:10:06Z</time>
      </trkpt>
      <trkpt lat="44.15567" lon="1.71897">
        <ele>238</ele>
        <time>2007-11-10T10:10:12Z</time>
      </trkpt>
      <trkpt lat="44.15557" lon="1.71868">
        <ele>241</ele>
        <time>2007-11-10T10:10:32Z</time>
      </trkpt>
      <trkpt lat="44.15546" lon="1.71847">
        <ele>243</ele>
        <time>2007-11-10T10:10:46Z</time>
      </trkpt>
      <trkpt lat="44.15546" lon="1.71841">
        <ele>243</ele>
        <time>2007-11-10T10:10:50Z</time>
      </trkpt>
      <trkpt lat="44.15555" lon="1.71849">
        <ele>246</ele>
        <time>2007-11-10T10:11:00Z</time>
      </trkpt>
      <trkpt lat="44.15576" lon="1.71873">
        <ele>248</ele>
        <time>2007-11-10T10:11:18Z</time>
      </trkpt>
      <trkpt lat="44.15593" lon="1.71895">
        <ele>250</ele>
        <time>2007-11-10T10:11:34Z</time>
      </trkpt>
      <trkpt lat="44.15611" lon="1.71916">
        <ele>254</ele>
        <time>2007-11-10T10:11:52Z</time>
      </trkpt>
      <trkpt lat="44.15628" lon="1.7194">
        <ele>257</ele>
        <time>2007-11-10T10:12:10Z</time>
      </trkpt>
      <trkpt lat="44.15636" lon="1.71942">
        <ele>260</ele>
        <time>2007-11-10T10:12:22Z</time>
      </trkpt>
      <trkpt lat="44.15624" lon="1.719">
        <ele>261</ele>
        <time>2007-11-10T10:12:40Z</time>
      </trkpt>
      <trkpt lat="44.15611" lon="1.71861">
        <ele>263</ele>
        <time>2007-11-10T10:12:57Z</time>
      </trkpt>
      <trkpt lat="44.15605" lon="1.71841">
        <ele>264</ele>
        <time>2007-11-10T10:13:11Z</time>
      </trkpt>
      <trkpt lat="44.1562" lon="1.71862">
        <ele>267</ele>
        <time>2007-11-10T10:13:26Z</time>
      </trkpt>
      <trkpt lat="44.15637" lon="1.7189">
        <ele>269</ele>
        <time>2007-11-10T10:13:42Z</time>
      </trkpt>
      <trkpt lat="44.15657" lon="1.71921">
        <ele>272</ele>
        <time>2007-11-10T10:14:01Z</time>
      </trkpt>
      <trkpt lat="44.15674" lon="1.71943">
        <ele>276</ele>
        <time>2007-11-10T10:14:18Z</time>
      </trkpt>
      <trkpt lat="44.15688" lon="1.7197">
        <ele>281</ele>
        <time>2007-11-10T10:14:36Z</time>
      </trkpt>
      <trkpt lat="44.15695" lon="1.71975">
        <ele>282</ele>
        <time>2007-11-10T10:14:44Z</time>
      </trkpt>
      <trkpt lat="44.15695" lon="1.71951">
        <ele>285</ele>
        <time>2007-11-10T10:15:00Z</time>
      </trkpt>
      <trkpt lat="44.15692" lon="1.71921">
        <ele>289</ele>
        <time>2007-11-10T10:15:17Z</time>
      </trkpt>
      <trkpt lat="44.15684" lon="1.71893">
        <ele>291</ele>
        <time>2007-11-10T10:15:35Z</time>
      </trkpt>
      <trkpt lat="44.15678" lon="1.71863">
        <ele>293</ele>
        <time>2007-11-10T10:15:53Z</time>
      </trkpt>
      <trkpt lat="44.15676" lon="1.71846">
        <ele>295</ele>
        <time>2007-11-10T10:16:03Z</time>
      </trkpt>
      <trkpt lat="44.15663" lon="1.71833">
        <ele>295</ele>
        <time>2007-11-10T10:16:10Z</time>
      </trkpt>
      <trkpt lat="44.15657" lon="1.71818">
        <ele>294</ele>
        <time>2007-11-10T10:16:19Z</time>
      </trkpt>
      <trkpt lat="44.15653" lon="1.71809">
        <ele>296</ele>
        <time>2007-11-10T10:16:29Z</time>
      </trkpt>
      <trkpt lat="44.15658" lon="1.71795">
        <ele>299</ele>
        <time>2007-11-10T10:16:46Z</time>
      </trkpt>
      <trkpt lat="44.15655" lon="1.71786">
        <ele>300</ele>
        <time>2007-11-10T10:16:55Z</time>
      </trkpt>
      <trkpt lat="44.15646" lon="1.7177">
        <ele>299</ele>
        <time>2007-11-10T10:17:05Z</time>
      </trkpt>
      <trkpt lat="44.15653" lon="1.71767">
        <ele>301</ele>
        <time>2007-11-10T10:17:18Z</time>
      </trkpt>
      <trkpt lat="44.15659" lon="1.71768">
        <ele>301</ele>
        <time>2007-11-10T10:17:26Z</time>
      </trkpt>
      <trkpt lat="44.15678" lon="1.71759">
        <ele>303</ele>
        <time>2007-11-10T10:17:38Z</time>
      </trkpt>
      <trkpt lat="44.1566" lon="1.71753">
        <ele>303</ele>
        <time>2007-11-10T10:17:50Z</time>
      </trkpt>
      <trkpt lat="44.15655" lon="1.71749">
        <ele>303</ele>
        <time>2007-11-10T10:18:01Z</time>
      </trkpt>
      <trkpt lat="44.15653" lon="1.71743">
        <ele>302</ele>
        <time>2007-11-10T10:18:13Z</time>
      </trkpt>
      <trkpt lat="44.1565" lon="1.71743">
        <ele>302</ele>
        <time>2007-11-10T10:20:28Z</time>
      </trkpt>
      <trkpt lat="44.15651" lon="1.71743">
        <ele>301</ele>
        <time>2007-11-10T10:23:03Z</time>
      </trkpt>
      <trkpt lat="44.15648" lon="1.71743">
        <ele>301</ele>
        <time>2007-11-10T10:23:47Z</time>
      </trkpt>
      <trkpt lat="44.15623" lon="1.71718">
        <ele>300</ele>
        <time>2007-11-10T10:24:01Z</time>
      </trkpt>
      <trkpt lat="44.15592" lon="1.71686">
        <ele>297</ele>
        <time>2007-11-10T10:24:14Z</time>
      </trkpt>
      <trkpt lat="44.15558" lon="1.71657">
        <ele>298</ele>
        <time>2007-11-10T10:24:26Z</time>
      </trkpt>
      <trkpt lat="44.15513" lon="1.71646">
        <ele>298</ele>
        <time>2007-11-10T10:24:39Z</time>
      </trkpt>
      <trkpt lat="44.15483" lon="1.7163">
        <ele>296</ele>
        <time>2007-11-10T10:24:52Z</time>
      </trkpt>
      <trkpt lat="44.15454" lon="1.71614">
        <ele>297</ele>
        <time>2007-11-10T10:25:05Z</time>
      </trkpt>
      <trkpt lat="44.15433" lon="1.71604">
        <ele>298</ele>
        <time>2007-11-10T10:25:16Z</time>
      </trkpt>
      <trkpt lat="44.15408" lon="1.7159">
        <ele>299</ele>
        <time>2007-11-10T10:25:31Z</time>
      </trkpt>
      <trkpt lat="44.15386" lon="1.71577">
        <ele>300</ele>
        <time>2007-11-10T10:25:44Z</time>
      </trkpt>
      <trkpt lat="44.1536" lon="1.71563">
        <ele>300</ele>
        <time>2007-11-10T10:25:57Z</time>
      </trkpt>
      <trkpt lat="44.15337" lon="1.71551">
        <ele>301</ele>
        <time>2007-11-10T10:26:09Z</time>
      </trkpt>
      <trkpt lat="44.15313" lon="1.71539">
        <ele>304</ele>
        <time>2007-11-10T10:26:22Z</time>
      </trkpt>
      <trkpt lat="44.15299" lon="1.71534">
        <ele>305</ele>
        <time>2007-11-10T10:26:32Z</time>
      </trkpt>
      <trkpt lat="44.15279" lon="1.71524">
        <ele>306</ele>
        <time>2007-11-10T10:26:45Z</time>
      </trkpt>
      <trkpt lat="44.1526" lon="1.7152">
        <ele>305</ele>
        <time>2007-11-10T10:26:54Z</time>
      </trkpt>
      <trkpt lat="44.15238" lon="1.71511">
        <ele>305</ele>
        <time>2007-11-10T10:27:03Z</time>
      </trkpt>
      <trkpt lat="44.15211" lon="1.71508">
        <ele>305</ele>
        <time>2007-11-10T10:27:14Z</time>
      </trkpt>
      <trkpt lat="44.15198" lon="1.71506">
        <ele>304</ele>
        <time>2007-11-10T10:27:21Z</time>
      </trkpt>
      <trkpt lat="44.15188" lon="1.71518">
        <ele>304</ele>
        <time>2007-11-10T10:27:28Z</time>
      </trkpt>
      <trkpt lat="44.15179" lon="1.71522">
        <ele>304</ele>
        <time>2007-11-10T10:27:35Z</time>
      </trkpt>
      <trkpt lat="44.15171" lon="1.71521">
        <ele>304</ele>
        <time>2007-11-10T10:27:42Z</time>
      </trkpt>
      <trkpt lat="44.1517" lon="1.71521">
        <ele>305</ele>
        <time>2007-11-10T10:27:50Z</time>
      </trkpt>
      <trkpt lat="44.15166" lon="1.715">
        <ele>304</ele>
        <time>2007-11-10T10:27:57Z</time>
      </trkpt>
      <trkpt lat="44.15159" lon="1.7148">
        <ele>303</ele>
        <time>2007-11-10T10:28:05Z</time>
      </trkpt>
      <trkpt lat="44.15157" lon="1.71456">
        <ele>301</ele>
        <time>2007-11-10T10:28:15Z</time>
      </trkpt>
      <trkpt lat="44.15149" lon="1.71435">
        <ele>299</ele>
        <time>2007-11-10T10:28:26Z</time>
      </trkpt>
      <trkpt lat="44.15128" lon="1.71424">
        <ele>299</ele>
        <time>2007-11-10T10:28:38Z</time>
      </trkpt>
      <trkpt lat="44.15116" lon="1.71405">
        <ele>300</ele>
        <time>2007-11-10T10:28:46Z</time>
      </trkpt>
      <trkpt lat="44.15113" lon="1.71372">
        <ele>301</ele>
        <time>2007-11-10T10:28:56Z</time>
      </trkpt>
      <trkpt lat="44.1511" lon="1.71363">
        <ele>302</ele>
        <time>2007-11-10T10:28:59Z</time>
      </trkpt>
      <trkpt lat="44.15102" lon="1.71333">
        <ele>303</ele>
        <time>2007-11-10T10:29:13Z</time>
      </trkpt>
      <trkpt lat="44.15097" lon="1.71327">
        <ele>304</ele>
        <time>2007-11-10T10:29:20Z</time>
      </trkpt>
      <trkpt lat="44.15092" lon="1.71305">
        <ele>306</ele>
        <time>2007-11-10T10:29:32Z</time>
      </trkpt>
      <trkpt lat="44.15085" lon="1.71289">
        <ele>309</ele>
        <time>2007-11-10T10:29:47Z</time>
      </trkpt>
      <trkpt lat="44.15081" lon="1.71275">
        <ele>311</ele>
        <time>2007-11-10T10:30:04Z</time>
      </trkpt>
      <trkpt lat="44.15072" lon="1.71257">
        <ele>313</ele>
        <time>2007-11-10T10:30:22Z</time>
      </trkpt>
      <trkpt lat="44.15061" lon="1.71244">
        <ele>316</ele>
        <time>2007-11-10T10:30:39Z</time>
      </trkpt>
      <trkpt lat="44.1505" lon="1.71235">
        <ele>318</ele>
        <time>2007-11-10T10:30:54Z</time>
      </trkpt>
      <trkpt lat="44.15041" lon="1.71232">
        <ele>319</ele>
        <time>2007-11-10T10:31:07Z</time>
      </trkpt>
      <trkpt lat="44.15038" lon="1.71224">
        <ele>320</ele>
        <time>2007-11-10T10:31:15Z</time>
      </trkpt>
      <trkpt lat="44.15022" lon="1.71221">
        <ele>321</ele>
        <time>2007-11-10T10:31:27Z</time>
      </trkpt>
      <trkpt lat="44.15017" lon="1.71219">
        <ele>320</ele>
        <time>2007-11-10T10:31:59Z</time>
      </trkpt>
      <trkpt lat="44.14996" lon="1.71212">
        <ele>320</ele>
        <time>2007-11-10T10:32:13Z</time>
      </trkpt>
      <trkpt lat="44.14978" lon="1.71211">
        <ele>319</ele>
        <time>2007-11-10T10:32:24Z</time>
      </trkpt>
      <trkpt lat="44.14958" lon="1.71205">
        <ele>317</ele>
        <time>2007-11-10T10:32:36Z</time>
      </trkpt>
      <trkpt lat="44.14939" lon="1.71191">
        <ele>316</ele>
        <time>2007-11-10T10:32:49Z</time>
      </trkpt>
      <trkpt lat="44.14932" lon="1.71191">
        <ele>315</ele>
        <time>2007-11-10T10:32:54Z</time>
      </trkpt>
      <trkpt lat="44.14911" lon="1.71183">
        <ele>313</ele>
        <time>2007-11-10T10:33:06Z</time>
      </trkpt>
      <trkpt lat="44.14896" lon="1.71176">
        <ele>310</ele>
        <time>2007-11-10T10:33:17Z</time>
      </trkpt>
      <trkpt lat="44.14878" lon="1.71165">
        <ele>309</ele>
        <time>2007-11-10T10:33:28Z</time>
      </trkpt>
      <trkpt lat="44.14875" lon="1.71149">
        <ele>309</ele>
        <time>2007-11-10T10:33:36Z</time>
      </trkpt>
      <trkpt lat="44.14869" lon="1.71139">
        <ele>308</ele>
        <time>2007-11-10T10:33:42Z</time>
      </trkpt>
      <trkpt lat="44.14857" lon="1.7112">
        <ele>307</ele>
        <time>2007-11-10T10:33:52Z</time>
      </trkpt>
      <trkpt lat="44.14856" lon="1.71111">
        <ele>307</ele>
        <time>2007-11-10T10:33:55Z</time>
      </trkpt>
      <trkpt lat="44.14847" lon="1.71101">
        <ele>305</ele>
        <time>2007-11-10T10:34:03Z</time>
      </trkpt>
      <trkpt lat="44.14842" lon="1.7109">
        <ele>304</ele>
        <time>2007-11-10T10:34:10Z</time>
      </trkpt>
      <trkpt lat="44.14833" lon="1.71081">
        <ele>302</ele>
        <time>2007-11-10T10:34:18Z</time>
      </trkpt>
      <trkpt lat="44.14825" lon="1.71052">
        <ele>301</ele>
        <time>2007-11-10T10:34:30Z</time>
      </trkpt>
      <trkpt lat="44.14828" lon="1.71035">
        <ele>301</ele>
        <time>2007-11-10T10:34:43Z</time>
      </trkpt>
      <trkpt lat="44.14832" lon="1.71009">
        <ele>301</ele>
        <time>2007-11-10T10:34:52Z</time>
      </trkpt>
      <trkpt lat="44.14841" lon="1.70973">
        <ele>303</ele>
        <time>2007-11-10T10:35:05Z</time>
      </trkpt>
      <trkpt lat="44.14859" lon="1.7094">
        <ele>306</ele>
        <time>2007-11-10T10:35:20Z</time>
      </trkpt>
      <trkpt lat="44.14881" lon="1.70909">
        <ele>307</ele>
        <time>2007-11-10T10:35:33Z</time>
      </trkpt>
      <trkpt lat="44.149" lon="1.7087">
        <ele>308</ele>
        <time>2007-11-10T10:35:46Z</time>
      </trkpt>
      <trkpt lat="44.1492" lon="1.7083">
        <ele>309</ele>
        <time>2007-11-10T10:36:00Z</time>
      </trkpt>
      <trkpt lat="44.14952" lon="1.70797">
        <ele>310</ele>
        <time>2007-11-10T10:36:16Z</time>
      </trkpt>
      <trkpt lat="44.14973" lon="1.70745">
        <ele>312</ele>
        <time>2007-11-10T10:36:31Z</time>
      </trkpt>
      <trkpt lat="44.14991" lon="1.70691">
        <ele>314</ele>
        <time>2007-11-10T10:36:46Z</time>
      </trkpt>
      <trkpt lat="44.14989" lon="1.70615">
        <ele>312</ele>
        <time>2007-11-10T10:37:01Z</time>
      </trkpt>
      <trkpt lat="44.14988" lon="1.70553">
        <ele>310</ele>
        <time>2007-11-10T10:37:10Z</time>
      </trkpt>
      <trkpt lat="44.14978" lon="1.70509">
        <ele>307</ele>
        <time>2007-11-10T10:37:17Z</time>
      </trkpt>
      <trkpt lat="44.14962" lon="1.70512">
        <ele>263</ele>
        <time>2011-12-18T10:16:07Z</time>
      </trkpt>
      <trkpt lat="44.1492" lon="1.70465">
        <ele>260.8</ele>
        <time>2011-12-18T10:15:46Z</time>
      </trkpt>
      <trkpt lat="44.14892" lon="1.70422">
        <ele>258.2</ele>
        <time>2011-12-18T10:15:28Z</time>
      </trkpt>
      <trkpt lat="44.14864" lon="1.70378">
        <ele>255</ele>
        <time>2011-12-18T10:15:08Z</time>
      </trkpt>
      <trkpt lat="44.14845" lon="1.70358">
        <ele>252.6</ele>
        <time>2011-12-18T10:14:57Z</time>
      </trkpt>
      <trkpt lat="44.14825" lon="1.70334">
        <ele>249.4</ele>
        <time>2011-12-18T10:14:44Z</time>
      </trkpt>
      <trkpt lat="44.14817" lon="1.70289">
        <ele>250</ele>
        <time>2011-12-18T10:14:31Z</time>
      </trkpt>
      <trkpt lat="44.14767" lon="1.70242">
        <ele>252.6</ele>
        <time>2011-12-18T10:14:18Z</time>
      </trkpt>
      <trkpt lat="44.14697" lon="1.70236">
        <ele>253.6</ele>
        <time>2011-12-18T10:14:00Z</time>
      </trkpt>
      <trkpt lat="44.1465" lon="1.7025">
        <ele>255.6</ele>
        <time>2011-12-18T10:13:51Z</time>
      </trkpt>
      <trkpt lat="44.146" lon="1.70271">
        <ele>257.6</ele>
        <time>2011-12-18T10:13:42Z</time>
      </trkpt>
      <trkpt lat="44.14524" lon="1.70281">
        <ele>259.4</ele>
        <time>2011-12-18T10:13:29Z</time>
      </trkpt>
      <trkpt lat="44.14428" lon="1.70343">
        <ele>259.4</ele>
        <time>2011-12-18T10:13:05Z</time>
      </trkpt>
      <trkpt lat="44.14412" lon="1.70358">
        <ele>258.8</ele>
        <time>2011-12-18T10:10:06Z</time>
      </trkpt>
      <trkpt lat="44.14393" lon="1.70382">
        <ele>256.4</ele>
        <time>2011-12-18T10:09:32Z</time>
      </trkpt>
      <trkpt lat="44.14332" lon="1.70436">
        <ele>255.2</ele>
        <time>2011-12-18T10:09:08Z</time>
      </trkpt>
      <trkpt lat="44.14276" lon="1.70508">
        <ele>253.6</ele>
        <time>2011-12-18T10:08:44Z</time>
      </trkpt>
      <trkpt lat="44.14231" lon="1.70559">
        <ele>252.2</ele>
        <time>2011-12-18T10:08:25Z</time>
      </trkpt>
      <trkpt lat="44.1418" lon="1.70592">
        <ele>251.2</ele>
        <time>2011-12-18T10:08:04Z</time>
      </trkpt>
      <trkpt lat="44.14144" lon="1.70626">
        <ele>290.1015625</ele>
      </trkpt>
      <trkpt lat="44.14093" lon="1.70657">
        <ele>290.10546875</ele>
      </trkpt>
      <trkpt lat="44.14042" lon="1.70583">
        <ele>294.42578125</ele>
      </trkpt>
      <trkpt lat="44.14004" lon="1.70552">
        <ele>296.109375</ele>
      </trkpt>
      <trkpt lat="44.13958" lon="1.70463">
        <ele>301.609375</ele>
      </trkpt>
      <trkpt lat="44.13896" lon="1.70322">
        <ele>305.34375</ele>
      </trkpt>
      <trkpt lat="44.13894" lon="1.70359">
        <ele>312</ele>
        <time>2007-11-10T10:44:52Z</time>
      </trkpt>
      <trkpt lat="44.13891" lon="1.70406">
        <ele>311</ele>
        <time>2007-11-10T10:44:59Z</time>
      </trkpt>
      <trkpt lat="44.13881" lon="1.70463">
        <ele>308</ele>
        <time>2007-11-10T10:45:11Z</time>
      </trkpt>
      <trkpt lat="44.1389" lon="1.70484">
        <ele>307</ele>
        <time>2007-11-10T10:45:24Z</time>
      </trkpt>
      <trkpt lat="44.139" lon="1.70496">
        <ele>306</ele>
        <time>2007-11-10T10:45:35Z</time>
      </trkpt>
      <trkpt lat="44.13897" lon="1.70496">
        <ele>306</ele>
        <time>2007-11-10T10:46:14Z</time>
      </trkpt>
      <trkpt lat="44.13894" lon="1.70497">
        <ele>306</ele>
        <time>2007-11-10T10:46:57Z</time>
      </trkpt>
      <trkpt lat="44.139" lon="1.705">
        <ele>306</ele>
        <time>2007-11-10T10:47:10Z</time>
      </trkpt>
      <trkpt lat="44.13902" lon="1.70546">
        <ele>302</ele>
        <time>2007-11-10T10:47:21Z</time>
      </trkpt>
      <trkpt lat="44.13888" lon="1.70587">
        <ele>295</ele>
        <time>2007-11-10T10:47:31Z</time>
      </trkpt>
      <trkpt lat="44.13878" lon="1.70604">
        <ele>293</ele>
        <time>2007-11-10T10:47:36Z</time>
      </trkpt>
      <trkpt lat="44.13859" lon="1.70621">
        <ele>289</ele>
        <time>2007-11-10T10:47:43Z</time>
      </trkpt>
      <trkpt lat="44.13852" lon="1.70633">
        <ele>285</ele>
        <time>2007-11-10T10:47:47Z</time>
      </trkpt>
      <trkpt lat="44.13844" lon="1.70652">
        <ele>279</ele>
        <time>2007-11-10T10:47:53Z</time>
      </trkpt>
      <trkpt lat="44.13844" lon="1.70672">
        <ele>276</ele>
        <time>2007-11-10T10:47:59Z</time>
      </trkpt>
      <trkpt lat="44.13843" lon="1.70685">
        <ele>273</ele>
        <time>2007-11-10T10:48:09Z</time>
      </trkpt>
      <trkpt lat="44.13841" lon="1.70694">
        <ele>270</ele>
        <time>2007-11-10T10:48:16Z</time>
      </trkpt>
      <trkpt lat="44.13838" lon="1.70696">
        <ele>268</ele>
        <time>2007-11-10T10:48:23Z</time>
      </trkpt>
      <trkpt lat="44.1383" lon="1.707">
        <ele>267</ele>
        <time>2007-11-10T10:48:31Z</time>
      </trkpt>
      <trkpt lat="44.13819" lon="1.70705">
        <ele>264</ele>
        <time>2007-11-10T10:48:53Z</time>
      </trkpt>
      <trkpt lat="44.13813" lon="1.70707">
        <ele>262</ele>
        <time>2007-11-10T10:48:59Z</time>
      </trkpt>
      <trkpt lat="44.13807" lon="1.70719">
        <ele>258</ele>
        <time>2007-11-10T10:49:11Z</time>
      </trkpt>
      <trkpt lat="44.13803" lon="1.70724">
        <ele>257</ele>
        <time>2007-11-10T10:49:14Z</time>
      </trkpt>
      <trkpt lat="44.13788" lon="1.70731">
        <ele>253</ele>
        <time>2007-11-10T10:49:21Z</time>
      </trkpt>
      <trkpt lat="44.13772" lon="1.70741">
        <ele>248</ele>
        <time>2007-11-10T10:49:30Z</time>
      </trkpt>
      <trkpt lat="44.13765" lon="1.70746">
        <ele>245</ele>
        <time>2007-11-10T10:49:34Z</time>
      </trkpt>
      <trkpt lat="44.13757" lon="1.70756">
        <ele>241</ele>
        <time>2007-11-10T10:49:45Z</time>
      </trkpt>
      <trkpt lat="44.13751" lon="1.70762">
        <ele>238</ele>
        <time>2007-11-10T10:49:54Z</time>
      </trkpt>
      <trkpt lat="44.13746" lon="1.70767">
        <ele>236</ele>
        <time>2007-11-10T10:50:02Z</time>
      </trkpt>
      <trkpt lat="44.13739" lon="1.7077">
        <ele>234</ele>
        <time>2007-11-10T10:50:11Z</time>
      </trkpt>
      <trkpt lat="44.13732" lon="1.70772">
        <ele>231</ele>
        <time>2007-11-10T10:50:22Z</time>
      </trkpt>
      <trkpt lat="44.13723" lon="1.70773">
        <ele>229</ele>
        <time>2007-11-10T10:50:28Z</time>
      </trkpt>
      <trkpt lat="44.13704" lon="1.70776">
        <ele>221</ele>
        <time>2007-11-10T10:50:39Z</time>
      </trkpt>
      <trkpt lat="44.13696" lon="1.7078">
        <ele>217</ele>
        <time>2007-11-10T10:50:45Z</time>
      </trkpt>
      <trkpt lat="44.1369" lon="1.7079">
        <ele>213</ele>
        <time>2007-11-10T10:50:53Z</time>
      </trkpt>
      <trkpt lat="44.13685" lon="1.70803">
        <ele>208</ele>
        <time>2007-11-10T10:51:00Z</time>
      </trkpt>
      <trkpt lat="44.13674" lon="1.70814">
        <ele>202</ele>
        <time>2007-11-10T10:51:11Z</time>
      </trkpt>
      <trkpt lat="44.13671" lon="1.70819">
        <ele>201</ele>
        <time>2007-11-10T10:51:26Z</time>
      </trkpt>
      <trkpt lat="44.13665" lon="1.70837">
        <ele>196</ele>
        <time>2007-11-10T10:51:36Z</time>
      </trkpt>
      <trkpt lat="44.13659" lon="1.70847">
        <ele>192</ele>
        <time>2007-11-10T10:51:43Z</time>
      </trkpt>
      <trkpt lat="44.13655" lon="1.70861">
        <ele>188</ele>
        <time>2007-11-10T10:51:50Z</time>
      </trkpt>
      <trkpt lat="44.13651" lon="1.7088">
        <ele>182</ele>
        <time>2007-11-10T10:51:57Z</time>
      </trkpt>
      <trkpt lat="44.13647" lon="1.70894">
        <ele>177</ele>
        <time>2007-11-10T10:52:04Z</time>
      </trkpt>
      <trkpt lat="44.13645" lon="1.70905">
        <ele>174</ele>
        <time>2007-11-10T10:52:09Z</time>
      </trkpt>
      <trkpt lat="44.13637" lon="1.70923">
        <ele>169</ele>
        <time>2007-11-10T10:52:20Z</time>
      </trkpt>
      <trkpt lat="44.1363" lon="1.7094">
        <ele>166</ele>
        <time>2007-11-10T10:52:33Z</time>
      </trkpt>
      <trkpt lat="44.13627" lon="1.70964">
        <ele>160</ele>
        <time>2007-11-10T10:52:44Z</time>
      </trkpt>
      <trkpt lat="44.13623" lon="1.70988">
        <ele>156</ele>
        <time>2007-11-10T10:52:53Z</time>
      </trkpt>
      <trkpt lat="44.13618" lon="1.70996">
        <ele>155</ele>
        <time>2007-11-10T10:53:18Z</time>
      </trkpt>
      <trkpt lat="44.13595" lon="1.7101">
        <ele>151</ele>
        <time>2007-11-10T10:53:27Z</time>
      </trkpt>
      <trkpt lat="44.1359" lon="1.71013">
        <ele>149</ele>
        <time>2007-11-10T10:53:34Z</time>
      </trkpt>
      <trkpt lat="44.13592" lon="1.71012">
        <ele>149</ele>
        <time>2007-11-10T10:54:02Z</time>
      </trkpt>
      <trkpt lat="44.13597" lon="1.71009">
        <ele>151</ele>
        <time>2007-11-10T10:54:33Z</time>
      </trkpt>
      <trkpt lat="44.13596" lon="1.71009">
        <ele>151</ele>
        <time>2007-11-10T10:54:49Z</time>
      </trkpt>
      <trkpt lat="44.13595" lon="1.71013">
        <ele>151</ele>
        <time>2007-11-10T10:55:32Z</time>
      </trkpt>
      <trkpt lat="44.13593" lon="1.71013">
        <ele>152</ele>
        <time>2007-11-10T10:55:55Z</time>
      </trkpt>
      <trkpt lat="44.13591" lon="1.71015">
        <ele>151</ele>
        <time>2007-11-10T10:56:27Z</time>
      </trkpt>
      <trkpt lat="44.1358" lon="1.71024">
        <ele>150</ele>
        <time>2007-11-10T10:56:33Z</time>
      </trkpt>
      <trkpt lat="44.13567" lon="1.71041">
        <ele>147</ele>
        <time>2007-11-10T10:56:37Z</time>
      </trkpt>
      <trkpt lat="44.13532" lon="1.71041">
        <ele>141</ele>
        <time>2007-11-10T10:56:45Z</time>
      </trkpt>
      <trkpt lat="44.1351" lon="1.71031">
        <ele>139</ele>
        <time>2007-11-10T10:56:49Z</time>
      </trkpt>
      <trkpt lat="44.13486" lon="1.7099">
        <ele>136</ele>
        <time>2007-11-10T10:56:57Z</time>
      </trkpt>
      <trkpt lat="44.13438" lon="1.70911">
        <ele>127</ele>
        <time>2007-11-10T10:57:06Z</time>
      </trkpt>
      <trkpt lat="44.13404" lon="1.70865">
        <ele>120</ele>
        <time>2007-11-10T10:57:12Z</time>
      </trkpt>
      <trkpt lat="44.13388" lon="1.7086">
        <ele>119</ele>
        <time>2007-11-10T10:57:22Z</time>
      </trkpt>
      <trkpt lat="44.13381" lon="1.70852">
        <ele>117</ele>
        <time>2007-11-10T10:57:28Z</time>
      </trkpt>
      <trkpt lat="44.13385" lon="1.70838">
        <ele>115</ele>
        <time>2007-11-10T10:57:34Z</time>
      </trkpt>
      <trkpt lat="44.13385" lon="1.70836">
        <ele>115</ele>
        <time>2007-11-10T10:57:55Z</time>
      </trkpt>
      <trkpt lat="44.13391" lon="1.70832">
        <ele>114</ele>
        <time>2007-11-10T10:58:31Z</time>
      </trkpt>
      <trkpt lat="44.13402" lon="1.70822">
        <ele>113</ele>
        <time>2007-11-10T10:58:46Z</time>
      </trkpt>
      <trkpt lat="44.1341" lon="1.70818">
        <ele>114</ele>
        <time>2007-11-10T10:59:01Z</time>
      </trkpt>
      <trkpt lat="44.13418" lon="1.70812">
        <ele>114</ele>
        <time>2007-11-10T10:59:14Z</time>
      </trkpt>
      <trkpt lat="44.13421" lon="1.70811">
        <ele>115</ele>
        <time>2007-11-10T10:59:29Z</time>
      </trkpt>
      <trkpt lat="44.13431" lon="1.70803">
        <ele>116</ele>
        <time>2007-11-10T10:59:42Z</time>
      </trkpt>
      <trkpt lat="44.13439" lon="1.70797">
        <ele>116</ele>
        <time>2007-11-10T10:59:54Z</time>
      </trkpt>
      <trkpt lat="44.13448" lon="1.70792">
        <ele>118</ele>
        <time>2007-11-10T11:00:07Z</time>
      </trkpt>
      <trkpt lat="44.13458" lon="1.70791">
        <ele>119</ele>
        <time>2007-11-10T11:00:20Z</time>
      </trkpt>
      <trkpt lat="44.13475" lon="1.70762">
        <ele>120</ele>
        <time>2007-11-10T11:00:31Z</time>
      </trkpt>
      <trkpt lat="44.13481" lon="1.70719">
        <ele>120</ele>
        <time>2007-11-10T11:00:43Z</time>
      </trkpt>
      <trkpt lat="44.13486" lon="1.70685">
        <ele>120</ele>
        <time>2007-11-10T11:00:53Z</time>
      </trkpt>
      <trkpt lat="44.13492" lon="1.70646">
        <ele>120</ele>
        <time>2007-11-10T11:01:07Z</time>
      </trkpt>
      <trkpt lat="44.13493" lon="1.70638">
        <ele>121</ele>
        <time>2007-11-10T11:01:10Z</time>
      </trkpt>
      <trkpt lat="44.1349" lon="1.70606">
        <ele>122</ele>
        <time>2007-11-10T11:01:24Z</time>
      </trkpt>
      <trkpt lat="44.13486" lon="1.70577">
        <ele>126</ele>
        <time>2007-11-10T11:01:39Z</time>
      </trkpt>
      <trkpt lat="44.13478" lon="1.70553">
        <ele>127</ele>
        <time>2007-11-10T11:01:50Z</time>
      </trkpt>
      <trkpt lat="44.13462" lon="1.70533">
        <ele>127</ele>
        <time>2007-11-10T11:02:00Z</time>
      </trkpt>
      <trkpt lat="44.13437" lon="1.70506">
        <ele>128</ele>
        <time>2007-11-10T11:02:12Z</time>
      </trkpt>
      <trkpt lat="44.13416" lon="1.70486">
        <ele>127</ele>
        <time>2007-11-10T11:02:22Z</time>
      </trkpt>
      <trkpt lat="44.13394" lon="1.70465">
        <ele>128</ele>
        <time>2007-11-10T11:02:33Z</time>
      </trkpt>
      <trkpt lat="44.13373" lon="1.70441">
        <ele>129</ele>
        <time>2007-11-10T11:02:45Z</time>
      </trkpt>
      <trkpt lat="44.1336" lon="1.70429">
        <ele>128</ele>
        <time>2007-11-10T11:02:52Z</time>
      </trkpt>
      <trkpt lat="44.1335" lon="1.70414">
        <ele>127</ele>
        <time>2007-11-10T11:02:59Z</time>
      </trkpt>
      <trkpt lat="44.13329" lon="1.70419">
        <ele>128</ele>
        <time>2007-11-10T11:03:12Z</time>
      </trkpt>
      <trkpt lat="44.13306" lon="1.70421">
        <ele>128</ele>
        <time>2007-11-10T11:03:24Z</time>
      </trkpt>
      <trkpt lat="44.13294" lon="1.70427">
        <ele>128</ele>
        <time>2007-11-10T11:03:31Z</time>
      </trkpt>
      <trkpt lat="44.13274" lon="1.70446">
        <ele>127</ele>
        <time>2007-11-10T11:03:44Z</time>
      </trkpt>
      <trkpt lat="44.13245" lon="1.70463">
        <ele>129</ele>
        <time>2007-11-10T11:03:57Z</time>
      </trkpt>
      <trkpt lat="44.13233" lon="1.70459">
        <ele>131</ele>
        <time>2007-11-10T11:04:06Z</time>
      </trkpt>
      <trkpt lat="44.13211" lon="1.70467">
        <ele>132</ele>
        <time>2007-11-10T11:04:19Z</time>
      </trkpt>
      <trkpt lat="44.13187" lon="1.70487">
        <ele>132</ele>
        <time>2007-11-10T11:04:33Z</time>
      </trkpt>
      <trkpt lat="44.13167" lon="1.70504">
        <ele>130</ele>
        <time>2007-11-10T11:04:41Z</time>
      </trkpt>
      <trkpt lat="44.13141" lon="1.70525">
        <ele>127</ele>
        <time>2007-11-10T11:04:52Z</time>
      </trkpt>
      <trkpt lat="44.13112" lon="1.70546">
        <ele>125</ele>
        <time>2007-11-10T11:05:04Z</time>
      </trkpt>
      <trkpt lat="44.13081" lon="1.70559">
        <ele>127</ele>
        <time>2007-11-10T11:05:18Z</time>
      </trkpt>
      <trkpt lat="44.13061" lon="1.70568">
        <ele>128</ele>
        <time>2007-11-10T11:05:28Z</time>
      </trkpt>
      <trkpt lat="44.13036" lon="1.70585">
        <ele>128</ele>
        <time>2007-11-10T11:05:40Z</time>
      </trkpt>
      <trkpt lat="44.13024" lon="1.70603">
        <ele>127</ele>
        <time>2007-11-10T11:05:47Z</time>
      </trkpt>
      <trkpt lat="44.13005" lon="1.70603">
        <ele>128</ele>
        <time>2007-11-10T11:05:55Z</time>
      </trkpt>
      <trkpt lat="44.1299" lon="1.70603">
        <ele>128</ele>
        <time>2007-11-10T11:06:02Z</time>
      </trkpt>
      <trkpt lat="44.12979" lon="1.70619">
        <ele>132</ele>
        <time>2007-11-10T11:06:12Z</time>
      </trkpt>
      <trkpt lat="44.12963" lon="1.70644">
        <ele>134</ele>
        <time>2007-11-10T11:06:23Z</time>
      </trkpt>
      <trkpt lat="44.12947" lon="1.70652">
        <ele>138</ele>
        <time>2007-11-10T11:06:37Z</time>
      </trkpt>
      <trkpt lat="44.12932" lon="1.70667">
        <ele>140</ele>
        <time>2007-11-10T11:06:50Z</time>
      </trkpt>
      <trkpt lat="44.12924" lon="1.70692">
        <ele>141</ele>
        <time>2007-11-10T11:06:59Z</time>
      </trkpt>
      <trkpt lat="44.12914" lon="1.70725">
        <ele>143</ele>
        <time>2007-11-10T11:07:15Z</time>
      </trkpt>
      <trkpt lat="44.12899" lon="1.70761">
        <ele>145</ele>
        <time>2007-11-10T11:07:27Z</time>
      </trkpt>
      <trkpt lat="44.12891" lon="1.70791">
        <ele>146</ele>
        <time>2007-11-10T11:07:39Z</time>
      </trkpt>
      <trkpt lat="44.12888" lon="1.70809">
        <ele>143</ele>
        <time>2007-11-10T11:07:43Z</time>
      </trkpt>
      <trkpt lat="44.12881" lon="1.70838">
        <ele>141</ele>
        <time>2007-11-10T11:07:51Z</time>
      </trkpt>
      <trkpt lat="44.12869" lon="1.70861">
        <ele>145</ele>
        <time>2007-11-10T11:08:03Z</time>
      </trkpt>
      <trkpt lat="44.12856" lon="1.70889">
        <ele>147</ele>
        <time>2007-11-10T11:08:16Z</time>
      </trkpt>
      <trkpt lat="44.12849" lon="1.70898">
        <ele>149</ele>
        <time>2007-11-10T11:08:36Z</time>
      </trkpt>
      <trkpt lat="44.12843" lon="1.70903">
        <ele>148</ele>
        <time>2007-11-10T11:10:12Z</time>
      </trkpt>
      <trkpt lat="44.12821" lon="1.70933">
        <ele>147</ele>
        <time>2007-11-10T11:10:26Z</time>
      </trkpt>
      <trkpt lat="44.12788" lon="1.70975">
        <ele>146</ele>
        <time>2007-11-10T11:10:40Z</time>
      </trkpt>
      <trkpt lat="44.12757" lon="1.71014">
        <ele>148</ele>
        <time>2007-11-10T11:10:53Z</time>
      </trkpt>
      <trkpt lat="44.12729" lon="1.71064">
        <ele>149</ele>
        <time>2007-11-10T11:11:08Z</time>
      </trkpt>
      <trkpt lat="44.12706" lon="1.71109">
        <ele>151</ele>
        <time>2007-11-10T11:11:22Z</time>
      </trkpt>
      <trkpt lat="44.12685" lon="1.71136">
        <ele>151</ele>
        <time>2007-11-10T11:11:34Z</time>
      </trkpt>
      <trkpt lat="44.12659" lon="1.7118">
        <ele>150</ele>
        <time>2007-11-10T11:11:45Z</time>
      </trkpt>
      <trkpt lat="44.12621" lon="1.71264">
        <ele>147</ele>
        <time>2007-11-10T11:12:01Z</time>
      </trkpt>
      <trkpt lat="44.12596" lon="1.71325">
        <ele>149</ele>
        <time>2007-11-10T11:12:15Z</time>
      </trkpt>
      <trkpt lat="44.12582" lon="1.71358">
        <ele>152</ele>
        <time>2007-11-10T11:12:27Z</time>
      </trkpt>
      <trkpt lat="44.12565" lon="1.71387">
        <ele>153</ele>
        <time>2007-11-10T11:12:39Z</time>
      </trkpt>
      <trkpt lat="44.12546" lon="1.71406">
        <ele>157</ele>
        <time>2007-11-10T11:12:52Z</time>
      </trkpt>
      <trkpt lat="44.12522" lon="1.71423">
        <ele>160</ele>
        <time>2007-11-10T11:13:06Z</time>
      </trkpt>
      <trkpt lat="44.12501" lon="1.7143">
        <ele>162</ele>
        <time>2007-11-10T11:13:18Z</time>
      </trkpt>
      <trkpt lat="44.12484" lon="1.7145">
        <ele>160</ele>
        <time>2007-11-10T11:13:25Z</time>
      </trkpt>
      <trkpt lat="44.12472" lon="1.71513">
        <ele>155</ele>
        <time>2007-11-10T11:13:33Z</time>
      </trkpt>
      <trkpt lat="44.12428" lon="1.71608">
        <ele>150</ele>
        <time>2007-11-10T11:13:42Z</time>
      </trkpt>
      <trkpt lat="44.12314" lon="1.71651">
        <ele>146</ele>
        <time>2007-11-10T11:13:55Z</time>
      </trkpt>
      <trkpt lat="44.12269" lon="1.71639">
        <ele>144</ele>
        <time>2007-11-10T11:14:01Z</time>
      </trkpt>
      <trkpt lat="44.12216" lon="1.71612">
        <ele>144</ele>
        <time>2007-11-10T11:14:10Z</time>
      </trkpt>
      <trkpt lat="44.12181" lon="1.71652">
        <ele>142</ele>
        <time>2007-11-10T11:14:19Z</time>
      </trkpt>
      <trkpt lat="44.12181" lon="1.7171">
        <ele>139</ele>
        <time>2007-11-10T11:14:25Z</time>
      </trkpt>
      <trkpt lat="44.12171" lon="1.71799">
        <ele>134</ele>
        <time>2007-11-10T11:14:33Z</time>
      </trkpt>
      <trkpt lat="44.12197" lon="1.71884">
        <ele>129</ele>
        <time>2007-11-10T11:14:41Z</time>
      </trkpt>
      <trkpt lat="44.12209" lon="1.71946">
        <ele>126</ele>
        <time>2007-11-10T11:14:48Z</time>
      </trkpt>
      <trkpt lat="44.12185" lon="1.71995">
        <ele>125</ele>
        <time>2007-11-10T11:14:56Z</time>
      </trkpt>
      <trkpt lat="44.12169" lon="1.72037">
        <ele>125</ele>
        <time>2007-11-10T11:15:06Z</time>
      </trkpt>
      <trkpt lat="44.12171" lon="1.72052">
        <ele>127</ele>
        <time>2007-11-10T11:15:18Z</time>
      </trkpt>
      <trkpt lat="44.12172" lon="1.72061">
        <ele>127</ele>
        <time>2007-11-10T11:15:36Z</time>
      </trkpt>
      <trkpt lat="44.12175" lon="1.72074">
        <ele>127</ele>
        <time>2007-11-10T11:15:49Z</time>
      </trkpt>
      <trkpt lat="44.12189" lon="1.72137">
        <ele>128</ele>
        <time>2007-11-10T11:16:04Z</time>
      </trkpt>
      <trkpt lat="44.12191" lon="1.72153">
        <ele>126</ele>
        <time>2007-11-10T11:16:12Z</time>
      </trkpt>
      <trkpt lat="44.12192" lon="1.72162">
        <ele>125</ele>
        <time>2007-11-10T11:16:30Z</time>
      </trkpt>
      <trkpt lat="44.1219" lon="1.72162">
        <ele>123</ele>
        <time>2007-11-10T11:16:43Z</time>
      </trkpt>
      <trkpt lat="44.12192" lon="1.72162">
        <ele>124</ele>
        <time>2007-11-10T11:17:03Z</time>
      </trkpt>
      <trkpt lat="44.12191" lon="1.7216">
        <ele>125</ele>
        <time>2007-11-10T11:17:22Z</time>
      </trkpt>
      <trkpt lat="44.12189" lon="1.72159">
        <ele>125</ele>
        <time>2007-11-10T11:17:37Z</time>
      </trkpt>
      <trkpt lat="44.12191" lon="1.72159">
        <ele>125</ele>
        <time>2007-11-10T11:17:56Z</time>
      </trkpt>
      <trkpt lat="44.12202" lon="1.72152">
        <ele>124</ele>
        <time>2007-11-10T11:18:19Z</time>
      </trkpt>
      <trkpt lat="44.12231" lon="1.72136">
        <ele>123</ele>
        <time>2007-11-10T11:18:29Z</time>
      </trkpt>
      <trkpt lat="44.12265" lon="1.72113">
        <ele>122</ele>
        <time>2007-11-10T11:18:39Z</time>
      </trkpt>
      <trkpt lat="44.12307" lon="1.72084">
        <ele>122</ele>
        <time>2007-11-10T11:18:51Z</time>
      </trkpt>
      <trkpt lat="44.12346" lon="1.72056">
        <ele>122</ele>
        <time>2007-11-10T11:19:02Z</time>
      </trkpt>
      <trkpt lat="44.12389" lon="1.72024">
        <ele>122</ele>
        <time>2007-11-10T11:19:14Z</time>
      </trkpt>
      <trkpt lat="44.12432" lon="1.71991">
        <ele>122</ele>
        <time>2007-11-10T11:19:27Z</time>
      </trkpt>
      <trkpt lat="44.12479" lon="1.71953">
        <ele>121</ele>
        <time>2007-11-10T11:19:40Z</time>
      </trkpt>
      <trkpt lat="44.12524" lon="1.71901">
        <ele>121</ele>
        <time>2007-11-10T11:19:55Z</time>
      </trkpt>
      <trkpt lat="44.12569" lon="1.71843">
        <ele>122</ele>
        <time>2007-11-10T11:20:10Z</time>
      </trkpt>
      <trkpt lat="44.12614" lon="1.71785">
        <ele>123</ele>
        <time>2007-11-10T11:20:26Z</time>
      </trkpt>
      <trkpt lat="44.12642" lon="1.71746">
        <ele>122</ele>
        <time>2007-11-10T11:20:38Z</time>
      </trkpt>
      <trkpt lat="44.12681" lon="1.71696">
        <ele>123</ele>
        <time>2007-11-10T11:20:51Z</time>
      </trkpt>
      <trkpt lat="44.12718" lon="1.71645">
        <ele>123</ele>
        <time>2007-11-10T11:21:05Z</time>
      </trkpt>
      <trkpt lat="44.12763" lon="1.71581">
        <ele>123</ele>
        <time>2007-11-10T11:21:20Z</time>
      </trkpt>
      <trkpt lat="44.12795" lon="1.71519">
        <ele>121</ele>
        <time>2007-11-10T11:21:33Z</time>
      </trkpt>
      <trkpt lat="44.12827" lon="1.71463">
        <ele>121</ele>
        <time>2007-11-10T11:21:44Z</time>
      </trkpt>
      <trkpt lat="44.1286" lon="1.71392">
        <ele>121</ele>
        <time>2007-11-10T11:21:58Z</time>
      </trkpt>
      <trkpt lat="44.12881" lon="1.7133">
        <ele>119</ele>
        <time>2007-11-10T11:22:09Z</time>
      </trkpt>
      <trkpt lat="44.12911" lon="1.7127">
        <ele>121</ele>
        <time>2007-11-10T11:22:21Z</time>
      </trkpt>
      <trkpt lat="44.12946" lon="1.71214">
        <ele>124</ele>
        <time>2007-11-10T11:22:37Z</time>
      </trkpt>
      <trkpt lat="44.12971" lon="1.71183">
        <ele>126</ele>
        <time>2007-11-10T11:22:52Z</time>
      </trkpt>
      <trkpt lat="44.12981" lon="1.71166">
        <ele>125</ele>
        <time>2007-11-10T11:23:10Z</time>
      </trkpt>
      <trkpt lat="44.12992" lon="1.71146">
        <ele>125</ele>
        <time>2007-11-10T11:23:23Z</time>
      </trkpt>
      <trkpt lat="44.13026" lon="1.71076">
        <ele>127</ele>
        <time>2007-11-10T11:23:41Z</time>
      </trkpt>
      <trkpt lat="44.13047" lon="1.71013">
        <ele>126</ele>
        <time>2007-11-10T11:23:56Z</time>
      </trkpt>
      <trkpt lat="44.13074" lon="1.70923">
        <ele>127</ele>
        <time>2007-11-10T11:24:15Z</time>
      </trkpt>
      <trkpt lat="44.13105" lon="1.70863">
        <ele>130</ele>
        <time>2007-11-10T11:24:33Z</time>
      </trkpt>
      <trkpt lat="44.13134" lon="1.70818">
        <ele>131</ele>
        <time>2007-11-10T11:24:50Z</time>
      </trkpt>
      <trkpt lat="44.13153" lon="1.70801">
        <ele>134</ele>
        <time>2007-11-10T11:25:00Z</time>
      </trkpt>
      <trkpt lat="44.13189" lon="1.70783">
        <ele>137</ele>
        <time>2007-11-10T11:25:18Z</time>
      </trkpt>
      <trkpt lat="44.13211" lon="1.70782">
        <ele>139</ele>
        <time>2007-11-10T11:25:29Z</time>
      </trkpt>
      <trkpt lat="44.13224" lon="1.7081">
        <ele>142</ele>
        <time>2007-11-10T11:25:42Z</time>
      </trkpt>
      <trkpt lat="44.13208" lon="1.70835">
        <ele>143</ele>
        <time>2007-11-10T11:25:53Z</time>
      </trkpt>
      <trkpt lat="44.13166" lon="1.70861">
        <ele>147</ele>
        <time>2007-11-10T11:26:13Z</time>
      </trkpt>
      <trkpt lat="44.13135" lon="1.70887">
        <ele>151</ele>
        <time>2007-11-10T11:26:31Z</time>
      </trkpt>
      <trkpt lat="44.13133" lon="1.70924">
        <ele>152</ele>
        <time>2007-11-10T11:26:45Z</time>
      </trkpt>
      <trkpt lat="44.13159" lon="1.70933">
        <ele>155</ele>
        <time>2007-11-10T11:26:58Z</time>
      </trkpt>
      <trkpt lat="44.13195" lon="1.70906">
        <ele>158</ele>
        <time>2007-11-10T11:27:15Z</time>
      </trkpt>
      <trkpt lat="44.1322" lon="1.7091">
        <ele>160</ele>
        <time>2007-11-10T11:27:29Z</time>
      </trkpt>
      <trkpt lat="44.1322" lon="1.70944">
        <ele>164</ele>
        <time>2007-11-10T11:27:44Z</time>
      </trkpt>
      <trkpt lat="44.13206" lon="1.70979">
        <ele>167</ele>
        <time>2007-11-10T11:28:00Z</time>
      </trkpt>
      <trkpt lat="44.13198" lon="1.71028">
        <ele>170</ele>
        <time>2007-11-10T11:28:19Z</time>
      </trkpt>
      <trkpt lat="44.13196" lon="1.71065">
        <ele>174</ele>
        <time>2007-11-10T11:28:33Z</time>
      </trkpt>
      <trkpt lat="44.13197" lon="1.71112">
        <ele>176</ele>
        <time>2007-11-10T11:28:50Z</time>
      </trkpt>
      <trkpt lat="44.13192" lon="1.71166">
        <ele>178</ele>
        <time>2007-11-10T11:29:06Z</time>
      </trkpt>
      <trkpt lat="44.13186" lon="1.71218">
        <ele>178</ele>
        <time>2007-11-10T11:29:18Z</time>
      </trkpt>
      <trkpt lat="44.13185" lon="1.7122">
        <ele>178</ele>
        <time>2007-11-10T11:29:35Z</time>
      </trkpt>
      <trkpt lat="44.13185" lon="1.71221">
        <ele>177</ele>
        <time>2007-11-10T11:29:54Z</time>
      </trkpt>
      <trkpt lat="44.13187" lon="1.71221">
        <ele>177</ele>
        <time>2007-11-10T11:30:14Z</time>
      </trkpt>
      <trkpt lat="44.13188" lon="1.71221">
        <ele>177</ele>
        <time>2007-11-10T11:30:33Z</time>
      </trkpt>
      <trkpt lat="44.13189" lon="1.71221">
        <ele>178</ele>
        <time>2007-11-10T11:30:57Z</time>
      </trkpt>
      <trkpt lat="44.13189" lon="1.7122">
        <ele>178</ele>
        <time>2007-11-10T11:31:29Z</time>
      </trkpt>
      <trkpt lat="44.13189" lon="1.71219">
        <ele>177</ele>
        <time>2007-11-10T11:31:49Z</time>
      </trkpt>
      <trkpt lat="44.13185" lon="1.71226">
        <ele>177</ele>
        <time>2007-11-10T11:32:01Z</time>
      </trkpt>
      <trkpt lat="44.13188" lon="1.71228">
        <ele>177</ele>
        <time>2007-11-10T11:32:17Z</time>
      </trkpt>
      <trkpt lat="44.13188" lon="1.71239">
        <ele>177</ele>
        <time>2007-11-10T11:32:22Z</time>
      </trkpt>
      <trkpt lat="44.13193" lon="1.71329">
        <ele>175</ele>
        <time>2007-11-10T11:32:36Z</time>
      </trkpt>
      <trkpt lat="44.13202" lon="1.71386">
        <ele>178</ele>
        <time>2007-11-10T11:32:51Z</time>
      </trkpt>
      <trkpt lat="44.13208" lon="1.71421">
        <ele>181</ele>
        <time>2007-11-10T11:33:06Z</time>
      </trkpt>
      <trkpt lat="44.13213" lon="1.71459">
        <ele>185</ele>
        <time>2007-11-10T11:33:23Z</time>
      </trkpt>
      <trkpt lat="44.13216" lon="1.71493">
        <ele>189</ele>
        <time>2007-11-10T11:33:42Z</time>
      </trkpt>
      <trkpt lat="44.13206" lon="1.71514">
        <ele>192</ele>
        <time>2007-11-10T11:33:57Z</time>
      </trkpt>
      <trkpt lat="44.13192" lon="1.71533">
        <ele>195</ele>
        <time>2007-11-10T11:34:09Z</time>
      </trkpt>
      <trkpt lat="44.13187" lon="1.71543">
        <ele>196</ele>
        <time>2007-11-10T11:34:16Z</time>
      </trkpt>
      <trkpt lat="44.13165" lon="1.71568">
        <ele>198</ele>
        <time>2007-11-10T11:34:33Z</time>
      </trkpt>
      <trkpt lat="44.13155" lon="1.71582">
        <ele>199</ele>
        <time>2007-11-10T11:34:42Z</time>
      </trkpt>
      <trkpt lat="44.13127" lon="1.71615">
        <ele>201</ele>
        <time>2007-11-10T11:35:01Z</time>
      </trkpt>
      <trkpt lat="44.131" lon="1.71646">
        <ele>202</ele>
        <time>2007-11-10T11:35:15Z</time>
      </trkpt>
      <trkpt lat="44.1308" lon="1.71673">
        <ele>205</ele>
        <time>2007-11-10T11:35:29Z</time>
      </trkpt>
      <trkpt lat="44.13066" lon="1.71704">
        <ele>208</ele>
        <time>2007-11-10T11:35:47Z</time>
      </trkpt>
      <trkpt lat="44.1306" lon="1.71727">
        <ele>212</ele>
        <time>2007-11-10T11:36:01Z</time>
      </trkpt>
      <trkpt lat="44.13053" lon="1.71743">
        <ele>213</ele>
        <time>2007-11-10T11:36:12Z</time>
      </trkpt>
      <trkpt lat="44.13041" lon="1.71777">
        <ele>215</ele>
        <time>2007-11-10T11:36:35Z</time>
      </trkpt>
      <trkpt lat="44.13035" lon="1.71791">
        <ele>218</ele>
        <time>2007-11-10T11:36:46Z</time>
      </trkpt>
      <trkpt lat="44.13041" lon="1.71797">
        <ele>221</ele>
        <time>2007-11-10T11:37:02Z</time>
      </trkpt>
      <trkpt lat="44.13054" lon="1.71796">
        <ele>223</ele>
        <time>2007-11-10T11:37:15Z</time>
      </trkpt>
      <trkpt lat="44.13073" lon="1.71792">
        <ele>227</ele>
        <time>2007-11-10T11:37:33Z</time>
      </trkpt>
      <trkpt lat="44.13086" lon="1.71795">
        <ele>228</ele>
        <time>2007-11-10T11:37:46Z</time>
      </trkpt>
      <trkpt lat="44.13103" lon="1.71795">
        <ele>232</ele>
        <time>2007-11-10T11:38:03Z</time>
      </trkpt>
      <trkpt lat="44.13125" lon="1.71796">
        <ele>235</ele>
        <time>2007-11-10T11:38:24Z</time>
      </trkpt>
      <trkpt lat="44.13143" lon="1.71799">
        <ele>239</ele>
        <time>2007-11-10T11:38:41Z</time>
      </trkpt>
      <trkpt lat="44.13162" lon="1.71799">
        <ele>241</ele>
        <time>2007-11-10T11:38:58Z</time>
      </trkpt>
      <trkpt lat="44.13179" lon="1.71799">
        <ele>244</ele>
        <time>2007-11-10T11:39:13Z</time>
      </trkpt>
      <trkpt lat="44.13199" lon="1.71802">
        <ele>247</ele>
        <time>2007-11-10T11:39:31Z</time>
      </trkpt>
      <trkpt lat="44.13217" lon="1.71813">
        <ele>251</ele>
        <time>2007-11-10T11:39:50Z</time>
      </trkpt>
      <trkpt lat="44.13235" lon="1.71826">
        <ele>254</ele>
        <time>2007-11-10T11:40:09Z</time>
      </trkpt>
      <trkpt lat="44.13255" lon="1.71843">
        <ele>258</ele>
        <time>2007-11-10T11:40:28Z</time>
      </trkpt>
      <trkpt lat="44.13272" lon="1.71866">
        <ele>261</ele>
        <time>2007-11-10T11:40:48Z</time>
      </trkpt>
      <trkpt lat="44.13268" lon="1.71892">
        <ele>265</ele>
        <time>2007-11-10T11:41:06Z</time>
      </trkpt>
      <trkpt lat="44.13254" lon="1.71891">
        <ele>267</ele>
        <time>2007-11-10T11:41:19Z</time>
      </trkpt>
      <trkpt lat="44.13239" lon="1.71897">
        <ele>270</ele>
        <time>2007-11-10T11:41:33Z</time>
      </trkpt>
      <trkpt lat="44.13222" lon="1.7191">
        <ele>274</ele>
        <time>2007-11-10T11:41:52Z</time>
      </trkpt>
      <trkpt lat="44.13207" lon="1.71921">
        <ele>276</ele>
        <time>2007-11-10T11:42:10Z</time>
      </trkpt>
      <trkpt lat="44.13191" lon="1.71932">
        <ele>279</ele>
        <time>2007-11-10T11:42:26Z</time>
      </trkpt>
      <trkpt lat="44.13183" lon="1.71942">
        <ele>281</ele>
        <time>2007-11-10T11:42:38Z</time>
      </trkpt>
      <trkpt lat="44.13171" lon="1.71958">
        <ele>283</ele>
        <time>2007-11-10T11:42:56Z</time>
      </trkpt>
      <trkpt lat="44.13162" lon="1.71969">
        <ele>286</ele>
        <time>2007-11-10T11:43:07Z</time>
      </trkpt>
      <trkpt lat="44.13152" lon="1.7199">
        <ele>289</ele>
        <time>2007-11-10T11:43:26Z</time>
      </trkpt>
      <trkpt lat="44.13157" lon="1.71995">
        <ele>291</ele>
        <time>2007-11-10T11:43:36Z</time>
      </trkpt>
      <trkpt lat="44.13172" lon="1.72006">
        <ele>293</ele>
        <time>2007-11-10T11:43:51Z</time>
      </trkpt>
      <trkpt lat="44.13175" lon="1.72016">
        <ele>294</ele>
        <time>2007-11-10T11:43:59Z</time>
      </trkpt>
      <trkpt lat="44.13174" lon="1.72041">
        <ele>297</ele>
        <time>2007-11-10T11:44:14Z</time>
      </trkpt>
      <trkpt lat="44.13171" lon="1.72072">
        <ele>298</ele>
        <time>2007-11-10T11:44:29Z</time>
      </trkpt>
      <trkpt lat="44.13167" lon="1.72108">
        <ele>300</ele>
        <time>2007-11-10T11:44:45Z</time>
      </trkpt>
      <trkpt lat="44.13162" lon="1.72147">
        <ele>301</ele>
        <time>2007-11-10T11:45:02Z</time>
      </trkpt>
      <trkpt lat="44.1316" lon="1.72183">
        <ele>304</ele>
        <time>2007-11-10T11:45:18Z</time>
      </trkpt>
      <trkpt lat="44.13157" lon="1.72219">
        <ele>307</ele>
        <time>2007-11-10T11:45:34Z</time>
      </trkpt>
      <trkpt lat="44.13154" lon="1.72252">
        <ele>310</ele>
        <time>2007-11-10T11:45:50Z</time>
      </trkpt>
      <trkpt lat="44.13152" lon="1.72289">
        <ele>312</ele>
        <time>2007-11-10T11:46:06Z</time>
      </trkpt>
      <trkpt lat="44.13149" lon="1.72314">
        <ele>314</ele>
        <time>2007-11-10T11:46:16Z</time>
      </trkpt>
      <trkpt lat="44.1315" lon="1.72358">
        <ele>314</ele>
        <time>2007-11-10T11:46:34Z</time>
      </trkpt>
      <trkpt lat="44.1315" lon="1.72361">
        <ele>314</ele>
        <time>2007-11-10T11:46:43Z</time>
      </trkpt>
      <trkpt lat="44.13154" lon="1.72364">
        <ele>313</ele>
        <time>2007-11-10T11:47:17Z</time>
      </trkpt>
      <trkpt lat="44.1315" lon="1.72362">
        <ele>312</ele>
        <time>2007-11-10T11:49:02Z</time>
      </trkpt>
      <trkpt lat="44.13151" lon="1.7236">
        <ele>313</ele>
        <time>2007-11-10T11:49:49Z</time>
      </trkpt>
      <trkpt lat="44.13152" lon="1.72362">
        <ele>312</ele>
        <time>2007-11-10T11:50:16Z</time>
      </trkpt>
      <trkpt lat="44.13149" lon="1.72362">
        <ele>312</ele>
        <time>2007-11-10T11:50:44Z</time>
      </trkpt>
      <trkpt lat="44.13148" lon="1.72373">
        <ele>312</ele>
        <time>2007-11-10T11:51:02Z</time>
      </trkpt>
      <trkpt lat="44.13142" lon="1.7242">
        <ele>313</ele>
        <time>2007-11-10T11:51:17Z</time>
      </trkpt>
      <trkpt lat="44.13143" lon="1.72467">
        <ele>313</ele>
        <time>2007-11-10T11:51:27Z</time>
      </trkpt>
      <trkpt lat="44.13162" lon="1.72515">
        <ele>315</ele>
        <time>2007-11-10T11:51:40Z</time>
      </trkpt>
      <trkpt lat="44.1318" lon="1.72541">
        <ele>318</ele>
        <time>2007-11-10T11:51:52Z</time>
      </trkpt>
      <trkpt lat="44.13209" lon="1.72575">
        <ele>320</ele>
        <time>2007-11-10T11:52:07Z</time>
      </trkpt>
      <trkpt lat="44.13226" lon="1.72609">
        <ele>321</ele>
        <time>2007-11-10T11:52:20Z</time>
      </trkpt>
      <trkpt lat="44.13244" lon="1.72655">
        <ele>323</ele>
        <time>2007-11-10T11:52:35Z</time>
      </trkpt>
      <trkpt lat="44.13266" lon="1.72685">
        <ele>325</ele>
        <time>2007-11-10T11:52:48Z</time>
      </trkpt>
      <trkpt lat="44.13284" lon="1.72702">
        <ele>327</ele>
        <time>2007-11-10T11:52:59Z</time>
      </trkpt>
      <trkpt lat="44.13298" lon="1.72715">
        <ele>329</ele>
        <time>2007-11-10T11:53:11Z</time>
      </trkpt>
      <trkpt lat="44.13306" lon="1.72719">
        <ele>329</ele>
        <time>2007-11-10T11:53:28Z</time>
      </trkpt>
      <trkpt lat="44.13314" lon="1.72723">
        <ele>330</ele>
        <time>2007-11-10T11:53:39Z</time>
      </trkpt>
      <trkpt lat="44.13337" lon="1.72731">
        <ele>333</ele>
        <time>2007-11-10T11:53:53Z</time>
      </trkpt>
      <trkpt lat="44.13364" lon="1.72741">
        <ele>335</ele>
        <time>2007-11-10T11:54:11Z</time>
      </trkpt>
      <trkpt lat="44.13391" lon="1.72766">
        <ele>339</ele>
        <time>2007-11-10T11:54:30Z</time>
      </trkpt>
      <trkpt lat="44.13401" lon="1.72761">
        <ele>339</ele>
        <time>2007-11-10T11:54:37Z</time>
      </trkpt>
      <trkpt lat="44.13419" lon="1.72718">
        <ele>338</ele>
        <time>2007-11-10T11:54:49Z</time>
      </trkpt>
      <trkpt lat="44.13439" lon="1.72659">
        <ele>335</ele>
        <time>2007-11-10T11:55:00Z</time>
      </trkpt>
      <trkpt lat="44.13454" lon="1.72615">
        <ele>334</ele>
        <time>2007-11-10T11:55:06Z</time>
      </trkpt>
      <trkpt lat="44.13464" lon="1.72586">
        <ele>331</ele>
        <time>2007-11-10T11:55:10Z</time>
      </trkpt>
      <trkpt lat="44.13475" lon="1.7256">
        <ele>329</ele>
        <time>2007-11-10T11:55:14Z</time>
      </trkpt>
      <trkpt lat="44.13485" lon="1.72509">
        <ele>326</ele>
        <time>2007-11-10T11:55:21Z</time>
      </trkpt>
      <trkpt lat="44.13515" lon="1.72437">
        <ele>324</ele>
        <time>2007-11-10T11:55:31Z</time>
      </trkpt>
      <trkpt lat="44.13535" lon="1.72383">
        <ele>322</ele>
        <time>2007-11-10T11:55:40Z</time>
      </trkpt>
      <trkpt lat="44.13551" lon="1.72336">
        <ele>320</ele>
        <time>2007-11-10T11:55:48Z</time>
      </trkpt>
      <trkpt lat="44.13573" lon="1.723">
        <ele>320</ele>
        <time>2007-11-10T11:55:58Z</time>
      </trkpt>
      <trkpt lat="44.1359" lon="1.72261">
        <ele>319</ele>
        <time>2007-11-10T11:56:06Z</time>
      </trkpt>
      <trkpt lat="44.1361" lon="1.72222">
        <ele>318</ele>
        <time>2007-11-10T11:56:14Z</time>
      </trkpt>
      <trkpt lat="44.13618" lon="1.72185">
        <ele>315</ele>
        <time>2007-11-10T11:56:22Z</time>
      </trkpt>
      <trkpt lat="44.13642" lon="1.72154">
        <ele>313</ele>
        <time>2007-11-10T11:56:31Z</time>
      </trkpt>
      <trkpt lat="44.13658" lon="1.72176">
        <ele>315</ele>
        <time>2007-11-10T11:56:43Z</time>
      </trkpt>
      <trkpt lat="44.13675" lon="1.7221">
        <ele>318</ele>
        <time>2007-11-10T11:57:00Z</time>
      </trkpt>
      <trkpt lat="44.13703" lon="1.72231">
        <ele>318</ele>
        <time>2007-11-10T11:57:13Z</time>
      </trkpt>
      <trkpt lat="44.13717" lon="1.72255">
        <ele>320</ele>
        <time>2007-11-10T11:57:24Z</time>
      </trkpt>
      <trkpt lat="44.13729" lon="1.72288">
        <ele>323</ele>
        <time>2007-11-10T11:57:40Z</time>
      </trkpt>
      <trkpt lat="44.1376" lon="1.72309">
        <ele>322</ele>
        <time>2007-11-10T11:57:52Z</time>
      </trkpt>
      <trkpt lat="44.13794" lon="1.72334">
        <ele>322</ele>
        <time>2007-11-10T11:58:04Z</time>
      </trkpt>
      <trkpt lat="44.13808" lon="1.72373">
        <ele>326</ele>
        <time>2007-11-10T11:58:18Z</time>
      </trkpt>
      <trkpt lat="44.13817" lon="1.7241">
        <ele>328</ele>
        <time>2007-11-10T11:58:33Z</time>
      </trkpt>
      <trkpt lat="44.13832" lon="1.72445">
        <ele>329</ele>
        <time>2007-11-10T11:58:46Z</time>
      </trkpt>
      <trkpt lat="44.13857" lon="1.72486">
        <ele>329</ele>
        <time>2007-11-10T11:58:57Z</time>
      </trkpt>
      <trkpt lat="44.13876" lon="1.72516">
        <ele>330</ele>
        <time>2007-11-10T11:59:08Z</time>
      </trkpt>
      <trkpt lat="44.13902" lon="1.72502">
        <ele>330</ele>
        <time>2007-11-10T11:59:19Z</time>
      </trkpt>
      <trkpt lat="44.1392" lon="1.7247">
        <ele>329</ele>
        <time>2007-11-10T11:59:27Z</time>
      </trkpt>
      <trkpt lat="44.13956" lon="1.72461">
        <ele>330</ele>
        <time>2007-11-10T11:59:39Z</time>
      </trkpt>
      <trkpt lat="44.13995" lon="1.72466">
        <ele>329</ele>
        <time>2007-11-10T11:59:51Z</time>
      </trkpt>
      <trkpt lat="44.14043" lon="1.72483">
        <ele>331</ele>
        <time>2007-11-10T12:00:04Z</time>
      </trkpt>
      <trkpt lat="44.14066" lon="1.72502">
        <ele>332</ele>
        <time>2007-11-10T12:00:15Z</time>
      </trkpt>
      <trkpt lat="44.14103" lon="1.72483">
        <ele>331</ele>
        <time>2007-11-10T12:00:27Z</time>
      </trkpt>
      <trkpt lat="44.14137" lon="1.72444">
        <ele>331</ele>
        <time>2007-11-10T12:00:39Z</time>
      </trkpt>
      <trkpt lat="44.14166" lon="1.72419">
        <ele>334</ele>
        <time>2007-11-10T12:00:51Z</time>
      </trkpt>
      <trkpt lat="44.14185" lon="1.72389">
        <ele>334</ele>
        <time>2007-11-10T12:01:01Z</time>
      </trkpt>
      <trkpt lat="44.14208" lon="1.72386">
        <ele>335</ele>
        <time>2007-11-10T12:01:10Z</time>
      </trkpt>
      <trkpt lat="44.1422" lon="1.72412">
        <ele>337</ele>
        <time>2007-11-10T12:01:21Z</time>
      </trkpt>
      <trkpt lat="44.14222" lon="1.7245">
        <ele>338</ele>
        <time>2007-11-10T12:01:31Z</time>
      </trkpt>
      <trkpt lat="44.14241" lon="1.72458">
        <ele>339</ele>
        <time>2007-11-10T12:01:40Z</time>
      </trkpt>
      <trkpt lat="44.14256" lon="1.72459">
        <ele>339</ele>
        <time>2007-11-10T12:01:46Z</time>
      </trkpt>
      <trkpt lat="44.14291" lon="1.7244">
        <ele>339</ele>
        <time>2007-11-10T12:01:59Z</time>
      </trkpt>
      <trkpt lat="44.14319" lon="1.72419">
        <ele>338</ele>
        <time>2007-11-10T12:02:09Z</time>
      </trkpt>
      <trkpt lat="44.14357" lon="1.72424">
        <ele>337</ele>
        <time>2007-11-10T12:02:22Z</time>
      </trkpt>
      <trkpt lat="44.1437" lon="1.72426">
        <ele>338</ele>
        <time>2007-11-10T12:02:34Z</time>
      </trkpt>
      <trkpt lat="44.14372" lon="1.72432">
        <ele>337</ele>
        <time>2007-11-10T12:02:48Z</time>
      </trkpt>
      <trkpt lat="44.14375" lon="1.72433">
        <ele>337</ele>
        <time>2007-11-10T12:03:10Z</time>
      </trkpt>
      <trkpt lat="44.14377" lon="1.72434">
        <ele>337</ele>
        <time>2007-11-10T12:03:31Z</time>
      </trkpt>
      <trkpt lat="44.14378" lon="1.72434">
        <ele>338</ele>
        <time>2007-11-10T12:03:54Z</time>
      </trkpt>
      <trkpt lat="44.14386" lon="1.72431">
        <ele>338</ele>
        <time>2007-11-10T12:04:13Z</time>
      </trkpt>
      <trkpt lat="44.14391" lon="1.72431">
        <ele>336</ele>
        <time>2007-11-10T12:04:24Z</time>
      </trkpt>
      <trkpt lat="44.14401" lon="1.72439">
        <ele>335</ele>
        <time>2007-11-10T12:04:54Z</time>
      </trkpt>
      <trkpt lat="44.14412" lon="1.72496">
        <ele>334</ele>
        <time>2007-11-10T12:05:07Z</time>
      </trkpt>
      <trkpt lat="44.14426" lon="1.72535">
        <ele>334</ele>
        <time>2007-11-10T12:05:16Z</time>
      </trkpt>
      <trkpt lat="44.14449" lon="1.72557">
        <ele>331</ele>
        <time>2007-11-10T12:05:27Z</time>
      </trkpt>
      <trkpt lat="44.1447" lon="1.72591">
        <ele>327</ele>
        <time>2007-11-10T12:05:35Z</time>
      </trkpt>
      <trkpt lat="44.14495" lon="1.72648">
        <ele>326</ele>
        <time>2007-11-10T12:05:48Z</time>
      </trkpt>
      <trkpt lat="44.14497" lon="1.72674">
        <ele>328</ele>
        <time>2007-11-10T12:05:57Z</time>
      </trkpt>
      <trkpt lat="44.14494" lon="1.72705">
        <ele>331</ele>
        <time>2007-11-10T12:06:10Z</time>
      </trkpt>
      <trkpt lat="44.1449" lon="1.72718">
        <ele>332</ele>
        <time>2007-11-10T12:06:16Z</time>
      </trkpt>
      <trkpt lat="44.14501" lon="1.72764">
        <ele>333</ele>
        <time>2007-11-10T12:06:29Z</time>
      </trkpt>
      <trkpt lat="44.14519" lon="1.72808">
        <ele>332</ele>
        <time>2007-11-10T12:06:40Z</time>
      </trkpt>
      <trkpt lat="44.14532" lon="1.72841">
        <ele>329</ele>
        <time>2007-11-10T12:06:47Z</time>
      </trkpt>
      <trkpt lat="44.14534" lon="1.72901">
        <ele>328</ele>
        <time>2007-11-10T12:06:59Z</time>
      </trkpt>
      <trkpt lat="44.14533" lon="1.72907">
        <ele>328</ele>
        <time>2007-11-10T12:07:17Z</time>
      </trkpt>
      <trkpt lat="44.14533" lon="1.72908">
        <ele>329</ele>
        <time>2007-11-10T12:07:36Z</time>
      </trkpt>
      <trkpt lat="44.14533" lon="1.72909">
        <ele>329</ele>
        <time>2007-11-10T12:07:53Z</time>
      </trkpt>
      <trkpt lat="44.14533" lon="1.72909">
        <ele>329</ele>
        <time>2007-11-10T12:08:20Z</time>
      </trkpt>
      <trkpt lat="44.14534" lon="1.72908">
        <ele>328</ele>
        <time>2007-11-10T12:08:36Z</time>
      </trkpt>
      <trkpt lat="44.1454" lon="1.72894">
        <ele>328</ele>
        <time>2007-11-10T12:08:46Z</time>
      </trkpt>
      <trkpt lat="44.14561" lon="1.72853">
        <ele>326</ele>
        <time>2007-11-10T12:08:56Z</time>
      </trkpt>
      <trkpt lat="44.14576" lon="1.7283">
        <ele>324</ele>
        <time>2007-11-10T12:09:03Z</time>
      </trkpt>
      <trkpt lat="44.14582" lon="1.72819">
        <ele>322</ele>
        <time>2007-11-10T12:11:40Z</time>
      </trkpt>
      <trkpt lat="44.14592" lon="1.72803">
        <ele>320</ele>
        <time>2007-11-10T12:11:46Z</time>
      </trkpt>
      <trkpt lat="44.14605" lon="1.72814">
        <ele>318</ele>
        <time>2007-11-10T12:11:53Z</time>
      </trkpt>
      <trkpt lat="44.14606" lon="1.72824">
        <ele>318</ele>
        <time>2007-11-10T12:11:57Z</time>
      </trkpt>
      <trkpt lat="44.14616" lon="1.72826">
        <ele>315</ele>
        <time>2007-11-10T12:12:03Z</time>
      </trkpt>
      <trkpt lat="44.14623" lon="1.72824">
        <ele>313</ele>
        <time>2007-11-10T12:12:11Z</time>
      </trkpt>
      <trkpt lat="44.14635" lon="1.72816">
        <ele>309</ele>
        <time>2007-11-10T12:12:21Z</time>
      </trkpt>
      <trkpt lat="44.14643" lon="1.72807">
        <ele>305</ele>
        <time>2007-11-10T12:12:27Z</time>
      </trkpt>
      <trkpt lat="44.14661" lon="1.72803">
        <ele>300</ele>
        <time>2007-11-10T12:12:33Z</time>
      </trkpt>
      <trkpt lat="44.14679" lon="1.72796">
        <ele>295</ele>
        <time>2007-11-10T12:12:40Z</time>
      </trkpt>
      <trkpt lat="44.14689" lon="1.72786">
        <ele>289</ele>
        <time>2007-11-10T12:12:46Z</time>
      </trkpt>
      <trkpt lat="44.14697" lon="1.72784">
        <ele>288</ele>
        <time>2007-11-10T12:12:49Z</time>
      </trkpt>
      <trkpt lat="44.14715" lon="1.72799">
        <ele>288</ele>
        <time>2007-11-10T12:12:56Z</time>
      </trkpt>
      <trkpt lat="44.14736" lon="1.72823">
        <ele>281</ele>
        <time>2007-11-10T12:13:08Z</time>
      </trkpt>
      <trkpt lat="44.14735" lon="1.7286">
        <ele>284</ele>
        <time>2007-11-10T12:13:22Z</time>
      </trkpt>
      <trkpt lat="44.14729" lon="1.72886">
        <ele>288</ele>
        <time>2007-11-10T12:13:37Z</time>
      </trkpt>
      <trkpt lat="44.14736" lon="1.72916">
        <ele>290</ele>
        <time>2007-11-10T12:13:50Z</time>
      </trkpt>
      <trkpt lat="44.14751" lon="1.72938">
        <ele>295</ele>
        <time>2007-11-10T12:14:08Z</time>
      </trkpt>
      <trkpt lat="44.14759" lon="1.72954">
        <ele>291</ele>
        <time>2007-11-10T12:47:03Z</time>
      </trkpt>
      <trkpt lat="44.14747" lon="1.72961">
        <ele>293</ele>
        <time>2007-11-10T12:47:19Z</time>
      </trkpt>
      <trkpt lat="44.14736" lon="1.72965">
        <ele>296</ele>
        <time>2007-11-10T12:47:37Z</time>
      </trkpt>
      <trkpt lat="44.14721" lon="1.72972">
        <ele>299</ele>
        <time>2007-11-10T12:47:56Z</time>
      </trkpt>
      <trkpt lat="44.14707" lon="1.72975">
        <ele>301</ele>
        <time>2007-11-10T12:48:14Z</time>
      </trkpt>
      <trkpt lat="44.14685" lon="1.72968">
        <ele>301</ele>
        <time>2007-11-10T12:48:27Z</time>
      </trkpt>
      <trkpt lat="44.14677" lon="1.7298">
        <ele>303</ele>
        <time>2007-11-10T12:48:41Z</time>
      </trkpt>
      <trkpt lat="44.14673" lon="1.73003">
        <ele>306</ele>
        <time>2007-11-10T12:49:02Z</time>
      </trkpt>
      <trkpt lat="44.14671" lon="1.73018">
        <ele>306</ele>
        <time>2007-11-10T12:49:13Z</time>
      </trkpt>
      <trkpt lat="44.14656" lon="1.73054">
        <ele>307</ele>
        <time>2007-11-10T12:49:28Z</time>
      </trkpt>
      <trkpt lat="44.14637" lon="1.73081">
        <ele>307</ele>
        <time>2007-11-10T12:49:44Z</time>
      </trkpt>
      <trkpt lat="44.14637" lon="1.73083">
        <ele>307</ele>
        <time>2007-11-10T12:49:56Z</time>
      </trkpt>
      <trkpt lat="44.14642" lon="1.73081">
        <ele>307</ele>
        <time>2007-11-10T12:50:40Z</time>
      </trkpt>
      <trkpt lat="44.14647" lon="1.73078">
        <ele>305</ele>
        <time>2007-11-10T12:52:49Z</time>
      </trkpt>
      <trkpt lat="44.14643" lon="1.73076">
        <ele>304</ele>
        <time>2007-11-10T12:53:01Z</time>
      </trkpt>
      <trkpt lat="44.14636" lon="1.7308">
        <ele>304</ele>
        <time>2007-11-10T12:53:25Z</time>
      </trkpt>
      <trkpt lat="44.14632" lon="1.73085">
        <ele>305</ele>
        <time>2007-11-10T12:53:49Z</time>
      </trkpt>
      <trkpt lat="44.14629" lon="1.73087">
        <ele>303</ele>
        <time>2007-11-10T12:54:13Z</time>
      </trkpt>
      <trkpt lat="44.14626" lon="1.73087">
        <ele>304</ele>
        <time>2007-11-10T12:54:58Z</time>
      </trkpt>
      <trkpt lat="44.1462" lon="1.73093">
        <ele>305</ele>
        <time>2007-11-10T12:55:22Z</time>
      </trkpt>
      <trkpt lat="44.14616" lon="1.73095">
        <ele>305</ele>
        <time>2007-11-10T12:56:00Z</time>
      </trkpt>
      <trkpt lat="44.14617" lon="1.73096">
        <ele>306</ele>
        <time>2007-11-10T12:56:22Z</time>
      </trkpt>
      <trkpt lat="44.14618" lon="1.73095">
        <ele>307</ele>
        <time>2007-11-10T12:56:59Z</time>
      </trkpt>
      <trkpt lat="44.14622" lon="1.73092">
        <ele>309</ele>
        <time>2007-11-10T12:58:00Z</time>
      </trkpt>
      <trkpt lat="44.14624" lon="1.7309">
        <ele>309</ele>
        <time>2007-11-10T12:58:32Z</time>
      </trkpt>
      <trkpt lat="44.14623" lon="1.7309">
        <ele>309</ele>
        <time>2007-11-10T12:58:54Z</time>
      </trkpt>
      <trkpt lat="44.14625" lon="1.73088">
        <ele>309</ele>
        <time>2007-11-10T12:59:09Z</time>
      </trkpt>
      <trkpt lat="44.14625" lon="1.73095">
        <ele>309</ele>
        <time>2007-11-10T12:59:22Z</time>
      </trkpt>
      <trkpt lat="44.14613" lon="1.73131">
        <ele>307</ele>
        <time>2007-11-10T12:59:37Z</time>
      </trkpt>
      <trkpt lat="44.14599" lon="1.73167">
        <ele>305</ele>
        <time>2007-11-10T12:59:44Z</time>
      </trkpt>
      <trkpt lat="44.14589" lon="1.7319">
        <ele>308</ele>
        <time>2007-11-10T12:59:57Z</time>
      </trkpt>
      <trkpt lat="44.14575" lon="1.73211">
        <ele>311</ele>
        <time>2007-11-10T13:00:13Z</time>
      </trkpt>
      <trkpt lat="44.14569" lon="1.73233">
        <ele>311</ele>
        <time>2007-11-10T13:00:22Z</time>
      </trkpt>
      <trkpt lat="44.1455" lon="1.73258">
        <ele>313</ele>
        <time>2007-11-10T13:00:37Z</time>
      </trkpt>
      <trkpt lat="44.1453" lon="1.73294">
        <ele>313</ele>
        <time>2007-11-10T13:00:51Z</time>
      </trkpt>
      <trkpt lat="44.14511" lon="1.73329">
        <ele>314</ele>
        <time>2007-11-10T13:01:06Z</time>
      </trkpt>
      <trkpt lat="44.14496" lon="1.73383">
        <ele>313</ele>
        <time>2007-11-10T13:01:21Z</time>
      </trkpt>
      <trkpt lat="44.14491" lon="1.73394">
        <ele>313</ele>
        <time>2007-11-10T13:01:39Z</time>
      </trkpt>
      <trkpt lat="44.1449" lon="1.73398">
        <ele>313</ele>
        <time>2007-11-10T13:02:05Z</time>
      </trkpt>
      <trkpt lat="44.1449" lon="1.73411">
        <ele>313</ele>
        <time>2007-11-10T13:02:18Z</time>
      </trkpt>
      <trkpt lat="44.14488" lon="1.73417">
        <ele>314</ele>
        <time>2007-11-10T13:02:43Z</time>
      </trkpt>
      <trkpt lat="44.1449" lon="1.7342">
        <ele>312</ele>
        <time>2007-11-10T13:03:08Z</time>
      </trkpt>
      <trkpt lat="44.14496" lon="1.73418">
        <ele>307</ele>
        <time>2007-11-10T13:03:14Z</time>
      </trkpt>
      <trkpt lat="44.14508" lon="1.73416">
        <ele>302</ele>
        <time>2007-11-10T13:03:22Z</time>
      </trkpt>
      <trkpt lat="44.1452" lon="1.73418">
        <ele>298</ele>
        <time>2007-11-10T13:03:31Z</time>
      </trkpt>
      <trkpt lat="44.14527" lon="1.73416">
        <ele>295</ele>
        <time>2007-11-10T13:03:45Z</time>
      </trkpt>
      <trkpt lat="44.14534" lon="1.73408">
        <ele>293</ele>
        <time>2007-11-10T13:03:54Z</time>
      </trkpt>
      <trkpt lat="44.14538" lon="1.7339">
        <ele>288</ele>
        <time>2007-11-10T13:04:04Z</time>
      </trkpt>
      <trkpt lat="44.14546" lon="1.73372">
        <ele>286</ele>
        <time>2007-11-10T13:04:11Z</time>
      </trkpt>
      <trkpt lat="44.14549" lon="1.73383">
        <ele>284</ele>
        <time>2007-11-10T13:04:19Z</time>
      </trkpt>
      <trkpt lat="44.14561" lon="1.73431">
        <ele>278</ele>
        <time>2007-11-10T13:04:29Z</time>
      </trkpt>
      <trkpt lat="44.14565" lon="1.73459">
        <ele>276</ele>
        <time>2007-11-10T13:04:35Z</time>
      </trkpt>
      <trkpt lat="44.14567" lon="1.73514">
        <ele>271</ele>
        <time>2007-11-10T13:04:44Z</time>
      </trkpt>
      <trkpt lat="44.14574" lon="1.73569">
        <ele>266</ele>
        <time>2007-11-10T13:04:53Z</time>
      </trkpt>
      <trkpt lat="44.14582" lon="1.73594">
        <ele>264</ele>
        <time>2007-11-10T13:04:58Z</time>
      </trkpt>
      <trkpt lat="44.14595" lon="1.73626">
        <ele>258</ele>
        <time>2007-11-10T13:05:07Z</time>
      </trkpt>
      <trkpt lat="44.14603" lon="1.7366">
        <ele>252</ele>
        <time>2007-11-10T13:05:17Z</time>
      </trkpt>
      <trkpt lat="44.14605" lon="1.73681">
        <ele>250</ele>
        <time>2007-11-10T13:05:27Z</time>
      </trkpt>
      <trkpt lat="44.14603" lon="1.73681">
        <ele>250</ele>
        <time>2007-11-10T13:05:43Z</time>
      </trkpt>
      <trkpt lat="44.14603" lon="1.73684">
        <ele>250</ele>
        <time>2007-11-10T13:06:10Z</time>
      </trkpt>
      <trkpt lat="44.14602" lon="1.73685">
        <ele>250</ele>
        <time>2007-11-10T13:06:41Z</time>
      </trkpt>
      <trkpt lat="44.14602" lon="1.73693">
        <ele>249</ele>
        <time>2007-11-10T13:07:16Z</time>
      </trkpt>
      <trkpt lat="44.14606" lon="1.73707">
        <ele>248</ele>
        <time>2007-11-10T13:07:20Z</time>
      </trkpt>
      <trkpt lat="44.14611" lon="1.73736">
        <ele>243</ele>
        <time>2007-11-10T13:07:29Z</time>
      </trkpt>
      <trkpt lat="44.1461" lon="1.73754">
        <ele>239</ele>
        <time>2007-11-10T13:07:35Z</time>
      </trkpt>
      <trkpt lat="44.14604" lon="1.73784">
        <ele>235</ele>
        <time>2007-11-10T13:07:46Z</time>
      </trkpt>
      <trkpt lat="44.14589" lon="1.73802">
        <ele>231</ele>
        <time>2007-11-10T13:07:53Z</time>
      </trkpt>
      <trkpt lat="44.14578" lon="1.73822">
        <ele>226</ele>
        <time>2007-11-10T13:08:04Z</time>
      </trkpt>
      <trkpt lat="44.1458" lon="1.73837">
        <ele>223</ele>
        <time>2007-11-10T13:08:11Z</time>
      </trkpt>
      <trkpt lat="44.14586" lon="1.73844">
        <ele>220</ele>
        <time>2007-11-10T13:08:20Z</time>
      </trkpt>
      <trkpt lat="44.14595" lon="1.73839">
        <ele>216</ele>
        <time>2007-11-10T13:08:31Z</time>
      </trkpt>
      <trkpt lat="44.14599" lon="1.73846">
        <ele>214</ele>
        <time>2007-11-10T13:08:43Z</time>
      </trkpt>
      <trkpt lat="44.14603" lon="1.73852">
        <ele>213</ele>
        <time>2007-11-10T13:08:55Z</time>
      </trkpt>
      <trkpt lat="44.14605" lon="1.73853">
        <ele>212</ele>
        <time>2007-11-10T13:09:09Z</time>
      </trkpt>
      <trkpt lat="44.1461" lon="1.73841">
        <ele>208</ele>
        <time>2007-11-10T13:09:21Z</time>
      </trkpt>
      <trkpt lat="44.14615" lon="1.73846">
        <ele>207</ele>
        <time>2007-11-10T13:09:31Z</time>
      </trkpt>
      <trkpt lat="44.14625" lon="1.73852">
        <ele>200</ele>
        <time>2007-11-10T13:09:44Z</time>
      </trkpt>
      <trkpt lat="44.14632" lon="1.73859">
        <ele>198</ele>
        <time>2007-11-10T13:09:55Z</time>
      </trkpt>
      <trkpt lat="44.14647" lon="1.73867">
        <ele>194</ele>
        <time>2007-11-10T13:10:03Z</time>
      </trkpt>
      <trkpt lat="44.14675" lon="1.73884">
        <ele>189</ele>
        <time>2007-11-10T13:10:14Z</time>
      </trkpt>
      <trkpt lat="44.14694" lon="1.73908">
        <ele>184</ele>
        <time>2007-11-10T13:10:22Z</time>
      </trkpt>
      <trkpt lat="44.14705" lon="1.73928">
        <ele>181</ele>
        <time>2007-11-10T13:10:29Z</time>
      </trkpt>
      <trkpt lat="44.14714" lon="1.73942">
        <ele>177</ele>
        <time>2007-11-10T13:10:35Z</time>
      </trkpt>
      <trkpt lat="44.14721" lon="1.73945">
        <ele>175</ele>
        <time>2007-11-10T13:10:45Z</time>
      </trkpt>
      <trkpt lat="44.14722" lon="1.73947">
        <ele>174</ele>
        <time>2007-11-10T13:10:49Z</time>
      </trkpt>
      <trkpt lat="44.14737" lon="1.73978">
        <ele>168</ele>
        <time>2007-11-10T13:11:01Z</time>
      </trkpt>
      <trkpt lat="44.1475" lon="1.73998">
        <ele>165</ele>
        <time>2007-11-10T13:11:08Z</time>
      </trkpt>
      <trkpt lat="44.1476" lon="1.74016">
        <ele>161</ele>
        <time>2007-11-10T13:11:16Z</time>
      </trkpt>
      <trkpt lat="44.14768" lon="1.74033">
        <ele>158</ele>
        <time>2007-11-10T13:11:29Z</time>
      </trkpt>
      <trkpt lat="44.1477" lon="1.74043">
        <ele>155</ele>
        <time>2007-11-10T13:11:37Z</time>
      </trkpt>
      <trkpt lat="44.14774" lon="1.74055">
        <ele>153</ele>
        <time>2007-11-10T13:11:51Z</time>
      </trkpt>
      <trkpt lat="44.14774" lon="1.74058">
        <ele>152</ele>
        <time>2007-11-10T13:11:54Z</time>
      </trkpt>
      <trkpt lat="44.1479" lon="1.74086">
        <ele>148</ele>
        <time>2007-11-10T13:12:06Z</time>
      </trkpt>
      <trkpt lat="44.14801" lon="1.74112">
        <ele>144</ele>
        <time>2007-11-10T13:12:15Z</time>
      </trkpt>
      <trkpt lat="44.14805" lon="1.7412">
        <ele>141</ele>
        <time>2007-11-10T13:12:25Z</time>
      </trkpt>
      <trkpt lat="44.14807" lon="1.74126">
        <ele>140</ele>
        <time>2007-11-10T13:12:40Z</time>
      </trkpt>
      <trkpt lat="44.14818" lon="1.74147">
        <ele>137</ele>
        <time>2007-11-10T13:12:51Z</time>
      </trkpt>
      <trkpt lat="44.14821" lon="1.74158">
        <ele>134</ele>
        <time>2007-11-10T13:13:02Z</time>
      </trkpt>
      <trkpt lat="44.14836" lon="1.74188">
        <ele>130</ele>
        <time>2007-11-10T13:13:13Z</time>
      </trkpt>
      <trkpt lat="44.14848" lon="1.74218">
        <ele>127</ele>
        <time>2007-11-10T13:13:21Z</time>
      </trkpt>
      <trkpt lat="44.14859" lon="1.74259">
        <ele>125</ele>
        <time>2007-11-10T13:13:31Z</time>
      </trkpt>
      <trkpt lat="44.14859" lon="1.74259">
        <ele>125</ele>
        <time>2007-11-10T13:13:47Z</time>
      </trkpt>
      <trkpt lat="44.1486" lon="1.74259">
        <ele>125</ele>
        <time>2007-11-10T13:14:16Z</time>
      </trkpt>
      <trkpt lat="44.14858" lon="1.74257">
        <ele>125</ele>
        <time>2007-11-10T13:14:36Z</time>
      </trkpt>
      <trkpt lat="44.14856" lon="1.7426">
        <ele>125</ele>
        <time>2007-11-10T13:15:11Z</time>
      </trkpt>
      <trkpt lat="44.14856" lon="1.7426">
        <ele>125</ele>
        <time>2007-11-10T13:15:45Z</time>
      </trkpt>
      <trkpt lat="44.14859" lon="1.74259">
        <ele>125</ele>
        <time>2007-11-10T13:16:10Z</time>
      </trkpt>
      <trkpt lat="44.1486" lon="1.74258">
        <ele>126</ele>
        <time>2007-11-10T13:16:29Z</time>
      </trkpt>
      <trkpt lat="44.14862" lon="1.7426">
        <ele>126</ele>
        <time>2007-11-10T13:16:50Z</time>
      </trkpt>
      <trkpt lat="44.14859" lon="1.74259">
        <ele>126</ele>
        <time>2007-11-10T13:17:17Z</time>
      </trkpt>
      <trkpt lat="44.14856" lon="1.74261">
        <ele>126</ele>
        <time>2007-11-10T13:17:40Z</time>
      </trkpt>
      <trkpt lat="44.14857" lon="1.74264">
        <ele>126</ele>
        <time>2007-11-10T13:18:04Z</time>
      </trkpt>
      <trkpt lat="44.14854" lon="1.74266">
        <ele>126</ele>
        <time>2007-11-10T13:18:32Z</time>
      </trkpt>
      <trkpt lat="44.1485" lon="1.74268">
        <ele>126</ele>
        <time>2007-11-10T13:19:17Z</time>
      </trkpt>
      <trkpt lat="44.14858" lon="1.74258">
        <ele>126</ele>
        <time>2007-11-10T13:19:40Z</time>
      </trkpt>
      <trkpt lat="44.14862" lon="1.74251">
        <ele>125</ele>
        <time>2007-11-10T13:19:51Z</time>
      </trkpt>
      <trkpt lat="44.14869" lon="1.74266">
        <ele>123</ele>
        <time>2007-11-10T13:20:03Z</time>
      </trkpt>
      <trkpt lat="44.14879" lon="1.74339">
        <ele>123</ele>
        <time>2007-11-10T13:20:18Z</time>
      </trkpt>
      <trkpt lat="44.14888" lon="1.74419">
        <ele>125</ele>
        <time>2007-11-10T13:20:36Z</time>
      </trkpt>
      <trkpt lat="44.14895" lon="1.74482">
        <ele>126</ele>
        <time>2007-11-10T13:20:50Z</time>
      </trkpt>
      <trkpt lat="44.14908" lon="1.74575">
        <ele>124</ele>
        <time>2007-11-10T13:21:06Z</time>
      </trkpt>
      <trkpt lat="44.14936" lon="1.74682">
        <ele>124</ele>
        <time>2007-11-10T13:21:26Z</time>
      </trkpt>
      <trkpt lat="44.14958" lon="1.74762">
        <ele>124</ele>
        <time>2007-11-10T13:21:40Z</time>
      </trkpt>
      <trkpt lat="44.14983" lon="1.7486">
        <ele>124</ele>
        <time>2007-11-10T13:21:56Z</time>
      </trkpt>
      <trkpt lat="44.14997" lon="1.74977">
        <ele>123</ele>
        <time>2007-11-10T13:22:12Z</time>
      </trkpt>
      <trkpt lat="44.15002" lon="1.75082">
        <ele>124</ele>
        <time>2007-11-10T13:22:28Z</time>
      </trkpt>
      <trkpt lat="44.14995" lon="1.75151">
        <ele>126</ele>
        <time>2007-11-10T13:22:41Z</time>
      </trkpt>
      <trkpt lat="44.14989" lon="1.75189">
        <ele>128</ele>
        <time>2007-11-10T13:22:52Z</time>
      </trkpt>
      <trkpt lat="44.14981" lon="1.75201">
        <ele>129</ele>
        <time>2007-11-10T13:23:07Z</time>
      </trkpt>
      <trkpt lat="44.14972" lon="1.75209">
        <ele>128</ele>
        <time>2007-11-10T13:23:33Z</time>
      </trkpt>
      <trkpt lat="44.14976" lon="1.75201">
        <ele>129</ele>
        <time>2007-11-10T13:24:02Z</time>
      </trkpt>
      <trkpt lat="44.14972" lon="1.75217">
        <ele>129</ele>
        <time>2007-11-10T13:24:21Z</time>
      </trkpt>
      <trkpt lat="44.14969" lon="1.75257">
        <ele>129</ele>
        <time>2007-11-10T13:24:33Z</time>
      </trkpt>
      <trkpt lat="44.14965" lon="1.75308">
        <ele>129</ele>
        <time>2007-11-10T13:24:46Z</time>
      </trkpt>
      <trkpt lat="44.14961" lon="1.75365">
        <ele>130</ele>
        <time>2007-11-10T13:24:59Z</time>
      </trkpt>
      <trkpt lat="44.14949" lon="1.75434">
        <ele>129</ele>
        <time>2007-11-10T13:25:14Z</time>
      </trkpt>
      <trkpt lat="44.14952" lon="1.75485">
        <ele>129</ele>
        <time>2007-11-10T13:25:25Z</time>
      </trkpt>
      <trkpt lat="44.15021" lon="1.75522">
        <ele>128</ele>
        <time>2007-11-10T13:25:41Z</time>
      </trkpt>
      <trkpt lat="44.15053" lon="1.75506">
        <ele>124.78125</ele>
      </trkpt>
      <trkpt lat="44.15101" lon="1.75357">
        <ele>121.234375</ele>
      </trkpt>
      <trkpt lat="44.15104" lon="1.75357">
        <ele>121.13671875</ele>
      </trkpt>
      <trkpt lat="44.15163" lon="1.75311">
        <ele>120</ele>
      </trkpt>
      <trkpt lat="44.15233" lon="1.75318">
        <ele>121</ele>
      </trkpt>
      <trkpt lat="44.15274" lon="1.75159">
        <ele>123.140625</ele>
      </trkpt>
    </trkseg>
  </trk>
</gpx>